
Distance (Route):
Temperature : -30.3°C
Humidity : 28.1%
Pressure : 0hPa| Receiver | Frames | First received | Last received |
|---|---|---|---|
| IW2NTF | 473 | 2026-08-31 23:10:30 | 2026-09-01 00:40:41 |
| DO3MHA-11 | 199 | 2026-08-31 23:49:41 | 2026-09-01 00:35:00 |
| DO3MHA-12 | 63 | 2026-09-01 00:11:48 | 2026-09-01 00:33:29 |
| NBG1-10 | 16 | 2026-09-01 00:19:23 | 2026-09-01 00:32:38 |
| DB0UT-7 | 5 | 2026-09-01 00:23:18 | 2026-09-01 00:32:27 |
| S52SK | 2 | 2026-09-01 00:01:34 | 2026-09-01 00:06:23 |
| Receiver | Date | Latitude | Longitude | Direction | Speed | Altitude | Climb | Temperature | Humidity | Pressure | Voltage | Killtimer | Uptime | BKT | XDATA |
|---|---|---|---|---|---|---|---|---|---|---|---|---|---|---|---|
| IW2NTF | 2026-09-01 00:40:41 | 44.71770 | 12.67197 | 90° | 88km/h | 8634m | -21.1m/s | -30.3°C | 28.1% | 0hPa | 2.5V | 08:21:43 | 02:06:20 | 00:00:00 | |
| IW2NTF | 2026-09-01 00:39:16 | 44.71806 | 12.64241 | 87° | 115km/h | 10488m | -23.2m/s | -44.5°C | 29.4% | 0hPa | 2.5V | 08:23:04 | 02:04:59 | 00:00:00 | |
| IW2NTF | 2026-09-01 00:39:10 | 44.71790 | 12.63812 | 84° | 128km/h | 10715m | -24.1m/s | -45.8°C | 25.5% | 0hPa | 2.5V | 08:23:14 | 02:04:49 | 00:00:00 | |
| IW2NTF | 2026-09-01 00:38:56 | 44.71767 | 12.63358 | 84° | 133km/h | 10941m | -24.4m/s | -47.4°C | 23.2% | 0hPa | 2.5V | 08:23:24 | 02:04:39 | 00:00:00 | |
| IW2NTF | 2026-09-01 00:38:46 | 44.71727 | 12.62877 | 84° | 137km/h | 11173m | -25m/s | -49.2°C | 24% | 0hPa | 2.5V | 08:23:34 | 02:04:29 | 00:00:00 | |
| IW2NTF | 2026-09-01 00:38:36 | 44.71704 | 12.62363 | 84° | 142km/h | 11426m | -25.8m/s | -50.7°C | 21.8% | 0hPa | 2.6V | 08:23:44 | 02:04:19 | 00:00:00 | |
| IW2NTF | 2026-09-01 00:38:20 | 44.71865 | 12.61730 | 82° | 148km/h | 11776m | -21.7m/s | -53.1°C | 19.9% | 0hPa | 2.5V | 08:24:02 | 02:04:01 | 00:00:00 | |
| IW2NTF | 2026-09-01 00:38:12 | 44.71808 | 12.61198 | 80° | 151km/h | 11977m | -23.8m/s | -54.9°C | 19.2% | 0hPa | 2.6V | 08:24:12 | 02:03:51 | 00:00:00 | |
| IW2NTF | 2026-09-01 00:37:59 | 44.71747 | 12.60707 | 80° | 146km/h | 12176m | -24.3m/s | -56.2°C | 17% | 0hPa | 2.5V | 08:24:22 | 02:03:41 | 00:00:00 | |
| IW2NTF | 2026-09-01 00:37:53 | 44.71723 | 12.60221 | 82° | 139km/h | 12349m | -26.5m/s | -57.1°C | 15.3% | 0hPa | 2.5V | 08:24:32 | 02:03:31 | 00:00:00 | |
| IW2NTF | 2026-09-01 00:37:40 | 44.71698 | 12.59739 | 84° | 141km/h | 12590m | -28.9m/s | -57.9°C | 14.3% | 0hPa | 2.5V | 08:24:42 | 02:03:21 | 00:00:00 | |
| IW2NTF | 2026-09-01 00:37:32 | 44.71681 | 12.59269 | 85° | 131km/h | 12872m | -29.2m/s | -59°C | 12.6% | 0hPa | 2.5V | 08:24:52 | 02:03:11 | 00:00:00 | |
| IW2NTF | 2026-09-01 00:37:20 | 44.71642 | 12.58767 | 91° | 119km/h | 13244m | -25.8m/s | -59.6°C | 10.6% | 0hPa | 2.5V | 08:25:02 | 02:03:01 | 00:00:00 | |
| IW2NTF | 2026-09-01 00:37:10 | 44.71637 | 12.58403 | 86° | 106km/h | 13470m | -29.7m/s | -59.5°C | 8.6% | 0hPa | 2.6V | 08:25:12 | 02:02:51 | 00:00:00 | |
| IW2NTF | 2026-09-01 00:37:00 | 44.71606 | 12.58041 | 81° | 102km/h | 13769m | -31m/s | -59.3°C | 7.3% | 0hPa | 2.6V | 08:25:22 | 02:02:41 | 00:00:00 | |
| IW2NTF | 2026-09-01 00:36:49 | 44.71577 | 12.57668 | 83° | 95km/h | 14075m | -31.7m/s | -60.2°C | 7.2% | 0hPa | 2.6V | 08:25:32 | 02:02:31 | 00:00:00 | |
| IW2NTF | 2026-09-01 00:36:42 | 44.71491 | 12.57295 | 82° | 86km/h | 14455m | -33m/s | -60.2°C | 7.2% | 0hPa | 2.6V | 08:25:42 | 02:02:21 | 00:00:00 | |
| IW2NTF | 2026-09-01 00:36:30 | 44.71458 | 12.57022 | 83° | 82km/h | 14803m | -32.8m/s | -60.2°C | 6.7% | 0hPa | 2.6V | 08:25:52 | 02:02:11 | 00:00:00 | |
| IW2NTF | 2026-09-01 00:36:11 | 44.71367 | 12.56316 | 92° | 62km/h | 15388m | -35.1m/s | -59°C | 5.8% | 0hPa | 2.6V | 08:26:11 | 02:01:52 | 00:00:00 | |
| IW2NTF | 2026-09-01 00:36:01 | 44.71363 | 12.56130 | 81° | 71km/h | 15671m | -35.6m/s | -59.7°C | 6.1% | 0hPa | 2.6V | 08:26:21 | 02:01:42 | 00:00:00 | |
| IW2NTF | 2026-09-01 00:35:50 | 44.71373 | 12.56061 | 88° | 53km/h | 16254m | -36.1m/s | -59.2°C | 6% | 0hPa | 2.5V | 08:26:31 | 02:01:32 | 00:00:00 | |
| IW2NTF | 2026-09-01 00:35:38 | 44.71338 | 12.55899 | 61° | 58km/h | 16627m | -37.4m/s | -56.9°C | 4.8% | 0hPa | 2.5V | 08:26:41 | 02:01:22 | 00:00:00 | |
| IW2NTF | 2026-09-01 00:35:29 | 44.71236 | 12.55607 | 100° | 31km/h | 16965m | -38.7m/s | -53.5°C | 3.9% | 0hPa | 2.5V | 08:26:55 | 02:01:08 | 00:00:00 | |
| IW2NTF | 2026-09-01 00:35:09 | 44.70980 | 12.54996 | 65° | 27km/h | 17808m | -40.5m/s | -55.5°C | 4.3% | 0hPa | 2.5V | 08:27:11 | 02:00:52 | 00:00:00 | |
| DO3MHA-11 | 2026-09-01 00:35:00 | 44.70987 | 12.54947 | 66° | 20km/h | 18136m | -41.1m/s | -56.3°C | 4.6% | 0hPa | 2.5V | 00:00:00 | 02:00:44 | 00:00:00 | |
| IW2NTF | 2026-09-01 00:34:59 | 44.70993 | 12.54939 | 73° | 20km/h | 18213m | -41.2m/s | -56.4°C | 4.7% | 0hPa | 2.6V | 08:27:21 | 02:00:42 | 00:00:00 | |
| IW2NTF | 2026-09-01 00:34:53 | 44.70911 | 12.55080 | 59° | 20km/h | 18459m | -41.9m/s | -57.5°C | 5.2% | 0hPa | 2.5V | 08:27:31 | 02:00:32 | 00:00:00 | |
| DO3MHA-11 | 2026-09-01 00:34:50 | 44.70907 | 12.55096 | 53° | 16km/h | 18406m | -42.0m/s | -57.0°C | 4.9% | 0hPa | 2.5V | 00:00:00 | 02:00:34 | 00:00:00 | |
| IW2NTF | 2026-09-01 00:34:37 | 44.70977 | 12.54719 | 64° | 15km/h | 19343m | -45m/s | -55.8°C | 4.7% | 0hPa | 2.5V | 08:27:47 | 02:00:16 | 00:00:00 | |
| IW2NTF | 2026-09-01 00:34:27 | 44.71068 | 12.55084 | 26° | 9km/h | 20051m | -45.5m/s | -55°C | 4.4% | 0hPa | 2.5V | 08:27:57 | 02:00:06 | 00:00:00 | |
| IW2NTF | 2026-09-01 00:34:17 | 44.71071 | 12.55053 | 104° | 11km/h | 20501m | -48.5m/s | -54.9°C | 4.3% | 0hPa | 2.6V | 08:28:07 | 01:59:56 | 00:00:00 | |
| DO3MHA-11 | 2026-09-01 00:34:17 | 44.71064 | 12.55067 | 65° | 11km/h | 20270m | -46.8m/s | -54.9°C | 4.4% | 0hPa | 2.5V | 00:00:00 | 02:00:01 | 00:00:00 | |
| IW2NTF | 2026-09-01 00:34:07 | 44.71094 | 12.55023 | 128° | 4km/h | 20994m | -48.7m/s | -54.6°C | 4.2% | 0hPa | 2.5V | 08:28:17 | 01:59:46 | 00:00:00 | |
| IW2NTF | 2026-09-01 00:33:57 | 44.70911 | 12.54883 | 195° | 7km/h | 21624m | -48.7m/s | -54.9°C | 4.4% | 0hPa | 2.6V | 08:28:27 | 01:59:36 | 00:00:00 | |
| IW2NTF | 2026-09-01 00:33:47 | 44.70916 | 12.54916 | 325° | 15km/h | 22010m | -36.7m/s | -55.4°C | 5.2% | 0hPa | 2.5V | 08:28:37 | 01:59:26 | 00:00:00 | |
| IW2NTF | 2026-09-01 00:33:37 | 44.70885 | 12.54914 | 19° | 11km/h | 22420m | -55.3m/s | -53.2°C | 4.3% | 0hPa | 2.6V | 08:28:47 | 01:59:16 | 00:00:00 | |
| DO3MHA-11 | 2026-09-01 00:33:31 | 44.70882 | 12.54913 | 28° | 4km/h | 22476m | -55.5m/s | -53.1°C | 4.4% | 0hPa | 2.5V | 00:00:00 | 01:59:15 | 00:00:00 | |
| DO3MHA-12 | 2026-09-01 00:33:29 | 44.70878 | 12.54910 | 37° | 5km/h | 22590m | -55.1m/s | -52.4°C | 4.1% | 0hPa | 2.5V | 00:00:00 | 01:59:13 | 00:00:00 | |
| IW2NTF | 2026-09-01 00:33:28 | 44.70871 | 12.54906 | 355° | 2km/h | 22979m | -54.4m/s | -52.2°C | 4% | 0hPa | 2.5V | 08:28:57 | 01:59:06 | 00:00:00 | |
| DO3MHA-11 | 2026-09-01 00:33:20 | 44.70870 | 12.54905 | 360° | 4km/h | 23092m | -55.3m/s | -51.9°C | 3.9% | 0hPa | 2.5V | 00:00:00 | 01:59:04 | 00:00:00 | |
| IW2NTF | 2026-09-01 00:33:17 | 44.70873 | 12.54925 | 242° | 5km/h | 23533m | -57m/s | -51.1°C | 3.7% | 0hPa | 2.5V | 08:30:00 | 01:58:56 | 00:00:00 | |
| DO3MHA-11 | 2026-09-01 00:33:10 | 44.70874 | 12.54931 | 229° | 9km/h | 23643m | -56.1m/s | -51.2°C | 3.8% | 0hPa | 2.6V | 00:00:00 | 01:58:54 | 00:00:00 | |
| DO3MHA-12 | 2026-09-01 00:33:09 | 44.70875 | 12.54934 | 221° | 7km/h | 23698m | -56.1m/s | -51.3°C | 3.8% | 0hPa | 2.6V | 00:00:00 | 01:58:53 | 00:00:00 | |
| IW2NTF | 2026-09-01 00:33:07 | 44.70889 | 12.54951 | 269° | 15km/h | 24104m | -62.7m/s | -51.9°C | 4.2% | 0hPa | 2.6V | 08:30:00 | 01:58:46 | 00:00:00 | |
| DO3MHA-11 | 2026-09-01 00:33:00 | 44.70888 | 12.54961 | 277° | 18km/h | 24231m | -64.8m/s | -52.0°C | 4.3% | 0hPa | 2.5V | 00:00:00 | 01:58:44 | 00:00:00 | |
| IW2NTF | 2026-09-01 00:32:57 | 44.70871 | 12.55003 | 315° | 18km/h | 24750m | -63.9m/s | -52°C | 4.5% | 0hPa | 2.5V | 08:30:00 | 01:58:36 | 00:00:00 | |
| DO3MHA-11 | 2026-09-01 00:32:50 | 44.70864 | 12.55010 | 324° | 9km/h | 24877m | -64.6m/s | -51.1°C | 4.3% | 0hPa | 2.6V | 00:00:00 | 01:58:34 | 00:00:00 | |
| IW2NTF | 2026-09-01 00:32:47 | 44.70849 | 12.55030 | 337° | 11km/h | 25415m | -69.5m/s | -49.9°C | 4% | 0hPa | 2.6V | 08:30:00 | 01:58:26 | 00:00:00 | |
| NBG1-10 | 2026-09-01 00:32:38 | 44.70839 | 12.55027 | 49° | 11km/h | 25698m | -70.7m/s | -49.6°C | 4.1% | 0hPa | 2.5V | 00:00:00 | 01:58:22 | 00:00:00 | |
| IW2NTF | 2026-09-01 00:32:37 | 44.70835 | 12.55006 | 100° | 11km/h | 26121m | -70m/s | -48.4°C | 3.8% | 0hPa | 2.5V | 08:30:00 | 01:58:16 | 00:00:00 | |
| IW2NTF | 2026-09-01 00:32:28 | 44.70843 | 12.54989 | 238° | 2km/h | 26837m | -74.6m/s | -46°C | 3.2% | 0hPa | 2.6V | 08:30:00 | 01:58:06 | 00:00:00 | |
| DB0UT-7 | 2026-09-01 00:32:27 | 44.70838 | 12.54990 | 138° | 5km/h | 26470m | -71.7m/s | -45.6°C | 3.0% | 0hPa | 2.5V | 00:00:00 | 00:00:00 | 00:00:00 | |
| IW2NTF | 2026-09-01 00:32:17 | 44.70849 | 12.54985 | 203° | 5km/h | 27589m | -76.4m/s | -45.1°C | 2.9% | 0hPa | 2.5V | 08:30:00 | 01:57:56 | 00:00:00 | |
| IW2NTF | 2026-09-01 00:32:07 | 44.70838 | 12.54999 | 347° | 5km/h | 28316m | -66.7m/s | -44.2°C | 2.7% | 0hPa | 2.5V | 08:30:00 | 01:57:46 | 00:00:00 | |
| DO3MHA-11 | 2026-09-01 00:32:00 | 44.70835 | 12.54999 | 357° | 4km/h | 28446m | -62.2m/s | -43.8°C | 2.5% | 0hPa | 2.5V | 00:00:00 | 01:57:44 | 00:00:00 | |
| IW2NTF | 2026-09-01 00:31:49 | 44.70841 | 12.55009 | 218° | 11km/h | 28910m | -3.9m/s | -45.2°C | 2.9% | 0hPa | 2.6V | 08:30:00 | 01:57:33 | 00:00:00 | |
| DO3MHA-12 | 2026-09-01 00:31:46 | 44.70848 | 12.55017 | 215° | 7km/h | 28897m | 5.8m/s | -45.2°C | 2.9% | 0hPa | 2.6V | 00:00:00 | 01:57:30 | 00:00:00 | |
| IW2NTF | 2026-09-01 00:31:43 | 44.70857 | 12.55022 | 81° | 5km/h | 28852m | 6.3m/s | -45.3°C | 2.9% | 0hPa | 2.6V | 08:30:00 | 01:57:22 | 00:00:00 | |
| DO3MHA-11 | 2026-09-01 00:31:40 | 44.70857 | 12.55026 | 111° | 7km/h | 28863m | 5.3m/s | -45.2°C | 2.9% | 0hPa | 2.5V | 00:00:00 | 01:57:24 | 00:00:00 | |
| DO3MHA-12 | 2026-09-01 00:31:36 | 44.70856 | 12.55019 | 75° | 7km/h | 28842m | 4.1m/s | -45.4°C | 2.9% | 0hPa | 2.5V | 00:00:00 | 01:57:20 | 08:30:00 | |
| DO3MHA-11 | 2026-09-01 00:31:30 | 44.70861 | 12.55004 | 93° | 9km/h | 28810m | 5.6m/s | -45.8°C | 3.0% | 0hPa | 2.5V | 00:00:00 | 01:57:14 | 08:30:00 | |
| IW2NTF | 2026-09-01 00:31:29 | 44.70861 | 12.55000 | 63° | 4km/h | 28798m | 4.8m/s | -45.8°C | 3% | 0hPa | 2.5V | 08:30:00 | 01:57:12 | 00:00:00 | |
| DO3MHA-12 | 2026-09-01 00:31:26 | 44.70860 | 12.54997 | 95° | 11km/h | 28788m | 6.1m/s | -45.7°C | 3.0% | 0hPa | 2.6V | 00:00:00 | 01:57:10 | 00:00:00 | |
| IW2NTF | 2026-09-01 00:31:24 | 44.70854 | 12.54968 | 61° | 5km/h | 28744m | 5.3m/s | -45.8°C | 3% | 0hPa | 2.6V | 08:30:00 | 01:57:02 | 00:00:00 | |
| DO3MHA-11 | 2026-09-01 00:31:20 | 44.70856 | 12.54972 | 52° | 13km/h | 28755m | 5.2m/s | -45.7°C | 3.0% | 0hPa | 2.6V | 00:00:00 | 01:57:04 | 00:00:00 | |
| DO3MHA-12 | 2026-09-01 00:31:16 | 44.70853 | 12.54963 | 82° | 20km/h | 28734m | 5.1m/s | -45.7°C | 3.0% | 0hPa | 2.6V | 00:00:00 | 01:57:00 | 00:00:00 | |
| DO3MHA-11 | 2026-09-01 00:31:10 | 44.70839 | 12.54936 | 39° | 7km/h | 28701m | 5.6m/s | -45.6°C | 3.0% | 0hPa | 2.6V | 00:00:00 | 01:56:54 | 00:00:00 | |
| IW2NTF | 2026-09-01 00:31:09 | 44.70834 | 12.54931 | 43° | 11km/h | 28689m | 5.8m/s | -45.6°C | 3% | 0hPa | 2.6V | 08:30:00 | 01:56:52 | 00:00:00 | |
| IW2NTF | 2026-09-01 00:31:03 | 44.70818 | 12.54916 | 40° | 15km/h | 28634m | 4.5m/s | -45.5°C | 3% | 0hPa | 2.5V | 08:30:00 | 01:56:42 | 00:00:00 | |
| DO3MHA-11 | 2026-09-01 00:31:00 | 44.70823 | 12.54922 | 27° | 9km/h | 28645m | 6.4m/s | -45.4°C | 3.0% | 0hPa | 2.5V | 00:00:00 | 01:56:44 | 00:00:00 | |
| DO3MHA-11 | 2026-09-01 00:30:50 | 44.70805 | 12.54909 | 352° | 13km/h | 28590m | 5.6m/s | -45.3°C | 2.9% | 0hPa | 2.5V | 00:00:00 | 01:56:34 | 00:00:00 | |
| IW2NTF | 2026-09-01 00:30:49 | 44.70801 | 12.54912 | 332° | 11km/h | 28578m | 5.1m/s | -45.4°C | 2.9% | 0hPa | 2.5V | 08:30:00 | 01:56:32 | 00:00:00 | |
| IW2NTF | 2026-09-01 00:30:43 | 44.70771 | 12.54931 | 307° | 9km/h | 28523m | 5.8m/s | -45.4°C | 3% | 0hPa | 2.6V | 08:30:00 | 01:56:22 | 00:00:00 | |
| DO3MHA-11 | 2026-09-01 00:30:40 | 44.70774 | 12.54924 | 303° | 9km/h | 28534m | 4.6m/s | -45.3°C | 2.9% | 0hPa | 2.6V | 00:00:00 | 01:56:24 | 00:00:00 | |
| DO3MHA-11 | 2026-09-01 00:30:30 | 44.70768 | 12.54949 | 304° | 4km/h | 28480m | 4.9m/s | -45.3°C | 2.9% | 0hPa | 2.6V | 00:00:00 | 01:56:14 | 00:00:00 | |
| IW2NTF | 2026-09-01 00:30:29 | 44.70768 | 12.54951 | 254° | 5km/h | 28469m | 6.3m/s | -45.4°C | 2.9% | 0hPa | 2.5V | 08:30:00 | 01:56:12 | 00:00:00 | |
| IW2NTF | 2026-09-01 00:30:23 | 44.70759 | 12.54984 | 317° | 7km/h | 28415m | 5.1m/s | -45.7°C | 3% | 0hPa | 2.6V | 08:30:00 | 01:56:02 | 00:00:00 | |
| IW2NTF | 2026-09-01 00:30:13 | 44.70742 | 12.54998 | 332° | 15km/h | 28360m | 4.6m/s | -45.9°C | 2.9% | 0hPa | 2.6V | 08:30:00 | 01:55:52 | 00:00:00 | |
| DO3MHA-11 | 2026-09-01 00:30:12 | 44.70752 | 12.54987 | 304° | 13km/h | 28381m | 4.7m/s | -45.7°C | 2.9% | 0hPa | 2.5V | 00:00:00 | 01:55:56 | 00:00:00 | |
| IW2NTF | 2026-09-01 00:30:03 | 44.70715 | 12.55015 | 324° | 18km/h | 28303m | 5.5m/s | -46.3°C | 3% | 0hPa | 2.5V | 08:30:00 | 01:55:42 | 00:00:00 | |
| DO3MHA-11 | 2026-09-01 00:29:56 | 44.70706 | 12.55023 | 325° | 16km/h | 28292m | 6.3m/s | -46.2°C | 3.0% | 0hPa | 2.5V | 00:00:00 | 01:55:40 | 00:00:00 | |
| IW2NTF | 2026-09-01 00:29:53 | 44.70681 | 12.55050 | 42° | 13km/h | 28246m | 5.3m/s | -46.5°C | 3.1% | 0hPa | 2.5V | 08:30:00 | 01:55:32 | 00:00:00 | |
| DO3MHA-11 | 2026-09-01 00:29:46 | 44.70676 | 12.55044 | 39° | 16km/h | 28236m | 6.1m/s | -46.5°C | 3.1% | 0hPa | 2.5V | 00:00:00 | 01:55:30 | 08:30:00 | |
| IW2NTF | 2026-09-01 00:29:43 | 44.70660 | 12.55076 | 274° | 20km/h | 28192m | 6.2m/s | -46.6°C | 3.1% | 0hPa | 2.6V | 08:30:00 | 01:55:22 | 00:00:00 | |
| DO3MHA-11 | 2026-09-01 00:29:36 | 44.70661 | 12.55089 | 257° | 9km/h | 28182m | 4.4m/s | -46.6°C | 3.1% | 0hPa | 2.5V | 00:00:00 | 01:55:20 | 00:00:00 | |
| IW2NTF | 2026-09-01 00:29:34 | 44.70653 | 12.55100 | 322° | 13km/h | 28136m | 6.6m/s | -46.6°C | 3.1% | 0hPa | 2.5V | 08:30:00 | 01:55:12 | 00:00:00 | |
| DO3MHA-11 | 2026-09-01 00:29:26 | 44.70647 | 12.55108 | 308° | 13km/h | 28124m | 5.1m/s | -46.6°C | 3.1% | 0hPa | 2.5V | 00:00:00 | 01:55:10 | 00:00:00 | |
| IW2NTF | 2026-09-01 00:29:24 | 44.70642 | 12.55139 | 6° | 11km/h | 28078m | 6.4m/s | -46.7°C | 3.1% | 0hPa | 2.5V | 08:30:00 | 01:55:02 | 00:00:00 | |
| DO3MHA-11 | 2026-09-01 00:29:16 | 44.70635 | 12.55138 | 8° | 20km/h | 28066m | 4.9m/s | -46.6°C | 3.1% | 0hPa | 2.5V | 00:00:00 | 01:55:00 | 00:00:00 | |
| IW2NTF | 2026-09-01 00:29:10 | 44.70601 | 12.55158 | 290° | 15km/h | 28020m | 6.2m/s | -46.6°C | 3.1% | 0hPa | 2.6V | 08:30:00 | 01:54:52 | 00:00:00 | |
| DO3MHA-11 | 2026-09-01 00:29:06 | 44.70597 | 12.55167 | 313° | 11km/h | 28009m | 4.9m/s | -46.5°C | 3.1% | 0hPa | 2.5V | 00:00:00 | 01:54:50 | 00:00:00 | |
| IW2NTF | 2026-09-01 00:29:03 | 44.70578 | 12.55179 | 324° | 11km/h | 27964m | 4.4m/s | -46.7°C | 3% | 0hPa | 2.5V | 08:30:00 | 01:54:42 | 00:00:00 | |
| DO3MHA-11 | 2026-09-01 00:28:56 | 44.70576 | 12.55187 | 270° | 18km/h | 27952m | 6.4m/s | -46.8°C | 3.1% | 0hPa | 2.5V | 00:00:00 | 01:54:40 | 00:00:00 | |
| IW2NTF | 2026-09-01 00:28:50 | 44.70576 | 12.55232 | 274° | 9km/h | 27905m | 5.8m/s | -46.9°C | 3.1% | 0hPa | 2.5V | 08:30:00 | 01:54:32 | 00:00:00 | |
| IW2NTF | 2026-09-01 00:28:43 | 44.70591 | 12.55271 | 239° | 18km/h | 27848m | 5.2m/s | -46.9°C | 3.1% | 0hPa | 2.5V | 08:30:00 | 01:54:22 | 00:00:00 | |
| IW2NTF | 2026-09-01 00:28:29 | 44.70617 | 12.55306 | 221° | 18km/h | 27790m | 5.7m/s | -47.6°C | 3.2% | 0hPa | 2.6V | 08:30:00 | 01:54:12 | 00:00:00 | |
| IW2NTF | 2026-09-01 00:28:24 | 44.70656 | 12.55338 | 186° | 15km/h | 27734m | 4.8m/s | -47.7°C | 3.2% | 0hPa | 2.5V | 08:30:00 | 01:54:02 | 00:00:00 | |
| IW2NTF | 2026-09-01 00:28:13 | 44.70694 | 12.55326 | 170° | 18km/h | 27677m | 5.8m/s | -47.8°C | 3.3% | 0hPa | 2.5V | 08:30:00 | 01:53:52 | 00:00:00 | |
| IW2NTF | 2026-09-01 00:28:03 | 44.70749 | 12.55309 | 138° | 24km/h | 27620m | 5.7m/s | -47.6°C | 3.3% | 0hPa | 2.6V | 08:30:00 | 01:53:42 | 00:00:00 | |
| IW2NTF | 2026-09-01 00:27:53 | 44.70792 | 12.55280 | 159° | 15km/h | 27565m | 6.5m/s | -47.4°C | 3.2% | 0hPa | 2.6V | 08:30:00 | 01:53:32 | 00:00:00 | |
| IW2NTF | 2026-09-01 00:27:44 | 44.70844 | 12.55244 | 162° | 20km/h | 27509m | 6.7m/s | -47.3°C | 3.2% | 0hPa | 2.5V | 08:30:00 | 01:53:22 | 00:00:00 | |
| IW2NTF | 2026-09-01 00:27:32 | 44.70884 | 12.55200 | 141° | 22km/h | 27452m | 6.4m/s | -47.3°C | 3.2% | 0hPa | 2.5V | 08:30:00 | 01:53:12 | 00:00:00 | |
| IW2NTF | 2026-09-01 00:27:22 | 44.70906 | 12.55168 | 122° | 13km/h | 27397m | 6.3m/s | -47.3°C | 3.1% | 0hPa | 2.5V | 08:30:00 | 01:53:02 | 00:00:00 | |
| IW2NTF | 2026-09-01 00:27:11 | 44.70908 | 12.55136 | 53° | 11km/h | 27340m | 6.3m/s | -47.7°C | 3.2% | 0hPa | 2.5V | 08:30:00 | 01:52:52 | 00:00:00 | |
| NBG1-10 | 2026-09-01 00:27:09 | 44.70910 | 12.55138 | 50° | 9km/h | 27346m | 5.3m/s | -47.6°C | 3.2% | 0hPa | 2.6V | 00:00:00 | 01:52:53 | 00:00:00 | |
| IW2NTF | 2026-09-01 00:27:03 | 44.70890 | 12.55112 | 5° | 4km/h | 27287m | 5.6m/s | -48.1°C | 3.3% | 0hPa | 2.6V | 08:30:00 | 01:52:42 | 00:00:00 | |
| IW2NTF | 2026-09-01 00:26:50 | 44.70877 | 12.55093 | 36° | 15km/h | 27232m | 4.2m/s | -48°C | 3.3% | 0hPa | 2.6V | 08:30:00 | 01:52:32 | 00:00:00 | |
| IW2NTF | 2026-09-01 00:26:40 | 44.70863 | 12.55081 | 39° | 11km/h | 27178m | 5.7m/s | -48.1°C | 3.3% | 0hPa | 2.5V | 08:30:00 | 01:52:22 | 00:00:00 | |
| NBG1-10 | 2026-09-01 00:26:36 | 44.70858 | 12.55077 | 25° | 11km/h | 27168m | 5.3m/s | -48.1°C | 3.3% | 0hPa | 2.5V | 00:00:00 | 01:52:20 | 00:00:00 | |
| IW2NTF | 2026-09-01 00:26:30 | 44.70837 | 12.55076 | 38° | 2km/h | 27123m | 6.5m/s | -48.1°C | 3.3% | 0hPa | 2.5V | 08:30:00 | 01:52:12 | 00:00:00 | |
| IW2NTF | 2026-09-01 00:26:20 | 44.70805 | 12.55061 | 331° | 15km/h | 27065m | 5.9m/s | -48.3°C | 3.3% | 0hPa | 2.5V | 08:30:00 | 01:52:02 | 00:00:00 | |
| IW2NTF | 2026-09-01 00:26:11 | 44.70781 | 12.55078 | 355° | 13km/h | 26998m | 4.9m/s | -48.5°C | 3.3% | 0hPa | 2.5V | 08:30:00 | 01:51:50 | 00:00:00 | |
| IW2NTF | 2026-09-01 00:26:02 | 44.70750 | 12.55084 | 358° | 7km/h | 26940m | 5.4m/s | -48.9°C | 3.5% | 0hPa | 2.5V | 08:30:00 | 01:51:40 | 00:00:00 | |
| NBG1-10 | 2026-09-01 00:25:59 | 44.70759 | 12.55084 | 354° | 7km/h | 26958m | 4.5m/s | -48.7°C | 3.4% | 0hPa | 2.6V | 00:00:00 | 01:51:43 | 00:00:00 | |
| IW2NTF | 2026-09-01 00:25:50 | 44.70739 | 12.55118 | 284° | 13km/h | 26882m | 6.7m/s | -48.6°C | 3.5% | 0hPa | 2.5V | 08:30:00 | 01:51:30 | 00:00:00 | |
| IW2NTF | 2026-09-01 00:25:40 | 44.70741 | 12.55130 | 237° | 5km/h | 26822m | 6.9m/s | -48.3°C | 3.4% | 0hPa | 2.6V | 08:30:00 | 01:51:20 | 00:00:00 | |
| IW2NTF | 2026-09-01 00:25:30 | 44.70744 | 12.55151 | 207° | 2km/h | 26766m | 6.1m/s | -48.1°C | 3.3% | 0hPa | 2.6V | 08:30:00 | 01:51:10 | 00:00:00 | |
| NBG1-10 | 2026-09-01 00:25:26 | 44.70743 | 12.55151 | 208° | 13km/h | 26766m | 6.1m/s | -48.0°C | 3.3% | 0hPa | 2.6V | 00:00:00 | 01:51:10 | 00:00:00 | |
| IW2NTF | 2026-09-01 00:25:20 | 44.70760 | 12.55150 | 185° | 7km/h | 26707m | 6.6m/s | -48.1°C | 3.3% | 0hPa | 2.6V | 08:30:00 | 01:51:00 | 00:00:00 | |
| DB0UT-7 | 2026-09-01 00:25:18 | 44.70756 | 12.55149 | 186° | 15km/h | 26718m | 5.4m/s | -48.1°C | 3.3% | 0hPa | 2.6V | 00:00:00 | 01:51:02 | 00:00:00 | |
| IW2NTF | 2026-09-01 00:25:10 | 44.70781 | 12.55144 | 153° | 20km/h | 26648m | 7m/s | -48.2°C | 3.3% | 0hPa | 2.6V | 08:30:00 | 01:50:50 | 00:00:00 | |
| IW2NTF | 2026-09-01 00:25:00 | 44.70812 | 12.55089 | 107° | 15km/h | 26588m | 6.8m/s | -48.2°C | 3.2% | 0hPa | 2.6V | 08:30:00 | 01:50:40 | 00:00:00 | |
| NBG1-10 | 2026-09-01 00:24:53 | 44.70816 | 12.55074 | 118° | 22km/h | 26571m | 6.7m/s | -48.1°C | 3.2% | 0hPa | 2.5V | 00:00:00 | 01:50:37 | 00:00:00 | |
| IW2NTF | 2026-09-01 00:24:50 | 44.70832 | 12.55025 | 105° | 26km/h | 26527m | 5.5m/s | -48.1°C | 3.2% | 0hPa | 2.5V | 08:30:00 | 01:50:30 | 00:00:00 | |
| DB0UT-7 | 2026-09-01 00:24:48 | 44.70828 | 12.55041 | 109° | 22km/h | 26540m | 6.0m/s | -48.1°C | 3.2% | 0hPa | 2.5V | 00:00:00 | 00:00:00 | 00:00:00 | |
| IW2NTF | 2026-09-01 00:24:40 | 44.70832 | 12.54950 | 103° | 15km/h | 26466m | 5.8m/s | -48.6°C | 3.2% | 0hPa | 2.5V | 08:30:00 | 01:50:20 | 00:00:00 | |
| IW2NTF | 2026-09-01 00:24:30 | 44.70823 | 12.54880 | 62° | 29km/h | 26405m | 5.5m/s | -49.2°C | 3.4% | 0hPa | 2.5V | 08:30:00 | 01:50:10 | 00:00:00 | |
| NBG1-10 | 2026-09-01 00:24:20 | 44.70807 | 12.54834 | 79° | 18km/h | 26369m | 7.0m/s | -49.2°C | 3.4% | 0hPa | 2.6V | 00:00:00 | 01:50:04 | 08:30:00 | |
| IW2NTF | 2026-09-01 00:24:19 | 44.70806 | 12.54802 | 76° | 22km/h | 26345m | 6.6m/s | -49.5°C | 3.4% | 0hPa | 2.5V | 08:30:00 | 01:50:00 | 00:00:00 | |
| DB0UT-7 | 2026-09-01 00:24:18 | 44.70806 | 12.54818 | 93° | 18km/h | 26358m | 4.7m/s | 0°C | 0% | 0hPa | 2.5V | 00:00:00 | 01:50:02 | 00:00:00 | |
| IW2NTF | 2026-09-01 00:24:09 | 44.70782 | 12.54749 | 47° | 11km/h | 26284m | 7m/s | -50°C | 3.5% | 0hPa | 2.5V | 08:30:00 | 01:49:50 | 00:00:00 | |
| DO3MHA-11 | 2026-09-01 00:24:06 | 44.70782 | 12.54749 | 48° | 20km/h | 26285m | 6.9m/s | -49.9°C | 3.5% | 0hPa | 2.5V | 00:00:00 | 01:49:50 | 00:00:00 | |
| IW2NTF | 2026-09-01 00:23:59 | 44.70781 | 12.54682 | 111° | 20km/h | 26224m | 6.5m/s | -50.1°C | 3.5% | 0hPa | 2.5V | 08:30:00 | 01:49:40 | 00:00:00 | |
| DO3MHA-11 | 2026-09-01 00:23:56 | 44.70781 | 12.54682 | 112° | 18km/h | 26225m | 6.5m/s | -50.1°C | 3.5% | 0hPa | 2.5V | 00:00:00 | 01:49:40 | 00:00:00 | |
| IW2NTF | 2026-09-01 00:23:50 | 44.70770 | 12.54623 | 73° | 27km/h | 26162m | 6.2m/s | -50.6°C | 3.7% | 0hPa | 2.5V | 08:30:00 | 01:49:30 | 00:00:00 | |
| NBG1-10 | 2026-09-01 00:23:47 | 44.70773 | 12.54631 | 62° | 20km/h | 26169m | 6.7m/s | -50.6°C | 3.6% | 0hPa | 2.5V | 00:00:00 | 01:49:31 | 00:00:00 | |
| DO3MHA-11 | 2026-09-01 00:23:46 | 44.70770 | 12.54623 | 74° | 22km/h | 26163m | 6.1m/s | -50.6°C | 3.7% | 0hPa | 2.5V | 00:00:00 | 01:49:30 | 00:00:00 | |
| IW2NTF | 2026-09-01 00:23:40 | 44.70761 | 12.54554 | 35° | 16km/h | 26101m | 5.1m/s | -50.6°C | 3.7% | 0hPa | 2.5V | 08:30:00 | 01:49:20 | 00:00:00 | |
| DO3MHA-11 | 2026-09-01 00:23:32 | 44.70746 | 12.54532 | 62° | 22km/h | 26078m | 5.4m/s | -50.6°C | 3.7% | 0hPa | 2.5V | 00:00:00 | 01:49:16 | 08:30:00 | |
| IW2NTF | 2026-09-01 00:23:29 | 44.70730 | 12.54489 | 64° | 22km/h | 26041m | 5.1m/s | -50.7°C | 3.7% | 0hPa | 2.5V | 08:30:00 | 01:49:10 | 00:00:00 | |
| DO3MHA-11 | 2026-09-01 00:23:22 | 44.70719 | 12.54471 | 34° | 16km/h | 26017m | 5.7m/s | -50.6°C | 3.7% | 0hPa | 2.5V | 00:00:00 | 01:49:06 | 00:00:00 | |
| IW2NTF | 2026-09-01 00:23:19 | 44.70699 | 12.54449 | 36° | 15km/h | 25981m | 5.9m/s | -50.7°C | 3.7% | 0hPa | 2.5V | 08:30:00 | 01:49:00 | 00:00:00 | |
| DB0UT-7 | 2026-09-01 00:23:18 | 44.70706 | 12.54455 | 40° | 15km/h | 25994m | 6.9m/s | 0°C | 0% | 0hPa | 2.5V | 00:00:00 | 01:49:02 | 00:00:00 | |
| NBG1-10 | 2026-09-01 00:23:14 | 44.70694 | 12.54441 | 56° | 16km/h | 25968m | 5.8m/s | -50.6°C | 3.7% | 0hPa | 2.5V | 00:00:00 | 01:48:58 | 00:00:00 | |
| DO3MHA-11 | 2026-09-01 00:23:12 | 44.70691 | 12.54434 | 47° | 16km/h | 25958m | 5.7m/s | -50.6°C | 3.7% | 0hPa | 2.5V | 00:00:00 | 01:48:56 | 00:00:00 | |
| IW2NTF | 2026-09-01 00:23:09 | 44.70670 | 12.54429 | 23° | 20km/h | 25920m | 6m/s | -50.6°C | 3.6% | 0hPa | 2.5V | 08:30:00 | 01:48:50 | 00:00:00 | |
| DO3MHA-11 | 2026-09-01 00:23:02 | 44.70653 | 12.54417 | 37° | 16km/h | 25896m | 6.3m/s | -50.5°C | 3.6% | 0hPa | 2.5V | 00:00:00 | 01:48:46 | 00:00:00 | |
| IW2NTF | 2026-09-01 00:22:59 | 44.70639 | 12.54401 | 18° | 9km/h | 25861m | 5.8m/s | -50.6°C | 3.6% | 0hPa | 2.5V | 08:30:00 | 01:48:40 | 00:00:00 | |
| IW2NTF | 2026-09-01 00:22:49 | 44.70601 | 12.54372 | 39° | 24km/h | 25803m | 4.2m/s | -50.9°C | 3.6% | 0hPa | 2.5V | 08:30:00 | 01:48:30 | 00:00:00 | |
| NBG1-10 | 2026-09-01 00:22:41 | 44.70580 | 12.54356 | 22° | 18km/h | 25774m | 6.6m/s | -51.0°C | 3.6% | 0hPa | 2.5V | 00:00:00 | 01:48:25 | 00:00:00 | |
| IW2NTF | 2026-09-01 00:22:39 | 44.70554 | 12.54347 | 11° | 20km/h | 25746m | 4.5m/s | -51.3°C | 3.6% | 0hPa | 2.5V | 08:30:00 | 01:48:20 | 00:00:00 | |
| IW2NTF | 2026-09-01 00:22:30 | 44.70521 | 12.54323 | 13° | 20km/h | 25689m | 5.1m/s | -51.9°C | 3.8% | 0hPa | 2.5V | 08:30:00 | 01:48:10 | 00:00:00 | |
| IW2NTF | 2026-09-01 00:22:19 | 44.70467 | 12.54326 | 335° | 16km/h | 25634m | 4.8m/s | -52.2°C | 3.9% | 0hPa | 2.5V | 08:30:00 | 01:48:00 | 00:00:00 | |
| DO3MHA-11 | 2026-09-01 00:22:14 | 44.70459 | 12.54329 | 356° | 20km/h | 25623m | 5.5m/s | -52.2°C | 3.9% | 0hPa | 2.5V | 00:00:00 | 01:47:58 | 00:00:00 | |
| IW2NTF | 2026-09-01 00:22:08 | 44.70422 | 12.54348 | 331° | 24km/h | 25579m | 4.3m/s | -52°C | 3.9% | 0hPa | 2.5V | 08:30:00 | 01:47:50 | 00:00:00 | |
| NBG1-10 | 2026-09-01 00:22:08 | 44.70432 | 12.54341 | 333° | 24km/h | 25590m | 6.3m/s | -52.0°C | 3.9% | 0hPa | 2.5V | 00:00:00 | 01:47:52 | 00:00:00 | |
| DO3MHA-11 | 2026-09-01 00:22:04 | 44.70412 | 12.54358 | 316° | 26km/h | 25568m | 6.1m/s | -52.0°C | 3.9% | 0hPa | 2.5V | 00:00:00 | 01:47:48 | 00:00:00 | |
| IW2NTF | 2026-09-01 00:22:01 | 44.70376 | 12.54409 | 319° | 24km/h | 25522m | 6.2m/s | -52°C | 3.9% | 0hPa | 2.5V | 08:30:00 | 01:47:40 | 00:00:00 | |
| DO3MHA-11 | 2026-09-01 00:21:54 | 44.70367 | 12.54420 | 317° | 26km/h | 25512m | 5.6m/s | -52.0°C | 3.9% | 0hPa | 2.6V | 00:00:00 | 01:47:38 | 00:00:00 | |
| DO3MHA-12 | 2026-09-01 00:21:50 | 44.70351 | 12.54449 | 307° | 26km/h | 25491m | 6.3m/s | -52.0°C | 3.9% | 0hPa | 2.6V | 00:00:00 | 01:47:34 | 00:00:00 | |
| IW2NTF | 2026-09-01 00:21:48 | 44.70337 | 12.54477 | 295° | 27km/h | 25468m | 6.1m/s | -52.1°C | 3.9% | 0hPa | 2.5V | 08:30:00 | 01:47:30 | 00:00:00 | |
| IW2NTF | 2026-09-01 00:21:42 | 44.70313 | 12.54558 | 289° | 22km/h | 25413m | 4.4m/s | -52.2°C | 3.9% | 0hPa | 2.5V | 08:30:00 | 01:47:20 | 00:00:00 | |
| DO3MHA-12 | 2026-09-01 00:21:40 | 44.70323 | 12.54528 | 294° | 24km/h | 25436m | 6.0m/s | -52.2°C | 3.9% | 0hPa | 2.5V | 00:00:00 | 01:47:24 | 00:00:00 | |
| NBG1-10 | 2026-09-01 00:21:35 | 44.70312 | 12.54566 | 285° | 18km/h | 25408m | 6.4m/s | -52.2°C | 3.9% | 0hPa | 2.5V | 00:00:00 | 01:47:19 | 00:00:00 | |
| DO3MHA-11 | 2026-09-01 00:21:34 | 44.70310 | 12.54575 | 277° | 20km/h | 25402m | 5.5m/s | -52.2°C | 4.0% | 0hPa | 2.5V | 00:00:00 | 01:47:18 | 00:00:00 | |
| DO3MHA-12 | 2026-09-01 00:21:30 | 44.70312 | 12.54608 | 255° | 18km/h | 25380m | 5.1m/s | -52.2°C | 4.0% | 0hPa | 2.5V | 00:00:00 | 01:47:14 | 00:00:00 | |
| IW2NTF | 2026-09-01 00:21:27 | 44.70316 | 12.54636 | 272° | 15km/h | 25358m | 6.4m/s | -52.2°C | 3.9% | 0hPa | 2.5V | 08:30:00 | 01:47:10 | 00:00:00 | |
| DO3MHA-11 | 2026-09-01 00:21:24 | 44.70314 | 12.54645 | 286° | 20km/h | 25347m | 4.2m/s | -52.1°C | 3.9% | 0hPa | 2.6V | 00:00:00 | 01:47:08 | 08:30:00 | |
| IW2NTF | 2026-09-01 00:21:22 | 44.70330 | 12.54712 | 242° | 13km/h | 25291m | 6m/s | -52°C | 4% | 0hPa | 2.6V | 08:30:00 | 01:46:58 | 00:00:00 | |
| DO3MHA-12 | 2026-09-01 00:21:20 | 44.70314 | 12.54671 | 252° | 16km/h | 25325m | 6.1m/s | -52.1°C | 4.0% | 0hPa | 2.6V | 00:00:00 | 01:47:04 | 00:00:00 | |
| DO3MHA-11 | 2026-09-01 00:21:18 | 44.70330 | 12.54712 | 243° | 11km/h | 25291m | 6.0m/s | -52.0°C | 4.0% | 0hPa | 2.6V | 00:00:00 | 01:46:58 | 00:00:00 | |
| DO3MHA-12 | 2026-09-01 00:21:13 | 44.70329 | 12.54722 | 301° | 15km/h | 25269m | 5.3m/s | -51.8°C | 3.9% | 0hPa | 2.6V | 00:00:00 | 01:46:54 | 00:00:00 | |
| IW2NTF | 2026-09-01 00:21:08 | 44.70329 | 12.54749 | 247° | 20km/h | 25236m | 6.2m/s | -51.7°C | 3.8% | 0hPa | 2.6V | 08:30:00 | 01:46:48 | 00:00:00 | |
| DO3MHA-11 | 2026-09-01 00:21:04 | 44.70329 | 12.54749 | 248° | 11km/h | 25237m | 6.1m/s | -51.6°C | 3.8% | 0hPa | 2.5V | 00:00:00 | 01:46:48 | 00:00:00 | |
| NBG1-10 | 2026-09-01 00:21:02 | 44.70334 | 12.54762 | 241° | 11km/h | 25227m | 3.8m/s | -51.6°C | 3.9% | 0hPa | 2.5V | 00:00:00 | 01:46:46 | 00:00:00 | |
| IW2NTF | 2026-09-01 00:21:00 | 44.70329 | 12.54767 | 29° | 4km/h | 25182m | 3.9m/s | -51.5°C | 3.8% | 0hPa | 2.6V | 08:30:00 | 01:46:38 | 00:00:00 | |
| DO3MHA-11 | 2026-09-01 00:20:54 | 44.70329 | 12.54767 | 30° | 13km/h | 25182m | 3.8m/s | -51.5°C | 3.8% | 0hPa | 2.6V | 00:00:00 | 01:46:38 | 00:00:00 | |
| DO3MHA-12 | 2026-09-01 00:20:50 | 44.70332 | 12.54781 | 247° | 16km/h | 25161m | 4.4m/s | -51.5°C | 3.7% | 0hPa | 2.6V | 00:00:00 | 01:46:34 | 08:30:00 | |
| IW2NTF | 2026-09-01 00:20:47 | 44.70341 | 12.54795 | 63° | 13km/h | 25130m | 6.4m/s | -51.7°C | 3.6% | 0hPa | 2.6V | 08:30:00 | 01:46:28 | 00:00:00 | |
| DO3MHA-11 | 2026-09-01 00:20:44 | 44.70341 | 12.54795 | 64° | 11km/h | 25130m | 6.4m/s | -51.6°C | 3.6% | 0hPa | 2.6V | 00:00:00 | 01:46:28 | 00:00:00 | |
| DO3MHA-12 | 2026-09-01 00:20:40 | 44.70334 | 12.54775 | 52° | 7km/h | 25107m | 6.4m/s | -51.8°C | 3.7% | 0hPa | 2.6V | 00:00:00 | 01:46:24 | 00:00:00 | |
| IW2NTF | 2026-09-01 00:20:39 | 44.70333 | 12.54784 | 255° | 11km/h | 25071m | 6m/s | -52.3°C | 3.8% | 0hPa | 2.6V | 08:30:00 | 01:46:18 | 00:00:00 | |
| DO3MHA-11 | 2026-09-01 00:20:34 | 44.70333 | 12.54784 | 256° | 7km/h | 25072m | 6.0m/s | -52.3°C | 3.8% | 0hPa | 2.6V | 00:00:00 | 01:46:18 | 00:00:00 | |
| DO3MHA-12 | 2026-09-01 00:20:30 | 44.70333 | 12.54789 | 88° | 7km/h | 25050m | 5.1m/s | -52.5°C | 3.9% | 0hPa | 2.6V | 00:00:00 | 01:46:14 | 00:00:00 | |
| NBG1-10 | 2026-09-01 00:20:29 | 44.70332 | 12.54786 | 71° | 16km/h | 25045m | 4.5m/s | 0°C | 0% | 0hPa | 2.6V | 00:00:00 | 01:46:13 | 00:00:00 | |
| IW2NTF | 2026-09-01 00:20:27 | 44.70324 | 12.54778 | 353° | 4km/h | 25016m | 5.2m/s | -52.8°C | 3.9% | 0hPa | 2.6V | 08:30:00 | 01:46:08 | 00:00:00 | |
| DO3MHA-11 | 2026-09-01 00:20:24 | 44.70324 | 12.54778 | 354° | 11km/h | 25016m | 5.2m/s | -52.7°C | 3.9% | 0hPa | 2.6V | 00:00:00 | 01:46:08 | 00:00:00 | |
| DO3MHA-12 | 2026-09-01 00:20:20 | 44.70318 | 12.54788 | 299° | 16km/h | 24992m | 5.9m/s | -52.7°C | 3.9% | 0hPa | 2.7V | 00:00:00 | 01:46:04 | 00:00:00 | |
| IW2NTF | 2026-09-01 00:20:20 | 44.70299 | 12.54797 | 3° | 24km/h | 24959m | 4.9m/s | -53°C | 4% | 0hPa | 2.6V | 08:30:00 | 01:45:58 | 00:00:00 | |
| DO3MHA-11 | 2026-09-01 00:20:14 | 44.70299 | 12.54797 | 4° | 22km/h | 24959m | 4.9m/s | -52.9°C | 4.0% | 0hPa | 2.6V | 00:00:00 | 01:45:58 | 00:00:00 | |
| DO3MHA-12 | 2026-09-01 00:20:10 | 44.70279 | 12.54796 | 354° | 22km/h | 24937m | 5.9m/s | -52.9°C | 4.0% | 0hPa | 2.6V | 00:00:00 | 01:45:54 | 00:00:00 | |
| IW2NTF | 2026-09-01 00:20:07 | 44.70248 | 12.54812 | 332° | 20km/h | 24902m | 4.8m/s | -53°C | 4% | 0hPa | 2.6V | 08:30:00 | 01:45:48 | 00:00:00 | |
| DO3MHA-11 | 2026-09-01 00:20:04 | 44.70247 | 12.54812 | 333° | 24km/h | 24902m | 4.8m/s | -53.0°C | 4.0% | 0hPa | 2.6V | 00:00:00 | 01:45:48 | 00:00:00 | |
| IW2NTF | 2026-09-01 00:20:00 | 44.70191 | 12.54842 | 325° | 31km/h | 24845m | 5.6m/s | -53.1°C | 4% | 0hPa | 2.6V | 08:30:00 | 01:45:38 | 00:00:00 | |
| DO3MHA-12 | 2026-09-01 00:20:00 | 44.70224 | 12.54821 | 352° | 27km/h | 24880m | 5.9m/s | -53.0°C | 4.0% | 0hPa | 2.6V | 00:00:00 | 01:45:44 | 00:00:00 | |
| NBG1-10 | 2026-09-01 00:19:56 | 44.70203 | 12.54832 | 331° | 31km/h | 24857m | 6.1m/s | 0°C | 0% | 0hPa | 2.6V | 00:00:00 | 01:45:40 | 00:00:00 | |
| DO3MHA-11 | 2026-09-01 00:19:54 | 44.70191 | 12.54842 | 326° | 29km/h | 24845m | 5.6m/s | -53.0°C | 4.0% | 0hPa | 2.6V | 00:00:00 | 01:45:38 | 08:30:00 | |
| IW2NTF | 2026-09-01 00:19:49 | 44.70139 | 12.54908 | 319° | 24km/h | 24785m | 6.7m/s | -53.5°C | 4.1% | 0hPa | 2.6V | 08:30:00 | 01:45:28 | 00:00:00 | |
| DO3MHA-11 | 2026-09-01 00:19:44 | 44.70138 | 12.54908 | 320° | 31km/h | 24786m | 6.6m/s | -53.5°C | 4.1% | 0hPa | 2.6V | 00:00:00 | 01:45:28 | 00:00:00 | |
| IW2NTF | 2026-09-01 00:19:40 | 44.70085 | 12.54994 | 303° | 38km/h | 24727m | 7m/s | -53.5°C | 4.1% | 0hPa | 2.6V | 08:30:00 | 01:45:18 | 00:00:00 | |
| DO3MHA-12 | 2026-09-01 00:19:40 | 44.70117 | 12.54934 | 311° | 37km/h | 24763m | 6.5m/s | -53.5°C | 4.1% | 0hPa | 2.6V | 00:00:00 | 01:45:24 | 00:00:00 | |
| DO3MHA-11 | 2026-09-01 00:19:34 | 44.70085 | 12.54994 | 304° | 33km/h | 24728m | 7.0m/s | -53.4°C | 4.1% | 0hPa | 2.6V | 00:00:00 | 01:45:18 | 00:00:00 | |
| DO3MHA-12 | 2026-09-01 00:19:30 | 44.70064 | 12.55037 | 306° | 29km/h | 24704m | 5.1m/s | -53.4°C | 4.1% | 0hPa | 2.6V | 00:00:00 | 01:45:14 | 00:00:00 | |
| IW2NTF | 2026-09-01 00:19:29 | 44.70042 | 12.55093 | 300° | 27km/h | 24667m | 5.3m/s | -53.3°C | 4.1% | 0hPa | 2.6V | 08:30:00 | 01:45:08 | 00:00:00 | |
| DO3MHA-11 | 2026-09-01 00:19:24 | 44.70042 | 12.55092 | 301° | 27km/h | 24668m | 5.3m/s | -53.3°C | 4.1% | 0hPa | 2.6V | 00:00:00 | 01:45:08 | 00:00:00 | |
| NBG1-10 | 2026-09-01 00:19:23 | 44.70038 | 12.55101 | 296° | 29km/h | 24662m | 6.8m/s | 0°C | 0% | 0hPa | 2.7V | 00:00:00 | 01:45:07 | 00:00:00 | |
| DO3MHA-12 | 2026-09-01 00:19:20 | 44.70029 | 12.55130 | 299° | 26km/h | 24644m | 6.7m/s | -53.3°C | 4.1% | 0hPa | 2.7V | 00:00:00 | 01:45:04 | 08:30:00 | |
| IW2NTF | 2026-09-01 00:19:19 | 44.70007 | 12.55178 | 302° | 24km/h | 24608m | 6.9m/s | -53.3°C | 4.1% | 0hPa | 2.6V | 08:30:00 | 01:44:58 | 00:00:00 | |
| DO3MHA-11 | 2026-09-01 00:19:14 | 44.70007 | 12.55178 | 303° | 24km/h | 24608m | 6.9m/s | -53.3°C | 4.1% | 0hPa | 2.6V | 00:00:00 | 01:44:58 | 00:00:00 | |
| DO3MHA-12 | 2026-09-01 00:19:10 | 44.69995 | 12.55208 | 294° | 24km/h | 24583m | 5.2m/s | -53.2°C | 4.2% | 0hPa | 2.6V | 00:00:00 | 01:44:54 | 00:00:00 | |
| IW2NTF | 2026-09-01 00:19:07 | 44.69980 | 12.55254 | 286° | 26km/h | 24547m | 6m/s | -53.2°C | 4.2% | 0hPa | 2.6V | 08:30:00 | 01:44:48 | 00:00:00 | |
| DO3MHA-11 | 2026-09-01 00:19:04 | 44.69980 | 12.55253 | 287° | 26km/h | 24548m | 6.0m/s | -53.2°C | 4.2% | 0hPa | 2.6V | 00:00:00 | 01:44:48 | 00:00:00 | |
| DO3MHA-12 | 2026-09-01 00:19:00 | 44.69974 | 12.55286 | 278° | 24km/h | 24524m | 6.7m/s | -53.0°C | 4.1% | 0hPa | 2.6V | 00:00:00 | 01:44:44 | 00:00:00 | |
| IW2NTF | 2026-09-01 00:18:59 | 44.69970 | 12.55338 | 278° | 20km/h | 24488m | 6.3m/s | -52.9°C | 4% | 0hPa | 2.6V | 08:30:00 | 01:44:38 | 00:00:00 | |
| DO3MHA-11 | 2026-09-01 00:18:54 | 44.69969 | 12.55338 | 279° | 22km/h | 24488m | 6.3m/s | -52.8°C | 4.0% | 0hPa | 2.6V | 00:00:00 | 01:44:38 | 00:00:00 | |
| DO3MHA-12 | 2026-09-01 00:18:50 | 44.69968 | 12.55368 | 279° | 22km/h | 24464m | 6.0m/s | -52.7°C | 4.0% | 0hPa | 2.7V | 00:00:00 | 01:44:34 | 00:00:00 | |
| IW2NTF | 2026-09-01 00:18:49 | 44.69971 | 12.55417 | 254° | 22km/h | 24429m | 6.6m/s | -52.7°C | 3.9% | 0hPa | 2.6V | 08:30:00 | 01:44:28 | 00:00:00 | |
| DO3MHA-11 | 2026-09-01 00:18:44 | 44.69971 | 12.55417 | 255° | 16km/h | 24429m | 6.5m/s | -52.6°C | 3.9% | 0hPa | 2.6V | 00:00:00 | 01:44:28 | 00:00:00 | |
| IW2NTF | 2026-09-01 00:18:40 | 44.69984 | 12.55476 | 253° | 24km/h | 24371m | 6.2m/s | -53.2°C | 4.1% | 0hPa | 2.6V | 08:30:00 | 01:44:18 | 00:00:00 | |
| DO3MHA-11 | 2026-09-01 00:18:34 | 44.69984 | 12.55475 | 254° | 22km/h | 24372m | 6.1m/s | -53.1°C | 4.1% | 0hPa | 2.6V | 00:00:00 | 01:44:18 | 00:00:00 | |
| IW2NTF | 2026-09-01 00:18:30 | 44.70024 | 12.55525 | 204° | 15km/h | 24313m | 5m/s | -53.2°C | 4.1% | 0hPa | 2.6V | 08:30:00 | 01:44:08 | 00:00:00 | |
| DO3MHA-12 | 2026-09-01 00:18:30 | 44.69996 | 12.55506 | 225° | 20km/h | 24349m | 5.4m/s | -53.1°C | 4.1% | 0hPa | 2.6V | 00:00:00 | 01:44:14 | 00:00:00 | |
| DO3MHA-11 | 2026-09-01 00:18:24 | 44.70024 | 12.55525 | 205° | 18km/h | 24314m | 4.9m/s | -53.1°C | 4.1% | 0hPa | 2.6V | 00:00:00 | 01:44:08 | 08:30:00 | |
| DO3MHA-12 | 2026-09-01 00:18:20 | 44.70035 | 12.55543 | 249° | 16km/h | 24290m | 6.3m/s | -53.2°C | 4.1% | 0hPa | 2.7V | 00:00:00 | 01:44:04 | 00:00:00 | |
| IW2NTF | 2026-09-01 00:18:19 | 44.70051 | 12.55575 | 212° | 16km/h | 24256m | 6.7m/s | -53°C | 4.1% | 0hPa | 2.6V | 08:30:00 | 01:43:58 | 00:00:00 | |
| DO3MHA-11 | 2026-09-01 00:18:14 | 44.70051 | 12.55575 | 213° | 9km/h | 24257m | 6.6m/s | -53.0°C | 4.1% | 0hPa | 2.7V | 00:00:00 | 01:43:58 | 00:00:00 | |
| DO3MHA-12 | 2026-09-01 00:18:10 | 44.70063 | 12.55584 | 215° | 9km/h | 24234m | 4.6m/s | -52.8°C | 4.0% | 0hPa | 2.7V | 00:00:00 | 01:43:54 | 00:00:00 | |
| IW2NTF | 2026-09-01 00:18:09 | 44.70066 | 12.55597 | 248° | 15km/h | 24199m | 4.3m/s | -52.7°C | 3.9% | 0hPa | 2.7V | 08:30:00 | 01:43:48 | 00:00:00 | |
| DO3MHA-11 | 2026-09-01 00:18:04 | 44.70066 | 12.55597 | 249° | 13km/h | 24199m | 4.3m/s | -52.7°C | 3.9% | 0hPa | 2.7V | 00:00:00 | 01:43:48 | 00:00:00 | |
| DO3MHA-12 | 2026-09-01 00:18:00 | 44.70072 | 12.55613 | 228° | 13km/h | 24177m | 4.9m/s | -52.9°C | 4.0% | 0hPa | 2.7V | 00:00:00 | 01:43:44 | 00:00:00 | |
| IW2NTF | 2026-09-01 00:17:59 | 44.70089 | 12.55630 | 221° | 11km/h | 24144m | 5.4m/s | -53°C | 4% | 0hPa | 2.7V | 08:30:00 | 01:43:38 | 00:00:00 | |
| DO3MHA-11 | 2026-09-01 00:17:54 | 44.70089 | 12.55630 | 222° | 13km/h | 24144m | 5.3m/s | -53.0°C | 4.0% | 0hPa | 2.7V | 00:00:00 | 01:43:38 | 00:00:00 | |
| DO3MHA-12 | 2026-09-01 00:17:50 | 44.70090 | 12.55645 | 302° | 13km/h | 24121m | 6.2m/s | -53.0°C | 4.0% | 0hPa | 2.7V | 00:00:00 | 01:43:34 | 08:30:00 | |
| IW2NTF | 2026-09-01 00:17:49 | 44.70081 | 12.55673 | 286° | 9km/h | 24088m | 5.9m/s | -52.9°C | 4% | 0hPa | 2.6V | 08:30:00 | 01:43:28 | 00:00:00 | |
| DO3MHA-11 | 2026-09-01 00:17:44 | 44.70081 | 12.55673 | 287° | 9km/h | 24088m | 5.9m/s | -52.9°C | 4.0% | 0hPa | 2.7V | 00:00:00 | 01:43:28 | 00:00:00 | |
| DO3MHA-12 | 2026-09-01 00:17:40 | 44.70080 | 12.55684 | 277° | 9km/h | 24066m | 4.4m/s | -52.8°C | 4.0% | 0hPa | 2.7V | 00:00:00 | 01:43:24 | 00:00:00 | |
| IW2NTF | 2026-09-01 00:17:39 | 44.70076 | 12.55704 | 286° | 11km/h | 24032m | 4.9m/s | -52.8°C | 4% | 0hPa | 2.7V | 08:30:00 | 01:43:18 | 00:00:00 | |
| DO3MHA-11 | 2026-09-01 00:17:34 | 44.70076 | 12.55704 | 287° | 5km/h | 24033m | 4.9m/s | -52.8°C | 4.0% | 0hPa | 2.7V | 00:00:00 | 01:43:18 | 00:00:00 | |
| DO3MHA-12 | 2026-09-01 00:17:30 | 44.70076 | 12.55710 | 200° | 7km/h | 24010m | 6.1m/s | -52.8°C | 4.0% | 0hPa | 2.7V | 00:00:00 | 01:43:14 | 00:00:00 | |
| IW2NTF | 2026-09-01 00:17:29 | 44.70084 | 12.55713 | 240° | 7km/h | 23978m | 6.5m/s | -52.9°C | 4% | 0hPa | 2.7V | 08:30:00 | 01:43:08 | 00:00:00 | |
| DO3MHA-11 | 2026-09-01 00:17:24 | 44.70084 | 12.55713 | 241° | 11km/h | 23979m | 6.4m/s | -52.8°C | 4.0% | 0hPa | 2.7V | 00:00:00 | 01:43:08 | 00:00:00 | |
| DO3MHA-12 | 2026-09-01 00:17:20 | 44.70089 | 12.55729 | 228° | 11km/h | 23957m | 4.8m/s | -52.9°C | 4.0% | 0hPa | 2.7V | 00:00:00 | 01:43:04 | 00:00:00 | |
| IW2NTF | 2026-09-01 00:17:19 | 44.70103 | 12.55732 | 150° | 15km/h | 23925m | 5.8m/s | -53.1°C | 4% | 0hPa | 2.6V | 08:30:00 | 01:42:58 | 00:00:00 | |
| DO3MHA-11 | 2026-09-01 00:17:14 | 44.70103 | 12.55732 | 151° | 7km/h | 23926m | 5.8m/s | -53.0°C | 4.0% | 0hPa | 2.6V | 00:00:00 | 01:42:58 | 00:00:00 | |
| DO3MHA-12 | 2026-09-01 00:17:10 | 44.70112 | 12.55724 | 147° | 5km/h | 23904m | 6.0m/s | -53.1°C | 4.1% | 0hPa | 2.6V | 00:00:00 | 01:42:54 | 00:00:00 | |
| IW2NTF | 2026-09-01 00:17:09 | 44.70115 | 12.55724 | 138° | 4km/h | 23870m | 5.7m/s | -53.2°C | 4.1% | 0hPa | 2.6V | 08:30:00 | 01:42:48 | 00:00:00 | |
| DO3MHA-11 | 2026-09-01 00:17:04 | 44.70115 | 12.55724 | 139° | 11km/h | 23871m | 5.7m/s | -53.2°C | 4.1% | 0hPa | 2.6V | 00:00:00 | 01:42:48 | 00:00:00 | |
| DO3MHA-12 | 2026-09-01 00:17:00 | 44.70121 | 12.55714 | 126° | 13km/h | 23849m | 5.0m/s | -53.1°C | 4.0% | 0hPa | 2.6V | 00:00:00 | 01:42:44 | 00:00:00 | |
| IW2NTF | 2026-09-01 00:16:59 | 44.70129 | 12.55691 | 60° | 9km/h | 23818m | 4.8m/s | -53°C | 4% | 0hPa | 2.6V | 08:30:00 | 01:42:38 | 00:00:00 | |
| DO3MHA-11 | 2026-09-01 00:16:54 | 44.70128 | 12.55690 | 61° | 7km/h | 23818m | 4.8m/s | -53.0°C | 4.0% | 0hPa | 2.6V | 00:00:00 | 01:42:38 | 08:30:00 | |
| DO3MHA-12 | 2026-09-01 00:16:50 | 44.70122 | 12.55679 | 45° | 7km/h | 23798m | 6.1m/s | -52.9°C | 4.0% | 0hPa | 2.7V | 00:00:00 | 01:42:34 | 00:00:00 | |
| IW2NTF | 2026-09-01 00:16:49 | 44.70124 | 12.55668 | 121° | 13km/h | 23767m | 4.4m/s | -52.9°C | 4% | 0hPa | 2.6V | 08:30:00 | 01:42:28 | 00:00:00 | |
| DO3MHA-11 | 2026-09-01 00:16:43 | 44.70125 | 12.55665 | 124° | 7km/h | 23762m | 6.0m/s | -52.9°C | 4.0% | 0hPa | 2.6V | 00:00:00 | 01:42:27 | 00:00:00 | |
| IW2NTF | 2026-09-01 00:16:40 | 44.70118 | 12.55666 | 275° | 5km/h | 23716m | 6.1m/s | -52.9°C | 4% | 0hPa | 2.6V | 08:30:00 | 01:42:18 | 00:00:00 | |
| DO3MHA-12 | 2026-09-01 00:16:40 | 44.70125 | 12.55660 | 49° | 5km/h | 23747m | 5.7m/s | -52.8°C | 4.0% | 0hPa | 2.7V | 00:00:00 | 01:42:24 | 00:00:00 | |
| DO3MHA-11 | 2026-09-01 00:16:33 | 44.70119 | 12.55667 | 201° | 5km/h | 23711m | 5.0m/s | -52.9°C | 4.1% | 0hPa | 2.7V | 00:00:00 | 01:42:17 | 00:00:00 | |
| DO3MHA-12 | 2026-09-01 00:16:30 | 44.70121 | 12.55666 | 151° | 9km/h | 23696m | 4.8m/s | -52.8°C | 4.1% | 0hPa | 2.7V | 00:00:00 | 01:42:14 | 00:00:00 | |
| IW2NTF | 2026-09-01 00:16:28 | 44.70113 | 12.55661 | 320° | 11km/h | 23664m | 5m/s | -52.8°C | 4% | 0hPa | 2.7V | 08:30:00 | 01:42:08 | 00:00:00 | |
| DO3MHA-11 | 2026-09-01 00:16:23 | 44.70111 | 12.55664 | 302° | 11km/h | 23659m | 5.1m/s | -52.7°C | 4.0% | 0hPa | 2.5V | 00:00:00 | 01:42:07 | 00:00:00 | |
| DO3MHA-12 | 2026-09-01 00:16:20 | 44.70110 | 12.55676 | 262° | 9km/h | 23642m | 6.5m/s | -52.6°C | 4.0% | 0hPa | 2.7V | 00:00:00 | 01:42:04 | 08:30:00 | |
| IW2NTF | 2026-09-01 00:16:17 | 44.70118 | 12.55690 | 124° | 2km/h | 23612m | 5.6m/s | -52.7°C | 4% | 0hPa | 2.6V | 08:30:00 | 01:41:58 | 00:00:00 | |
| DO3MHA-11 | 2026-09-01 00:16:13 | 44.70117 | 12.55690 | 355° | 13km/h | 23607m | 5.6m/s | -52.7°C | 3.9% | 0hPa | 2.7V | 00:00:00 | 01:41:57 | 00:00:00 | |
| DO3MHA-12 | 2026-09-01 00:16:10 | 44.70110 | 12.55693 | 342° | 11km/h | 23590m | 6.1m/s | -52.7°C | 4.0% | 0hPa | 2.7V | 00:00:00 | 01:41:54 | 00:00:00 | |
| IW2NTF | 2026-09-01 00:16:08 | 44.70099 | 12.55717 | 267° | 7km/h | 23559m | 5.6m/s | -52.8°C | 4% | 0hPa | 2.7V | 08:30:00 | 01:41:48 | 00:00:00 | |
| DO3MHA-11 | 2026-09-01 00:16:03 | 44.70099 | 12.55719 | 260° | 9km/h | 23555m | 4.2m/s | -52.7°C | 4.0% | 0hPa | 2.7V | 00:00:00 | 01:41:47 | 00:00:00 | |
| DO3MHA-12 | 2026-09-01 00:16:00 | 44.70097 | 12.55721 | 338° | 11km/h | 23539m | 5.6m/s | 0°C | 0% | 0hPa | 2.7V | 00:00:00 | 01:41:44 | 00:00:00 | |
| IW2NTF | 2026-09-01 00:15:57 | 44.70085 | 12.55733 | 287° | 15km/h | 23506m | 4.8m/s | -52.9°C | 4% | 0hPa | 2.7V | 08:30:00 | 01:41:38 | 00:00:00 | |
| DO3MHA-11 | 2026-09-01 00:15:53 | 44.70084 | 12.55739 | 280° | 13km/h | 23502m | 4.0m/s | -52.9°C | 4.0% | 0hPa | 2.5V | 00:00:00 | 01:41:37 | 00:00:00 | |
| DO3MHA-12 | 2026-09-01 00:15:50 | 44.70082 | 12.55751 | 298° | 13km/h | 23486m | 4.1m/s | -52.8°C | 4.0% | 0hPa | 2.7V | 00:00:00 | 01:41:34 | 00:00:00 | |
| IW2NTF | 2026-09-01 00:15:49 | 44.70066 | 12.55772 | 317° | 13km/h | 23453m | 5.5m/s | -52.9°C | 4% | 0hPa | 2.7V | 08:30:00 | 01:41:28 | 00:00:00 | |
| DO3MHA-11 | 2026-09-01 00:15:43 | 44.70064 | 12.55775 | 305° | 9km/h | 23448m | 5.1m/s | -52.8°C | 3.9% | 0hPa | 2.7V | 00:00:00 | 01:41:27 | 00:00:00 | |
| DO3MHA-12 | 2026-09-01 00:15:40 | 44.70062 | 12.55787 | 265° | 9km/h | 23430m | 5.8m/s | -52.9°C | 4.0% | 0hPa | 2.7V | 00:00:00 | 01:41:24 | 00:00:00 | |
| IW2NTF | 2026-09-01 00:15:36 | 44.70061 | 12.55801 | 315° | 11km/h | 23398m | 4.6m/s | -53°C | 4% | 0hPa | 2.7V | 08:30:00 | 01:41:18 | 00:00:00 | |
| DO3MHA-11 | 2026-09-01 00:15:33 | 44.70059 | 12.55804 | 323° | 9km/h | 23393m | 6.3m/s | -52.9°C | 4.0% | 0hPa | 2.7V | 00:00:00 | 01:41:17 | 00:00:00 | |
| IW2NTF | 2026-09-01 00:15:30 | 44.70051 | 12.55830 | 304° | 5km/h | 23342m | 6.7m/s | -53°C | 4% | 0hPa | 2.7V | 08:30:00 | 01:41:08 | 00:00:00 | |
| DO3MHA-11 | 2026-09-01 00:15:23 | 44.70050 | 12.55831 | 326° | 11km/h | 23336m | 4.9m/s | -53.0°C | 4.1% | 0hPa | 2.5V | 00:00:00 | 01:41:07 | 08:30:00 | |
| DO3MHA-12 | 2026-09-01 00:15:20 | 44.70044 | 12.55831 | 30° | 11km/h | 23319m | 5.3m/s | -53.0°C | 4.0% | 0hPa | 2.7V | 00:00:00 | 01:41:04 | 00:00:00 | |
| IW2NTF | 2026-09-01 00:15:16 | 44.70027 | 12.55828 | 349° | 7km/h | 23287m | 5m/s | -53.1°C | 4% | 0hPa | 2.7V | 08:30:00 | 01:40:58 | 00:00:00 | |
| DO3MHA-11 | 2026-09-01 00:15:13 | 44.70025 | 12.55829 | 335° | 5km/h | 23282m | 6.1m/s | -53.0°C | 4.0% | 0hPa | 2.7V | 00:00:00 | 01:40:57 | 00:00:00 | |
| DO3MHA-12 | 2026-09-01 00:15:10 | 44.70021 | 12.55834 | 319° | 5km/h | 23264m | 6.1m/s | -53.0°C | 4.0% | 0hPa | 2.7V | 00:00:00 | 01:40:54 | 00:00:00 | |
| IW2NTF | 2026-09-01 00:15:09 | 44.70019 | 12.55835 | 344° | 9km/h | 23231m | 3.9m/s | -53.1°C | 4% | 0hPa | 2.7V | 08:30:00 | 01:40:48 | 00:00:00 | |
| DO3MHA-11 | 2026-09-01 00:15:03 | 44.70016 | 12.55836 | 360° | 9km/h | 23226m | 6.6m/s | -53.2°C | 4.0% | 0hPa | 2.7V | 00:00:00 | 01:40:47 | 00:00:00 | |
| DO3MHA-12 | 2026-09-01 00:15:00 | 44.70008 | 12.55835 | 358° | 9km/h | 23209m | 6.0m/s | -53.3°C | 4.1% | 0hPa | 2.7V | 00:00:00 | 01:40:44 | 00:00:00 | |
| IW2NTF | 2026-09-01 00:14:55 | 44.69996 | 12.55825 | 28° | 7km/h | 23174m | 5.4m/s | -53.4°C | 4.1% | 0hPa | 2.7V | 08:30:00 | 01:40:38 | 00:00:00 | |
| DO3MHA-11 | 2026-09-01 00:14:53 | 44.69994 | 12.55824 | 21° | 13km/h | 23169m | 4.8m/s | -53.3°C | 4.1% | 0hPa | 2.5V | 00:00:00 | 01:40:37 | 00:00:00 | |
| DO3MHA-12 | 2026-09-01 00:14:50 | 44.69988 | 12.55819 | 25° | 15km/h | 23152m | 5.0m/s | -53.3°C | 4.1% | 0hPa | 2.7V | 00:00:00 | 01:40:34 | 08:30:00 | |
| IW2NTF | 2026-09-01 00:14:49 | 44.69967 | 12.55815 | 3° | 16km/h | 23116m | 7.2m/s | -53.4°C | 4.1% | 0hPa | 2.7V | 08:30:00 | 01:40:28 | 00:00:00 | |
| DO3MHA-11 | 2026-09-01 00:14:43 | 44.69962 | 12.55814 | 360° | 16km/h | 23110m | 5.3m/s | -53.3°C | 4.1% | 0hPa | 2.7V | 00:00:00 | 01:40:27 | 00:00:00 | |
| DO3MHA-12 | 2026-09-01 00:14:40 | 44.69949 | 12.55812 | 14° | 15km/h | 23093m | 4.3m/s | -53.3°C | 4.1% | 0hPa | 2.7V | 00:00:00 | 01:40:24 | 00:00:00 | |
| IW2NTF | 2026-09-01 00:14:35 | 44.69926 | 12.55812 | 4° | 11km/h | 23061m | 6m/s | -53.3°C | 4.1% | 0hPa | 2.7V | 08:30:00 | 01:40:18 | 00:00:00 | |
| DO3MHA-11 | 2026-09-01 00:14:33 | 44.69923 | 12.55811 | 8° | 13km/h | 23055m | 4.9m/s | -53.2°C | 4.1% | 0hPa | 2.7V | 00:00:00 | 01:40:17 | 00:00:00 | |
| DO3MHA-12 | 2026-09-01 00:14:30 | 44.69913 | 12.55812 | 356° | 11km/h | 23038m | 5.2m/s | -53.2°C | 4.1% | 0hPa | 2.7V | 00:00:00 | 01:40:14 | 00:00:00 | |
| IW2NTF | 2026-09-01 00:14:29 | 44.69895 | 12.55809 | 321° | 7km/h | 23004m | 5.4m/s | -53.2°C | 4.1% | 0hPa | 2.7V | 08:30:00 | 01:40:08 | 00:00:00 | |
| DO3MHA-11 | 2026-09-01 00:14:23 | 44.69894 | 12.55811 | 315° | 5km/h | 22999m | 5.5m/s | -53.2°C | 4.1% | 0hPa | 2.5V | 00:00:00 | 01:40:07 | 00:00:00 | |
| DO3MHA-12 | 2026-09-01 00:14:20 | 44.69891 | 12.55814 | 318° | 5km/h | 22982m | 6.3m/s | -53.3°C | 4.1% | 0hPa | 2.7V | 00:00:00 | 01:40:04 | 00:00:00 | |
| IW2NTF | 2026-09-01 00:14:15 | 44.69885 | 12.55816 | 32° | 4km/h | 22947m | 6.2m/s | -53.4°C | 4.1% | 0hPa | 2.7V | 08:30:00 | 01:39:58 | 00:00:00 | |
| DO3MHA-11 | 2026-09-01 00:14:13 | 44.69884 | 12.55816 | 341° | 5km/h | 22941m | 6.2m/s | -53.3°C | 4.1% | 0hPa | 2.7V | 00:00:00 | 01:39:57 | 00:00:00 | |
| DO3MHA-12 | 2026-09-01 00:14:10 | 44.69883 | 12.55819 | 275° | 5km/h | 22924m | 5.3m/s | -53.3°C | 4.1% | 0hPa | 2.7V | 00:00:00 | 01:39:54 | 00:00:00 | |
| IW2NTF | 2026-09-01 00:14:09 | 44.69878 | 12.55832 | 6° | 4km/h | 22890m | 5m/s | -53.2°C | 4.1% | 0hPa | 2.7V | 08:30:00 | 01:39:48 | 00:00:00 | |
| DO3MHA-11 | 2026-09-01 00:14:03 | 44.69877 | 12.55832 | 22° | 5km/h | 22884m | 5.9m/s | -53.1°C | 4.1% | 0hPa | 2.7V | 00:00:00 | 01:39:47 | 00:00:00 | |
| DO3MHA-12 | 2026-09-01 00:14:00 | 44.69876 | 12.55831 | 143° | 7km/h | 22868m | 4.9m/s | -53.1°C | 4.1% | 0hPa | 2.7V | 00:00:00 | 01:39:44 | 00:00:00 | |
| IW2NTF | 2026-09-01 00:13:55 | 44.69872 | 12.55829 | 339° | 11km/h | 22833m | 6.4m/s | -52.9°C | 4% | 0hPa | 2.7V | 08:30:00 | 01:39:38 | 00:00:00 | |
| DO3MHA-11 | 2026-09-01 00:13:52 | 44.69867 | 12.55831 | 350° | 9km/h | 22822m | 5.1m/s | -52.9°C | 4.0% | 0hPa | 2.5V | 00:00:00 | 01:39:36 | 08:30:00 | |
| DO3MHA-12 | 2026-09-01 00:13:50 | 44.69862 | 12.55833 | 336° | 9km/h | 22810m | 5.6m/s | 0°C | 0% | 0hPa | 2.5V | 00:00:00 | 01:39:34 | 00:00:00 | |
| IW2NTF | 2026-09-01 00:13:47 | 44.69846 | 12.55826 | 356° | 9km/h | 22765m | 5.1m/s | -53°C | 4% | 0hPa | 2.5V | 08:30:00 | 01:39:26 | 00:00:00 | |
| DO3MHA-11 | 2026-09-01 00:13:42 | 44.69846 | 12.55826 | 357° | 7km/h | 22766m | 5.1m/s | -53.0°C | 4.0% | 0hPa | 2.5V | 00:00:00 | 01:39:26 | 00:00:00 | |
| DO3MHA-12 | 2026-09-01 00:13:40 | 44.69841 | 12.55825 | 15° | 5km/h | 22754m | 5.2m/s | 0°C | 0% | 0hPa | 2.5V | 00:00:00 | 01:39:24 | 00:00:00 | |
| IW2NTF | 2026-09-01 00:13:36 | 44.69832 | 12.55823 | 186° | 2km/h | 22707m | 6.4m/s | -52.8°C | 3.9% | 0hPa | 2.5V | 08:30:00 | 01:39:16 | 00:00:00 | |
| DO3MHA-11 | 2026-09-01 00:13:32 | 44.69832 | 12.55823 | 187° | 7km/h | 22708m | 6.3m/s | -52.8°C | 3.9% | 0hPa | 2.5V | 00:00:00 | 01:39:16 | 00:00:00 | |
| DO3MHA-12 | 2026-09-01 00:13:30 | 44.69834 | 12.55823 | 167° | 9km/h | 22697m | 6.4m/s | 0°C | 0% | 0hPa | 2.5V | 00:00:00 | 01:39:14 | 00:00:00 | |
| IW2NTF | 2026-09-01 00:13:27 | 44.69821 | 12.55813 | 27° | 15km/h | 22650m | 6.4m/s | -53.3°C | 4% | 0hPa | 2.5V | 08:30:00 | 01:39:06 | 00:00:00 | |
| DO3MHA-11 | 2026-09-01 00:13:22 | 44.69821 | 12.55813 | 28° | 9km/h | 22650m | 6.4m/s | 0°C | 0% | 0hPa | 2.5V | 00:00:00 | 01:39:06 | 00:00:00 | |
| DO3MHA-12 | 2026-09-01 00:13:20 | 44.69814 | 12.55808 | 29° | 7km/h | 22640m | 4.1m/s | 0°C | 0% | 0hPa | 2.7V | 00:00:00 | 01:39:04 | 08:30:00 | |
| IW2NTF | 2026-09-01 00:13:13 | 44.69810 | 12.55789 | 115° | 4km/h | 22586m | 4.6m/s | -53.5°C | 4% | 0hPa | 2.7V | 08:30:00 | 01:38:54 | 00:00:00 | |
| DO3MHA-11 | 2026-09-01 00:13:12 | 44.69809 | 12.55791 | 106° | 9km/h | 22597m | 6.5m/s | -53.3°C | 4.0% | 0hPa | 2.7V | 00:00:00 | 01:38:56 | 00:00:00 | |
| DO3MHA-12 | 2026-09-01 00:13:10 | 44.69810 | 12.55789 | 116° | 11km/h | 22586m | 4.6m/s | 0°C | 0% | 0hPa | 2.7V | 00:00:00 | 01:38:54 | 00:00:00 | |
| IW2NTF | 2026-09-01 00:13:02 | 44.69781 | 12.55770 | 32° | 16km/h | 22530m | 6.7m/s | -53.9°C | 4% | 0hPa | 2.7V | 08:30:00 | 01:38:44 | 00:00:00 | |
| DO3MHA-11 | 2026-09-01 00:13:02 | 44.69788 | 12.55775 | 25° | 13km/h | 22541m | 5.8m/s | -53.8°C | 4.0% | 0hPa | 2.7V | 00:00:00 | 01:38:46 | 00:00:00 | |
| DO3MHA-12 | 2026-09-01 00:13:00 | 44.69780 | 12.55769 | 33° | 15km/h | 22531m | 6.6m/s | 0°C | 0% | 0hPa | 2.7V | 00:00:00 | 01:38:44 | 00:00:00 | |
| IW2NTF | 2026-09-01 00:12:52 | 44.69746 | 12.55750 | 19° | 29km/h | 22476m | 4m/s | -54.4°C | 4.2% | 0hPa | 2.7V | 08:30:00 | 01:38:34 | 00:00:00 | |
| DO3MHA-11 | 2026-09-01 00:12:52 | 44.69758 | 12.55756 | 19° | 26km/h | 22487m | 5.6m/s | -54.3°C | 4.2% | 0hPa | 2.5V | 00:00:00 | 01:38:36 | 00:00:00 | |
| DO3MHA-12 | 2026-09-01 00:12:50 | 44.69746 | 12.55750 | 20° | 24km/h | 22476m | 4.0m/s | 0°C | 0% | 0hPa | 2.7V | 00:00:00 | 01:38:34 | 00:00:00 | |
| IW2NTF | 2026-09-01 00:12:43 | 44.69694 | 12.55717 | 1° | 18km/h | 22422m | 4.7m/s | -54.6°C | 4.2% | 0hPa | 2.7V | 08:30:00 | 01:38:24 | 00:00:00 | |
| DO3MHA-11 | 2026-09-01 00:12:42 | 44.69703 | 12.55719 | 14° | 20km/h | 22433m | 6.4m/s | -54.5°C | 4.2% | 0hPa | 2.7V | 00:00:00 | 01:38:26 | 00:00:00 | |
| DO3MHA-12 | 2026-09-01 00:12:39 | 44.69689 | 12.55718 | 352° | 20km/h | 22417m | 7.0m/s | 0°C | 0% | 0hPa | 2.7V | 00:00:00 | 01:38:23 | 00:00:00 | |
| IW2NTF | 2026-09-01 00:12:32 | 44.69642 | 12.55723 | 11° | 16km/h | 22366m | 5.1m/s | -54.7°C | 4.2% | 0hPa | 2.7V | 08:30:00 | 01:38:14 | 00:00:00 | |
| DO3MHA-11 | 2026-09-01 00:12:32 | 44.69651 | 12.55725 | 1° | 20km/h | 22377m | 5.9m/s | -54.6°C | 4.2% | 0hPa | 2.7V | 00:00:00 | 01:38:16 | 00:00:00 | |
| DO3MHA-12 | 2026-09-01 00:12:28 | 44.69633 | 12.55722 | 357° | 22km/h | 22354m | 5.2m/s | 0°C | 0% | 0hPa | 2.7V | 00:00:00 | 01:38:12 | 00:00:00 | |
| IW2NTF | 2026-09-01 00:12:23 | 44.69590 | 12.55737 | 338° | 26km/h | 22312m | 5.9m/s | -55.1°C | 4.2% | 0hPa | 2.7V | 08:30:00 | 01:38:04 | 00:00:00 | |
| DO3MHA-11 | 2026-09-01 00:12:22 | 44.69602 | 12.55730 | 340° | 20km/h | 22323m | 5.5m/s | -54.9°C | 4.2% | 0hPa | 2.5V | 00:00:00 | 01:38:06 | 08:30:00 | |
| DO3MHA-12 | 2026-09-01 00:12:18 | 44.69579 | 12.55744 | 328° | 16km/h | 22301m | 6.2m/s | 0°C | 0% | 0hPa | 2.7V | 00:00:00 | 01:38:02 | 00:00:00 | |
| IW2NTF | 2026-09-01 00:12:13 | 44.69557 | 12.55772 | 335° | 16km/h | 22256m | 6.4m/s | -55.7°C | 4.5% | 0hPa | 2.7V | 08:30:00 | 01:37:54 | 00:00:00 | |
| DO3MHA-11 | 2026-09-01 00:12:12 | 44.69564 | 12.55766 | 316° | 20km/h | 22268m | 5.7m/s | 0°C | 0% | 0hPa | 2.7V | 00:00:00 | 01:37:56 | 00:00:00 | |
| DO3MHA-12 | 2026-09-01 00:12:08 | 44.69547 | 12.55777 | 345° | 20km/h | 22246m | 5.8m/s | 0°C | 0% | 0hPa | 2.7V | 00:00:00 | 01:37:52 | 00:00:00 | |
| IW2NTF | 2026-09-01 00:12:02 | 44.69507 | 12.55790 | 345° | 18km/h | 22204m | 4.9m/s | -55.8°C | 4.5% | 0hPa | 2.7V | 08:30:00 | 01:37:44 | 00:00:00 | |
| DO3MHA-11 | 2026-09-01 00:12:02 | 44.69516 | 12.55788 | 352° | 22km/h | 22216m | 5.1m/s | -55.7°C | 4.5% | 0hPa | 2.7V | 00:00:00 | 01:37:46 | 00:00:00 | |
| DO3MHA-12 | 2026-09-01 00:11:58 | 44.69497 | 12.55792 | 357° | 27km/h | 22194m | 6.3m/s | 0°C | 0% | 0hPa | 2.7V | 00:00:00 | 01:37:42 | 00:00:00 | |
| IW2NTF | 2026-09-01 00:11:52 | 44.69443 | 12.55799 | 348° | 29km/h | 22150m | 5.7m/s | -56.1°C | 4.6% | 0hPa | 2.7V | 08:30:00 | 01:37:34 | 00:00:00 | |
| DO3MHA-11 | 2026-09-01 00:11:52 | 44.69457 | 12.55796 | 357° | 29km/h | 22161m | 4.0m/s | -55.9°C | 4.6% | 0hPa | 2.5V | 00:00:00 | 01:37:36 | 00:00:00 | |
| DO3MHA-12 | 2026-09-01 00:11:48 | 44.69429 | 12.55802 | 352° | 29km/h | 22139m | 6.2m/s | 0°C | 0% | 0hPa | 2.7V | 00:00:00 | 01:37:32 | 00:00:00 | |
| IW2NTF | 2026-09-01 00:11:43 | 44.69371 | 12.55815 | 347° | 26km/h | 22096m | 4.8m/s | -56.2°C | 4.6% | 0hPa | 2.7V | 08:30:00 | 01:37:24 | 00:00:00 | |
| DO3MHA-11 | 2026-09-01 00:11:42 | 44.69384 | 12.55812 | 351° | 24km/h | 22107m | 6.5m/s | -56.1°C | 4.7% | 0hPa | 2.7V | 00:00:00 | 01:37:26 | 00:00:00 | |
| IW2NTF | 2026-09-01 00:11:33 | 44.69319 | 12.55851 | 325° | 20km/h | 22041m | 5.5m/s | -56°C | 4.6% | 0hPa | 2.7V | 08:30:00 | 01:37:14 | 00:00:00 | |
| DO3MHA-11 | 2026-09-01 00:11:32 | 44.69328 | 12.55842 | 323° | 20km/h | 22053m | 4.9m/s | -56.0°C | 4.6% | 0hPa | 2.7V | 00:00:00 | 01:37:16 | 00:00:00 | |
| IW2NTF | 2026-09-01 00:11:22 | 44.69286 | 12.55908 | 301° | 22km/h | 21986m | 6.2m/s | -55.8°C | 4.5% | 0hPa | 2.7V | 08:30:00 | 01:37:04 | 00:00:00 | |
| DO3MHA-11 | 2026-09-01 00:11:22 | 44.69292 | 12.55895 | 302° | 20km/h | 21998m | 6.5m/s | -55.8°C | 4.5% | 0hPa | 2.5V | 00:00:00 | 01:37:06 | 00:00:00 | |
| IW2NTF | 2026-09-01 00:11:12 | 44.69265 | 12.55968 | 274° | 20km/h | 21931m | 4.4m/s | -55.8°C | 4.6% | 0hPa | 2.7V | 08:30:00 | 01:36:54 | 00:00:00 | |
| DO3MHA-11 | 2026-09-01 00:11:12 | 44.69266 | 12.55954 | 287° | 20km/h | 21941m | 6.5m/s | -55.7°C | 4.5% | 0hPa | 2.7V | 00:00:00 | 01:36:56 | 00:00:00 | |
| IW2NTF | 2026-09-01 00:11:02 | 44.69254 | 12.56046 | 273° | 26km/h | 21878m | 6.4m/s | -56°C | 4.6% | 0hPa | 2.7V | 08:30:00 | 01:36:44 | 00:00:00 | |
| DO3MHA-11 | 2026-09-01 00:11:02 | 44.69255 | 12.56028 | 282° | 22km/h | 21889m | 6.0m/s | -55.9°C | 4.5% | 0hPa | 2.7V | 00:00:00 | 01:36:46 | 00:00:00 | |
| IW2NTF | 2026-09-01 00:10:52 | 44.69265 | 12.56129 | 248° | 29km/h | 21825m | 5.6m/s | -55.8°C | 4.5% | 0hPa | 2.7V | 08:30:00 | 01:36:34 | 00:00:00 | |
| DO3MHA-11 | 2026-09-01 00:10:52 | 44.69260 | 12.56108 | 258° | 22km/h | 21836m | 5.0m/s | -55.8°C | 4.6% | 0hPa | 2.5V | 00:00:00 | 01:36:36 | 08:30:00 | |
| IW2NTF | 2026-09-01 00:10:42 | 44.69287 | 12.56187 | 241° | 18km/h | 21772m | 5.4m/s | -55.6°C | 4.5% | 0hPa | 2.7V | 08:30:00 | 01:36:24 | 00:00:00 | |
| DO3MHA-11 | 2026-09-01 00:10:42 | 44.69282 | 12.56179 | 212° | 22km/h | 21783m | 4.4m/s | -55.6°C | 4.6% | 0hPa | 2.7V | 00:00:00 | 01:36:26 | 00:00:00 | |
| IW2NTF | 2026-09-01 00:10:31 | 44.69319 | 12.56253 | 203° | 22km/h | 21719m | 5.2m/s | -55.4°C | 4.5% | 0hPa | 2.7V | 08:30:00 | 01:36:14 | 00:00:00 | |
| DO3MHA-11 | 2026-09-01 00:10:31 | 44.69314 | 12.56249 | 211° | 16km/h | 21724m | 4.2m/s | -55.3°C | 4.5% | 0hPa | 2.7V | 00:00:00 | 01:36:15 | 00:00:00 | |
| IW2NTF | 2026-09-01 00:10:22 | 44.69352 | 12.56278 | 214° | 15km/h | 21664m | 5.8m/s | -55.3°C | 4.5% | 0hPa | 2.7V | 08:30:00 | 01:36:04 | 00:00:00 | |
| DO3MHA-11 | 2026-09-01 00:10:21 | 44.69349 | 12.56275 | 216° | 16km/h | 21670m | 4.8m/s | -55.2°C | 4.5% | 0hPa | 2.6V | 00:00:00 | 01:36:05 | 00:00:00 | |
| IW2NTF | 2026-09-01 00:10:11 | 44.69393 | 12.56293 | 174° | 13km/h | 21611m | 5.5m/s | -55.1°C | 4.4% | 0hPa | 2.7V | 08:30:00 | 01:35:54 | 00:00:00 | |
| DO3MHA-11 | 2026-09-01 00:10:11 | 44.69389 | 12.56293 | 182° | 13km/h | 21617m | 5.6m/s | -55.1°C | 4.5% | 0hPa | 2.7V | 00:00:00 | 01:35:55 | 00:00:00 | |
| IW2NTF | 2026-09-01 00:10:01 | 44.69424 | 12.56308 | 187° | 16km/h | 21558m | 6.3m/s | -55°C | 4.4% | 0hPa | 2.7V | 08:30:00 | 01:35:44 | 00:00:00 | |
| DO3MHA-11 | 2026-09-01 00:10:01 | 44.69419 | 12.56306 | 198° | 15km/h | 21564m | 5.0m/s | -55.0°C | 4.4% | 0hPa | 2.7V | 00:00:00 | 01:35:45 | 00:00:00 | |
| IW2NTF | 2026-09-01 00:09:51 | 44.69458 | 12.56298 | 192° | 7km/h | 21504m | 5.6m/s | -54.8°C | 4.3% | 0hPa | 2.7V | 08:30:00 | 01:35:34 | 00:00:00 | |
| IW2NTF | 2026-09-01 00:09:45 | 44.69475 | 12.56289 | 125° | 15km/h | 21451m | 4.6m/s | -54.6°C | 4.3% | 0hPa | 2.7V | 08:30:00 | 01:35:24 | 00:00:00 | |
| DO3MHA-11 | 2026-09-01 00:09:43 | 44.69468 | 12.56297 | 162° | 11km/h | 21468m | 4.8m/s | -54.6°C | 4.3% | 0hPa | 2.5V | 00:00:00 | 01:35:27 | 00:00:00 | |
| IW2NTF | 2026-09-01 00:09:36 | 44.69498 | 12.56249 | 109° | 13km/h | 21397m | 5.8m/s | -54.9°C | 4.3% | 0hPa | 2.7V | 08:30:00 | 01:35:14 | 00:00:00 | |
| DO3MHA-11 | 2026-09-01 00:09:30 | 44.69498 | 12.56249 | 110° | 15km/h | 21397m | 5.8m/s | -54.8°C | 4.3% | 0hPa | 2.7V | 00:00:00 | 01:35:14 | 00:00:00 | |
| IW2NTF | 2026-09-01 00:09:25 | 44.69504 | 12.56196 | 107° | 16km/h | 21342m | 6m/s | -54.8°C | 4.3% | 0hPa | 2.7V | 08:30:00 | 01:35:04 | 00:00:00 | |
| DO3MHA-11 | 2026-09-01 00:09:20 | 44.69504 | 12.56195 | 108° | 18km/h | 21342m | 5.9m/s | -54.8°C | 4.3% | 0hPa | 2.7V | 00:00:00 | 01:35:04 | 00:00:00 | |
| IW2NTF | 2026-09-01 00:09:16 | 44.69507 | 12.56133 | 70° | 16km/h | 21285m | 6.5m/s | -55°C | 4.3% | 0hPa | 2.7V | 08:30:00 | 01:34:54 | 00:00:00 | |
| DO3MHA-11 | 2026-09-01 00:09:10 | 44.69507 | 12.56132 | 71° | 22km/h | 21285m | 6.4m/s | -54.9°C | 4.3% | 0hPa | 2.7V | 00:00:00 | 01:34:54 | 08:30:00 | |
| IW2NTF | 2026-09-01 00:09:06 | 44.69508 | 12.56049 | 80° | 27km/h | 21227m | 5.2m/s | -55.1°C | 4.4% | 0hPa | 2.7V | 08:30:00 | 01:34:44 | 00:00:00 | |
| DO3MHA-11 | 2026-09-01 00:09:00 | 44.69508 | 12.56049 | 81° | 27km/h | 21227m | 5.1m/s | -55.1°C | 4.4% | 0hPa | 2.7V | 00:00:00 | 01:34:44 | 00:00:00 | |
| IW2NTF | 2026-09-01 00:08:55 | 44.69502 | 12.55974 | 97° | 20km/h | 21171m | 6.8m/s | -54.8°C | 4.4% | 0hPa | 2.7V | 08:30:00 | 01:34:34 | 00:00:00 | |
| DO3MHA-11 | 2026-09-01 00:08:50 | 44.69502 | 12.55973 | 98° | 16km/h | 21172m | 6.7m/s | -54.8°C | 4.4% | 0hPa | 2.7V | 00:00:00 | 01:34:34 | 00:00:00 | |
| IW2NTF | 2026-09-01 00:08:46 | 44.69505 | 12.55915 | 80° | 13km/h | 21117m | 5.5m/s | -54.8°C | 4.3% | 0hPa | 2.7V | 08:30:00 | 01:34:24 | 00:00:00 | |
| DO3MHA-11 | 2026-09-01 00:08:40 | 44.69505 | 12.55914 | 81° | 9km/h | 21117m | 5.5m/s | -54.7°C | 4.3% | 0hPa | 2.7V | 00:00:00 | 01:34:24 | 00:00:00 | |
| IW2NTF | 2026-09-01 00:08:35 | 44.69499 | 12.55880 | 77° | 9km/h | 21060m | 6.3m/s | -54.8°C | 4.4% | 0hPa | 2.7V | 08:30:00 | 01:34:14 | 00:00:00 | |
| DO3MHA-11 | 2026-09-01 00:08:30 | 44.69499 | 12.55880 | 78° | 9km/h | 21060m | 6.2m/s | -54.8°C | 4.4% | 0hPa | 2.7V | 00:00:00 | 01:34:14 | 00:00:00 | |
| IW2NTF | 2026-09-01 00:08:25 | 44.69490 | 12.55850 | 30° | 7km/h | 21005m | 5.8m/s | -54.7°C | 4.2% | 0hPa | 2.7V | 08:30:00 | 01:34:04 | 00:00:00 | |
| DO3MHA-11 | 2026-09-01 00:08:20 | 44.69490 | 12.55850 | 31° | 4km/h | 21006m | 5.8m/s | -54.6°C | 4.2% | 0hPa | 2.7V | 00:00:00 | 01:34:04 | 00:00:00 | |
| IW2NTF | 2026-09-01 00:08:16 | 44.69486 | 12.55846 | 90° | 4km/h | 20949m | 4.6m/s | -54.8°C | 4.2% | 0hPa | 2.7V | 08:30:00 | 01:33:54 | 00:00:00 | |
| DO3MHA-11 | 2026-09-01 00:08:10 | 44.69486 | 12.55846 | 91° | 2km/h | 20949m | 4.6m/s | -54.8°C | 4.2% | 0hPa | 2.7V | 00:00:00 | 01:33:54 | 00:00:00 | |
| IW2NTF | 2026-09-01 00:08:05 | 44.69489 | 12.55845 | 162° | 9km/h | 20893m | 5.8m/s | -55°C | 4.4% | 0hPa | 2.7V | 08:30:00 | 01:33:44 | 00:00:00 | |
| DO3MHA-11 | 2026-09-01 00:08:00 | 44.69489 | 12.55845 | 163° | 11km/h | 20893m | 5.7m/s | -55.0°C | 4.4% | 0hPa | 2.7V | 00:00:00 | 01:33:44 | 00:00:00 | |
| IW2NTF | 2026-09-01 00:07:55 | 44.69508 | 12.55833 | 152° | 4km/h | 20838m | 5m/s | -55°C | 4.3% | 0hPa | 2.7V | 08:30:00 | 01:33:34 | 00:00:00 | |
| DO3MHA-11 | 2026-09-01 00:07:50 | 44.69508 | 12.55833 | 153° | 7km/h | 20838m | 4.9m/s | -55.0°C | 4.3% | 0hPa | 2.7V | 00:00:00 | 01:33:34 | 00:00:00 | |
| IW2NTF | 2026-09-01 00:07:45 | 44.69526 | 12.55830 | 114° | 15km/h | 20785m | 6.4m/s | -55.2°C | 4.3% | 0hPa | 2.7V | 08:30:00 | 01:33:24 | 00:00:00 | |
| DO3MHA-11 | 2026-09-01 00:07:40 | 44.69526 | 12.55830 | 115° | 9km/h | 20786m | 6.4m/s | -55.2°C | 4.3% | 0hPa | 2.7V | 00:00:00 | 01:33:24 | 08:30:00 | |
| IW2NTF | 2026-09-01 00:07:35 | 44.69527 | 12.55795 | 71° | 7km/h | 20733m | 5.2m/s | -55.6°C | 4.2% | 0hPa | 2.7V | 08:30:00 | 01:33:14 | 00:00:00 | |
| DO3MHA-11 | 2026-09-01 00:07:28 | 44.69527 | 12.55789 | 88° | 18km/h | 20722m | 3.7m/s | -55.6°C | 4.3% | 0hPa | 2.7V | 00:00:00 | 01:33:12 | 00:00:00 | |
| IW2NTF | 2026-09-01 00:07:25 | 44.69522 | 12.55740 | 71° | 27km/h | 20678m | 6.6m/s | -56.2°C | 4.6% | 0hPa | 2.7V | 08:30:00 | 01:33:04 | 00:00:00 | |
| DO3MHA-11 | 2026-09-01 00:07:18 | 44.69517 | 12.55721 | 66° | 22km/h | 20668m | 5.1m/s | -56.1°C | 4.6% | 0hPa | 2.7V | 00:00:00 | 01:33:02 | 00:00:00 | |
| IW2NTF | 2026-09-01 00:07:16 | 44.69507 | 12.55659 | 91° | 16km/h | 20629m | 4.1m/s | -56.2°C | 4.7% | 0hPa | 2.7V | 08:30:00 | 01:32:54 | 00:00:00 | |
| DO3MHA-11 | 2026-09-01 00:07:08 | 44.69507 | 12.55646 | 84° | 22km/h | 20619m | 4.5m/s | -56.1°C | 4.7% | 0hPa | 2.5V | 00:00:00 | 01:32:52 | 00:00:00 | |
| IW2NTF | 2026-09-01 00:07:06 | 44.69486 | 12.55591 | 57° | 16km/h | 20576m | 3.8m/s | -55.9°C | 4.6% | 0hPa | 2.7V | 08:30:00 | 01:32:44 | 00:00:00 | |
| DO3MHA-11 | 2026-09-01 00:06:58 | 44.69483 | 12.55580 | 80° | 16km/h | 20566m | 5.7m/s | -55.8°C | 4.6% | 0hPa | 2.7V | 00:00:00 | 01:32:42 | 00:00:00 | |
| IW2NTF | 2026-09-01 00:06:55 | 44.69473 | 12.55537 | 61° | 20km/h | 20522m | 4.5m/s | -55.6°C | 4.4% | 0hPa | 2.7V | 08:30:00 | 01:32:34 | 00:00:00 | |
| DO3MHA-11 | 2026-09-01 00:06:48 | 44.69469 | 12.55523 | 75° | 18km/h | 20512m | 6.2m/s | -55.6°C | 4.4% | 0hPa | 2.7V | 00:00:00 | 01:32:32 | 00:00:00 | |
| IW2NTF | 2026-09-01 00:06:45 | 44.69468 | 12.55470 | 91° | 16km/h | 20471m | 5.6m/s | -55.6°C | 4.4% | 0hPa | 2.7V | 08:30:00 | 01:32:24 | 00:00:00 | |
| DO3MHA-11 | 2026-09-01 00:06:38 | 44.69467 | 12.55461 | 81° | 18km/h | 20461m | 4.7m/s | -55.5°C | 4.4% | 0hPa | 2.5V | 00:00:00 | 01:32:22 | 00:00:00 | |
| IW2NTF | 2026-09-01 00:06:35 | 44.69453 | 12.55412 | 68° | 22km/h | 20419m | 4.5m/s | -55.5°C | 4.3% | 0hPa | 2.7V | 08:30:00 | 01:32:14 | 00:00:00 | |
| DO3MHA-11 | 2026-09-01 00:06:28 | 44.69449 | 12.55399 | 66° | 15km/h | 20408m | 4.6m/s | -55.6°C | 4.4% | 0hPa | 2.7V | 00:00:00 | 01:32:12 | 00:00:00 | |
| IW2NTF | 2026-09-01 00:06:25 | 44.69435 | 12.55369 | 26° | 18km/h | 20368m | 5.7m/s | -55.8°C | 4.4% | 0hPa | 2.7V | 08:30:00 | 01:32:04 | 00:00:00 | |
| S52SK | 2026-09-01 00:06:23 | 44.69446 | 12.55381 | 73° | 13km/h | 20389m | 4.7m/s | 0°C | 0% | 0hPa | 2.7V | 00:00:00 | 00:00:00 | 00:00:00 | |
| DO3MHA-11 | 2026-09-01 00:06:18 | 44.69425 | 12.55361 | 36° | 24km/h | 20358m | 4.9m/s | -55.7°C | 4.4% | 0hPa | 2.7V | 00:00:00 | 01:32:02 | 00:00:00 | |
| IW2NTF | 2026-09-01 00:06:15 | 44.69389 | 12.55316 | 31° | 18km/h | 20316m | 5m/s | -55.9°C | 4.4% | 0hPa | 2.7V | 08:30:00 | 01:31:54 | 00:00:00 | |
| DO3MHA-11 | 2026-09-01 00:06:08 | 44.69380 | 12.55309 | 21° | 27km/h | 20307m | 4.5m/s | -56.0°C | 4.5% | 0hPa | 2.5V | 00:00:00 | 01:31:52 | 08:30:00 | |
| IW2NTF | 2026-09-01 00:06:05 | 44.69305 | 12.55275 | 8° | 13km/h | 20231m | 5m/s | -56.3°C | 4.6% | 0hPa | 2.7V | 08:30:00 | 01:31:38 | 00:00:00 | |
| IW2NTF | 2026-09-01 00:05:59 | 44.69265 | 12.55259 | 19° | 16km/h | 20188m | 5.8m/s | -56.1°C | 4.7% | 0hPa | 2.5V | 08:30:00 | 01:31:30 | 00:00:00 | |
| DO3MHA-11 | 2026-09-01 00:05:58 | 44.69318 | 12.55278 | 23° | 16km/h | 20253m | 4.5m/s | -56.2°C | 4.7% | 0hPa | 2.5V | 00:00:00 | 01:31:42 | 00:00:00 | |
| DO3MHA-11 | 2026-09-01 00:05:48 | 44.69274 | 12.55265 | 27° | 13km/h | 20199m | 4.9m/s | -56.1°C | 4.7% | 0hPa | 2.5V | 00:00:00 | 01:31:32 | 00:00:00 | |
| IW2NTF | 2026-09-01 00:05:41 | 44.69247 | 12.55251 | 27° | 9km/h | 20147m | 6.1m/s | -55.8°C | 4.5% | 0hPa | 2.5V | 08:30:00 | 01:31:22 | 00:00:00 | |
| DO3MHA-11 | 2026-09-01 00:05:39 | 44.69247 | 12.55251 | 28° | 11km/h | 20147m | 6.1m/s | -55.7°C | 4.5% | 0hPa | 2.5V | 00:00:00 | 01:31:22 | 00:00:00 | |
| IW2NTF | 2026-09-01 00:05:35 | 44.69221 | 12.55239 | 314° | 4km/h | 20095m | 6.7m/s | -55.5°C | 4.4% | 0hPa | 2.5V | 08:30:00 | 01:31:12 | 00:00:00 | |
| DO3MHA-11 | 2026-09-01 00:05:28 | 44.69221 | 12.55239 | 315° | 7km/h | 20095m | 6.6m/s | -55.4°C | 4.4% | 0hPa | 2.5V | 00:00:00 | 01:31:12 | 00:00:00 | |
| IW2NTF | 2026-09-01 00:05:20 | 44.69211 | 12.55256 | 279° | 5km/h | 20042m | 5.5m/s | -55.6°C | 4.4% | 0hPa | 2.5V | 08:30:00 | 01:31:02 | 00:00:00 | |
| IW2NTF | 2026-09-01 00:05:13 | 44.69220 | 12.55280 | 252° | 11km/h | 19986m | 7.1m/s | -55.4°C | 4.4% | 0hPa | 2.5V | 08:30:00 | 01:30:52 | 00:00:00 | |
| DO3MHA-11 | 2026-09-01 00:05:08 | 44.69220 | 12.55280 | 253° | 18km/h | 19986m | 7.0m/s | -55.3°C | 4.4% | 0hPa | 2.5V | 00:00:00 | 01:30:52 | 00:00:00 | |
| IW2NTF | 2026-09-01 00:05:04 | 44.69242 | 12.55334 | 229° | 15km/h | 19932m | 4.6m/s | -55.2°C | 4.3% | 0hPa | 2.5V | 08:30:00 | 01:30:42 | 00:00:00 | |
| DO3MHA-11 | 2026-09-01 00:04:58 | 44.69242 | 12.55334 | 230° | 13km/h | 19933m | 4.5m/s | -55.1°C | 4.3% | 0hPa | 2.5V | 00:00:00 | 01:30:42 | 00:00:00 | |
| IW2NTF | 2026-09-01 00:04:54 | 44.69260 | 12.55372 | 218° | 15km/h | 19878m | 4.8m/s | -55.4°C | 4.4% | 0hPa | 2.5V | 08:30:00 | 01:30:32 | 00:00:00 | |
| IW2NTF | 2026-09-01 00:04:44 | 44.69285 | 12.55401 | 209° | 13km/h | 19825m | 6.3m/s | -55.6°C | 4.4% | 0hPa | 2.5V | 08:30:00 | 01:30:22 | 00:00:00 | |
| DO3MHA-11 | 2026-09-01 00:04:39 | 44.69282 | 12.55399 | 223° | 11km/h | 19831m | 4.7m/s | -55.5°C | 4.4% | 0hPa | 2.5V | 00:00:00 | 01:30:23 | 00:00:00 | |
| IW2NTF | 2026-09-01 00:04:34 | 44.69312 | 12.55396 | 164° | 9km/h | 19772m | 5.5m/s | -55.4°C | 4.4% | 0hPa | 2.5V | 08:30:00 | 01:30:12 | 00:00:00 | |
| DO3MHA-11 | 2026-09-01 00:04:29 | 44.69310 | 12.55397 | 157° | 11km/h | 19778m | 4.2m/s | -55.4°C | 4.5% | 0hPa | 2.7V | 00:00:00 | 01:30:13 | 08:30:00 | |
| IW2NTF | 2026-09-01 00:04:24 | 44.69334 | 12.55370 | 119° | 9km/h | 19717m | 5m/s | -55.1°C | 4.3% | 0hPa | 2.5V | 08:30:00 | 01:30:02 | 00:00:00 | |
| DO3MHA-11 | 2026-09-01 00:04:19 | 44.69333 | 12.55374 | 115° | 9km/h | 19723m | 5.4m/s | -55.1°C | 4.3% | 0hPa | 2.5V | 00:00:00 | 01:30:03 | 00:00:00 | |
| DO3MHA-11 | 2026-09-01 00:04:09 | 44.69345 | 12.55351 | 121° | 15km/h | 19671m | 5.8m/s | -55.1°C | 4.2% | 0hPa | 2.5V | 00:00:00 | 01:29:53 | 00:00:00 | |
| IW2NTF | 2026-09-01 00:04:08 | 44.69349 | 12.55340 | 116° | 16km/h | 19654m | 5.4m/s | -55.2°C | 4.2% | 0hPa | 2.5V | 08:30:00 | 01:29:50 | 00:00:00 | |
| IW2NTF | 2026-09-01 00:04:02 | 44.69349 | 12.55283 | 85° | 15km/h | 19600m | 4.7m/s | -55.8°C | 4.4% | 0hPa | 2.6V | 08:30:00 | 01:29:40 | 00:00:00 | |
| DO3MHA-11 | 2026-09-01 00:03:50 | 44.69342 | 12.55203 | 69° | 24km/h | 19555m | 4.8m/s | -55.7°C | 4.5% | 0hPa | 2.5V | 00:00:00 | 01:29:31 | 00:00:00 | |
| IW2NTF | 2026-09-01 00:03:46 | 44.69326 | 12.55161 | 47° | 24km/h | 19529m | 5.9m/s | -55.7°C | 4.4% | 0hPa | 2.5V | 08:30:00 | 01:29:26 | 00:00:00 | |
| DO3MHA-11 | 2026-09-01 00:03:42 | 44.69308 | 12.55139 | 43° | 24km/h | 19504m | 5.0m/s | -55.9°C | 4.4% | 0hPa | 2.5V | 00:00:00 | 01:29:21 | 00:00:00 | |
| IW2NTF | 2026-09-01 00:03:36 | 44.69298 | 12.55105 | 77° | 26km/h | 19478m | 6.3m/s | -56.3°C | 4.6% | 0hPa | 2.5V | 08:30:00 | 01:29:16 | 00:00:00 | |
| IW2NTF | 2026-09-01 00:03:26 | 44.69280 | 12.55016 | 78° | 22km/h | 19426m | 4.9m/s | -56.2°C | 4.5% | 0hPa | 2.5V | 08:30:00 | 01:29:06 | 00:00:00 | |
| DO3MHA-11 | 2026-09-01 00:03:25 | 44.69242 | 12.54896 | 53° | 24km/h | 19351m | 5.1m/s | -56.6°C | 4.5% | 0hPa | 2.5V | 00:00:00 | 00:00:00 | 00:00:00 | |
| DO3MHA-11 | 2026-09-01 00:03:16 | 44.69205 | 12.54825 | 48° | 29km/h | 19302m | 4.8m/s | -56.8°C | 4.7% | 0hPa | 2.5V | 00:00:00 | 01:28:41 | 08:30:00 | |
| IW2NTF | 2026-09-01 00:03:14 | 44.69256 | 12.54930 | 65° | 26km/h | 19376m | 6.2m/s | -56.4°C | 4.6% | 0hPa | 2.5V | 08:30:00 | 01:28:56 | 00:00:00 | |
| DO3MHA-11 | 2026-09-01 00:03:08 | 44.69154 | 12.54752 | 40° | 29km/h | 19251m | 6.0m/s | -56.8°C | 4.7% | 0hPa | 2.5V | 00:00:00 | 01:28:31 | 00:00:00 | |
| IW2NTF | 2026-09-01 00:03:04 | 44.69229 | 12.54869 | 51° | 24km/h | 19327m | 4.3m/s | -56.8°C | 4.7% | 0hPa | 2.5V | 08:30:00 | 01:28:46 | 00:00:00 | |
| IW2NTF | 2026-09-01 00:02:54 | 44.69176 | 12.54782 | 43° | 26km/h | 19277m | 5.6m/s | -56.8°C | 4.7% | 0hPa | 2.5V | 08:30:00 | 01:28:36 | 00:00:00 | |
| DO3MHA-11 | 2026-09-01 00:02:48 | 44.69103 | 12.54677 | 52° | 26km/h | 19202m | 4.9m/s | -56.8°C | 4.6% | 0hPa | 2.5V | 00:00:00 | 01:28:21 | 00:00:00 | |
| IW2NTF | 2026-09-01 00:02:44 | 44.69126 | 12.54715 | 51° | 27km/h | 19227m | 5.1m/s | -56.9°C | 4.6% | 0hPa | 2.5V | 08:30:00 | 01:28:26 | 00:00:00 | |
| DO3MHA-11 | 2026-09-01 00:02:37 | 44.69057 | 12.54618 | 28° | 22km/h | 19154m | 5.5m/s | -57.2°C | 4.7% | 0hPa | 2.5V | 00:00:00 | 01:28:11 | 00:00:00 | |
| IW2NTF | 2026-09-01 00:02:34 | 44.69080 | 12.54642 | 44° | 26km/h | 19178m | 5.8m/s | -56.8°C | 4.6% | 0hPa | 2.5V | 08:30:00 | 01:28:16 | 00:00:00 | |
| IW2NTF | 2026-09-01 00:02:24 | 44.69031 | 12.54599 | 39° | 24km/h | 19129m | 4.5m/s | -57.8°C | 4.9% | 0hPa | 2.5V | 08:30:00 | 01:28:06 | 00:00:00 | |
| DO3MHA-11 | 2026-09-01 00:02:22 | 44.69013 | 12.54568 | 56° | 20km/h | 19104m | 4.7m/s | -57.7°C | 4.9% | 0hPa | 2.5V | 00:00:00 | 01:28:01 | 00:00:00 | |
| IW2NTF | 2026-09-01 00:02:14 | 44.69000 | 12.54537 | 62° | 20km/h | 19078m | 4.7m/s | -57.7°C | 4.9% | 0hPa | 2.5V | 08:30:00 | 01:27:56 | 00:00:00 | |
| DO3MHA-11 | 2026-09-01 00:02:08 | 44.68994 | 12.54507 | 76° | 18km/h | 19052m | 4.7m/s | -57.5°C | 4.9% | 0hPa | 2.5V | 00:00:00 | 01:27:51 | 00:00:00 | |
| IW2NTF | 2026-09-01 00:02:04 | 44.68990 | 12.54476 | 81° | 18km/h | 19026m | 6.1m/s | -57.4°C | 4.8% | 0hPa | 2.5V | 08:30:00 | 01:27:46 | 00:00:00 | |
| IW2NTF | 2026-09-01 00:01:54 | 44.68983 | 12.54414 | 100° | 18km/h | 18976m | 5m/s | -57.6°C | 4.9% | 0hPa | 2.5V | 08:30:00 | 01:27:36 | 00:00:00 | |
| DO3MHA-11 | 2026-09-01 00:01:48 | 44.68966 | 12.54315 | 71° | 24km/h | 18901m | 5.8m/s | -57.7°C | 4.9% | 0hPa | 2.5V | 00:00:00 | 01:27:21 | 00:00:00 | |
| IW2NTF | 2026-09-01 00:01:44 | 44.68977 | 12.54347 | 60° | 18km/h | 18926m | 3.7m/s | -57.5°C | 4.8% | 0hPa | 2.5V | 08:30:00 | 01:27:26 | 00:00:00 | |
| DO3MHA-11 | 2026-09-01 00:01:37 | 44.68940 | 12.54240 | 49° | 24km/h | 18849m | 5.8m/s | -57.8°C | 5.0% | 0hPa | 2.7V | 00:00:00 | 01:27:11 | 08:30:00 | |
| IW2NTF | 2026-09-01 00:01:34 | 44.68957 | 12.54281 | 67° | 22km/h | 18875m | 6.3m/s | -58°C | 5.1% | 0hPa | 2.7V | 08:30:00 | 01:27:16 | 00:00:00 | |
| S52SK | 2026-09-01 00:01:34 | 44.68931 | 12.54228 | 43° | 22km/h | 18838m | 5.5m/s | 0°C | 0% | 0hPa | 2.7V | 00:00:00 | 00:00:00 | 00:00:00 | |
| IW2NTF | 2026-09-01 00:01:25 | 44.68917 | 12.54211 | 38° | 24km/h | 18822m | 5.2m/s | -57.6°C | 5% | 0hPa | 2.7V | 08:30:00 | 01:27:06 | 00:00:00 | |
| DO3MHA-11 | 2026-09-01 00:01:22 | 44.68890 | 12.54188 | 28° | 26km/h | 18796m | 5.9m/s | -57.4°C | 4.9% | 0hPa | 2.7V | 00:00:00 | 01:27:01 | 00:00:00 | |
| IW2NTF | 2026-09-01 00:01:13 | 44.68862 | 12.54162 | 42° | 26km/h | 18770m | 4.6m/s | -57.4°C | 5% | 0hPa | 2.7V | 08:30:00 | 01:26:56 | 00:00:00 | |
| DO3MHA-11 | 2026-09-01 00:01:09 | 44.68840 | 12.54136 | 49° | 20km/h | 18743m | 4.8m/s | -57.1°C | 4.9% | 0hPa | 2.7V | 00:00:00 | 01:26:51 | 00:00:00 | |
| IW2NTF | 2026-09-01 00:01:04 | 44.68822 | 12.54113 | 44° | 20km/h | 18714m | 5.1m/s | -56.9°C | 4.8% | 0hPa | 2.7V | 08:30:00 | 01:26:46 | 00:00:00 | |
| DO3MHA-11 | 2026-09-01 00:01:02 | 44.68806 | 12.54088 | 54° | 20km/h | 18688m | 5.6m/s | -56.8°C | 4.7% | 0hPa | 2.7V | 00:00:00 | 01:26:41 | 00:00:00 | |
| IW2NTF | 2026-09-01 00:00:55 | 44.68788 | 12.54062 | 43° | 22km/h | 18660m | 5m/s | -56.6°C | 4.7% | 0hPa | 2.7V | 08:30:00 | 01:26:36 | 00:00:00 | |
| DO3MHA-11 | 2026-09-01 00:00:51 | 44.68771 | 12.54042 | 53° | 16km/h | 18633m | 4.4m/s | -56.4°C | 4.5% | 0hPa | 2.7V | 00:00:00 | 01:26:31 | 00:00:00 | |
| IW2NTF | 2026-09-01 00:00:44 | 44.68760 | 12.54028 | 34° | 16km/h | 18606m | 5.7m/s | -56.4°C | 4.4% | 0hPa | 2.7V | 08:30:00 | 01:26:26 | 00:00:00 | |
| DO3MHA-11 | 2026-09-01 00:00:37 | 44.68734 | 12.54014 | 35° | 16km/h | 18579m | 4.2m/s | -56.7°C | 4.6% | 0hPa | 2.6V | 00:00:00 | 01:26:21 | 00:00:00 | |
| IW2NTF | 2026-09-01 00:00:34 | 44.68721 | 12.53992 | 64° | 15km/h | 18553m | 6.5m/s | -57.1°C | 4.7% | 0hPa | 2.6V | 08:30:00 | 01:26:16 | 00:00:00 | |
| DO3MHA-11 | 2026-09-01 00:00:29 | 44.68714 | 12.53970 | 66° | 24km/h | 18525m | 5.8m/s | -57.1°C | 4.8% | 0hPa | 2.6V | 00:00:00 | 01:26:11 | 00:00:00 | |
| IW2NTF | 2026-09-01 00:00:24 | 44.68704 | 12.53936 | 65° | 26km/h | 18498m | 6.6m/s | -57.1°C | 4.8% | 0hPa | 2.6V | 08:30:00 | 01:26:06 | 00:00:00 | |
| DO3MHA-11 | 2026-09-01 00:00:23 | 44.68689 | 12.53892 | 63° | 22km/h | 18471m | 5.7m/s | -57.2°C | 4.9% | 0hPa | 2.6V | 00:00:00 | 01:26:01 | 00:00:00 | |
| IW2NTF | 2026-09-01 00:00:15 | 44.68678 | 12.53857 | 64° | 18km/h | 18446m | 5.9m/s | -57.4°C | 4.9% | 0hPa | 2.6V | 08:30:00 | 01:25:56 | 00:00:00 | |
| DO3MHA-11 | 2026-09-01 00:00:08 | 44.68662 | 12.53824 | 49° | 29km/h | 18421m | 5.9m/s | -57.3°C | 4.9% | 0hPa | 2.5V | 00:00:00 | 01:25:51 | 00:00:00 | |
| IW2NTF | 2026-09-01 00:00:04 | 44.68640 | 12.53789 | 55° | 27km/h | 18396m | 5.3m/s | -57.1°C | 4.8% | 0hPa | 2.5V | 08:30:00 | 01:25:46 | 00:00:00 | |
| DO3MHA-11 | 2026-08-31 23:59:57 | 44.68620 | 12.53740 | 62° | 33km/h | 18371m | 5.9m/s | -57.2°C | 4.9% | 0hPa | 2.5V | 00:00:00 | 01:25:41 | 08:30:00 | |
| IW2NTF | 2026-08-31 23:59:53 | 44.68595 | 12.53688 | 51° | 35km/h | 18346m | 6m/s | -57°C | 4.8% | 0hPa | 2.5V | 08:30:00 | 01:25:36 | 00:00:00 | |
| DO3MHA-11 | 2026-08-31 23:59:47 | 44.68571 | 12.53643 | 53° | 33km/h | 18320m | 5.6m/s | -56.9°C | 4.8% | 0hPa | 2.5V | 00:00:00 | 01:25:31 | 00:00:00 | |
| IW2NTF | 2026-08-31 23:59:43 | 44.68544 | 12.53595 | 49° | 35km/h | 18295m | 6m/s | -56.8°C | 4.8% | 0hPa | 2.5V | 08:30:00 | 01:25:26 | 00:00:00 | |
| DO3MHA-11 | 2026-08-31 23:59:37 | 44.68517 | 12.53556 | 40° | 33km/h | 18269m | 4.2m/s | -56.6°C | 4.7% | 0hPa | 2.5V | 00:00:00 | 01:25:21 | 00:00:00 | |
| IW2NTF | 2026-08-31 23:59:33 | 44.68489 | 12.53514 | 51° | 37km/h | 18245m | 4.4m/s | -56.6°C | 4.7% | 0hPa | 2.5V | 08:30:00 | 01:25:16 | 00:00:00 | |
| DO3MHA-11 | 2026-08-31 23:59:27 | 44.68465 | 12.53463 | 58° | 27km/h | 18224m | 5.2m/s | -56.4°C | 4.7% | 0hPa | 2.7V | 00:00:00 | 01:25:11 | 00:00:00 | |
| IW2NTF | 2026-08-31 23:59:23 | 44.68442 | 12.53418 | 45° | 33km/h | 18198m | 4.3m/s | -56.3°C | 4.5% | 0hPa | 2.7V | 08:30:00 | 01:25:06 | 00:00:00 | |
| IW2NTF | 2026-08-31 23:59:13 | 44.68387 | 12.53345 | 49° | 33km/h | 18148m | 3.5m/s | -56.6°C | 4.7% | 0hPa | 2.7V | 08:30:00 | 01:24:56 | 00:00:00 | |
| IW2NTF | 2026-08-31 23:59:03 | 44.68347 | 12.53249 | 60° | 29km/h | 18097m | 5.2m/s | -56.5°C | 4.8% | 0hPa | 2.7V | 08:30:00 | 01:24:46 | 00:00:00 | |
| IW2NTF | 2026-08-31 23:58:54 | 44.68307 | 12.53156 | 61° | 26km/h | 18049m | 5.6m/s | -56.1°C | 4.6% | 0hPa | 2.6V | 08:30:00 | 01:24:36 | 00:00:00 | |
| IW2NTF | 2026-08-31 23:58:43 | 44.68270 | 12.53076 | 55° | 24km/h | 17999m | 4.5m/s | -55.8°C | 4.6% | 0hPa | 2.5V | 08:30:00 | 01:24:26 | 00:00:00 | |
| IW2NTF | 2026-08-31 23:58:33 | 44.68243 | 12.53012 | 62° | 24km/h | 17951m | 5.2m/s | -55.8°C | 4.5% | 0hPa | 2.5V | 08:30:00 | 01:24:16 | 00:00:00 | |
| IW2NTF | 2026-08-31 23:58:23 | 44.68223 | 12.52942 | 92° | 18km/h | 17900m | 4.8m/s | -55.6°C | 4.5% | 0hPa | 2.6V | 08:30:00 | 01:24:06 | 00:00:00 | |
| IW2NTF | 2026-08-31 23:58:13 | 44.68215 | 12.52866 | 92° | 22km/h | 17851m | 4.5m/s | -55.6°C | 4.5% | 0hPa | 2.7V | 08:30:00 | 01:23:56 | 00:00:00 | |
| IW2NTF | 2026-08-31 23:58:03 | 44.68217 | 12.52788 | 90° | 26km/h | 17803m | 3.8m/s | -55.3°C | 4.5% | 0hPa | 2.7V | 08:30:00 | 01:23:46 | 00:00:00 | |
| IW2NTF | 2026-08-31 23:57:53 | 44.68212 | 12.52703 | 85° | 24km/h | 17754m | 5m/s | -55.1°C | 4.4% | 0hPa | 2.7V | 08:30:00 | 01:23:36 | 00:00:00 | |
| IW2NTF | 2026-08-31 23:57:44 | 44.68201 | 12.52603 | 80° | 26km/h | 17693m | 6.1m/s | -54.7°C | 4.3% | 0hPa | 2.6V | 08:30:00 | 01:23:24 | 00:00:00 | |
| DO3MHA-11 | 2026-08-31 23:57:40 | 44.68201 | 12.52603 | 81° | 24km/h | 17694m | 6.1m/s | -54.7°C | 4.3% | 0hPa | 2.7V | 00:00:00 | 01:23:24 | 00:00:00 | |
| IW2NTF | 2026-08-31 23:57:35 | 44.68193 | 12.52519 | 89° | 22km/h | 17642m | 4.3m/s | -54.5°C | 4.3% | 0hPa | 2.7V | 08:30:00 | 01:23:14 | 00:00:00 | |
| DO3MHA-11 | 2026-08-31 23:57:30 | 44.68193 | 12.52519 | 90° | 27km/h | 17642m | 4.2m/s | -54.5°C | 4.3% | 0hPa | 2.6V | 00:00:00 | 01:23:14 | 00:00:00 | |
| IW2NTF | 2026-08-31 23:57:23 | 44.68197 | 12.52403 | 93° | 31km/h | 17580m | 5.9m/s | -54.6°C | 4.3% | 0hPa | 2.6V | 08:30:00 | 01:23:02 | 00:00:00 | |
| DO3MHA-11 | 2026-08-31 23:57:17 | 44.68197 | 12.52392 | 90° | 35km/h | 17575m | 4.2m/s | -54.6°C | 4.3% | 0hPa | 2.6V | 00:00:00 | 01:23:01 | 00:00:00 | |
| IW2NTF | 2026-08-31 23:57:11 | 44.68215 | 12.52267 | 103° | 44km/h | 17518m | 6.2m/s | -54.8°C | 4.4% | 0hPa | 2.7V | 08:30:00 | 01:22:50 | 00:00:00 | |
| IW2NTF | 2026-08-31 23:57:01 | 44.68233 | 12.52141 | 103° | 38km/h | 17467m | 4.2m/s | -54.7°C | 4.4% | 0hPa | 2.7V | 08:30:00 | 01:22:40 | 00:00:00 | |
| IW2NTF | 2026-08-31 23:56:51 | 44.68242 | 12.51986 | 96° | 33km/h | 17417m | 5.9m/s | -54.6°C | 4.2% | 0hPa | 2.7V | 08:30:00 | 01:22:30 | 00:00:00 | |
| DO3MHA-11 | 2026-08-31 23:56:43 | 44.68243 | 12.51951 | 92° | 44km/h | 17402m | 4.4m/s | -54.4°C | 4.2% | 0hPa | 2.6V | 00:00:00 | 01:22:27 | 00:00:00 | |
| IW2NTF | 2026-08-31 23:56:41 | 44.68246 | 12.51837 | 92° | 46km/h | 17368m | 4.7m/s | -54.9°C | 4.2% | 0hPa | 2.6V | 08:30:00 | 01:22:20 | 00:00:00 | |
| DO3MHA-11 | 2026-08-31 23:56:33 | 44.68249 | 12.51792 | 95° | 44km/h | 17353m | 5.2m/s | -55.2°C | 4.2% | 0hPa | 2.6V | 00:00:00 | 01:22:17 | 00:00:00 | |
| IW2NTF | 2026-08-31 23:56:31 | 44.68249 | 12.51688 | 84° | 49km/h | 17319m | 4.7m/s | -55.8°C | 4.5% | 0hPa | 2.6V | 08:30:00 | 01:22:10 | 00:00:00 | |
| DO3MHA-11 | 2026-08-31 23:56:23 | 44.68247 | 12.51631 | 89° | 53km/h | 17304m | 4.4m/s | -56.1°C | 4.5% | 0hPa | 2.7V | 00:00:00 | 01:22:07 | 08:30:00 | |
| IW2NTF | 2026-08-31 23:56:21 | 44.68245 | 12.51503 | 80° | 51km/h | 17271m | 4.8m/s | -56.5°C | 4.6% | 0hPa | 2.6V | 08:30:00 | 01:22:00 | 00:00:00 | |
| DO3MHA-11 | 2026-08-31 23:56:13 | 44.68237 | 12.51445 | 80° | 58km/h | 17257m | 3.8m/s | -56.7°C | 4.6% | 0hPa | 2.6V | 00:00:00 | 01:21:57 | 00:00:00 | |
| IW2NTF | 2026-08-31 23:56:11 | 44.68229 | 12.51302 | 88° | 58km/h | 17222m | 4.4m/s | -57.3°C | 4.9% | 0hPa | 2.6V | 08:30:00 | 01:21:50 | 00:00:00 | |
| DO3MHA-11 | 2026-08-31 23:56:03 | 44.68229 | 12.51238 | 90° | 68km/h | 17209m | 4.0m/s | -57.5°C | 4.9% | 0hPa | 2.6V | 00:00:00 | 01:21:47 | 00:00:00 | |
| IW2NTF | 2026-08-31 23:55:57 | 44.68215 | 12.51071 | 79° | 68km/h | 17175m | 4.3m/s | -58°C | 5% | 0hPa | 2.6V | 08:30:00 | 01:21:40 | 00:00:00 | |
| DO3MHA-11 | 2026-08-31 23:55:53 | 44.68207 | 12.51000 | 84° | 60km/h | 17161m | 4.0m/s | -58.4°C | 5.2% | 0hPa | 2.7V | 00:00:00 | 01:21:37 | 00:00:00 | |
| IW2NTF | 2026-08-31 23:55:51 | 44.68184 | 12.50850 | 69° | 58km/h | 17125m | 5.5m/s | -58.7°C | 5.5% | 0hPa | 2.7V | 08:30:00 | 01:21:30 | 00:00:00 | |
| DO3MHA-11 | 2026-08-31 23:55:43 | 44.68168 | 12.50793 | 69° | 57km/h | 17110m | 3.4m/s | -58.6°C | 5.6% | 0hPa | 2.7V | 00:00:00 | 01:21:27 | 00:00:00 | |
| IW2NTF | 2026-08-31 23:55:42 | 44.68130 | 12.50665 | 70° | 58km/h | 17076m | 6m/s | -58.6°C | 5.4% | 0hPa | 2.7V | 08:30:00 | 01:21:20 | 00:00:00 | |
| DO3MHA-11 | 2026-08-31 23:55:33 | 44.68117 | 12.50606 | 70° | 51km/h | 17061m | 3.9m/s | -58.4°C | 5.4% | 0hPa | 2.7V | 00:00:00 | 01:21:17 | 00:00:00 | |
| IW2NTF | 2026-08-31 23:55:32 | 44.68069 | 12.50498 | 57° | 51km/h | 17025m | 6.3m/s | -58.3°C | 5.3% | 0hPa | 2.7V | 08:30:00 | 01:21:10 | 00:00:00 | |
| DO3MHA-11 | 2026-08-31 23:55:23 | 44.68049 | 12.50451 | 61° | 53km/h | 17008m | 6.0m/s | -58.1°C | 5.3% | 0hPa | 2.6V | 00:00:00 | 01:21:07 | 00:00:00 | |
| IW2NTF | 2026-08-31 23:55:22 | 44.68000 | 12.50337 | 52° | 49km/h | 16972m | 6m/s | -58.1°C | 5.3% | 0hPa | 2.6V | 08:30:00 | 01:21:00 | 00:00:00 | |
| DO3MHA-11 | 2026-08-31 23:55:13 | 44.67977 | 12.50297 | 50° | 55km/h | 16959m | 5.4m/s | -58.5°C | 5.6% | 0hPa | 2.6V | 00:00:00 | 01:20:57 | 00:00:00 | |
| IW2NTF | 2026-08-31 23:55:11 | 44.67918 | 12.50189 | 55° | 55km/h | 16925m | 4.8m/s | -58.5°C | 5.5% | 0hPa | 2.6V | 08:30:00 | 01:20:50 | 00:00:00 | |
| DO3MHA-11 | 2026-08-31 23:55:03 | 44.67896 | 12.50142 | 56° | 51km/h | 16911m | 5.5m/s | -58.5°C | 5.5% | 0hPa | 2.6V | 00:00:00 | 01:20:47 | 00:00:00 | |
| IW2NTF | 2026-08-31 23:55:01 | 44.67842 | 12.50044 | 52° | 53km/h | 16877m | 4.5m/s | -58.8°C | 5.7% | 0hPa | 2.6V | 08:30:00 | 01:20:40 | 00:00:00 | |
| DO3MHA-11 | 2026-08-31 23:54:53 | 44.67819 | 12.49999 | 59° | 44km/h | 16863m | 4.9m/s | -58.8°C | 5.7% | 0hPa | 2.7V | 00:00:00 | 01:20:37 | 08:30:00 | |
| IW2NTF | 2026-08-31 23:54:51 | 44.67781 | 12.49902 | 62° | 42km/h | 16826m | 5.6m/s | -58.7°C | 5.6% | 0hPa | 2.7V | 08:30:00 | 01:20:30 | 00:00:00 | |
| DO3MHA-11 | 2026-08-31 23:54:43 | 44.67765 | 12.49864 | 60° | 38km/h | 16812m | 6.5m/s | -58.7°C | 5.7% | 0hPa | 2.7V | 00:00:00 | 01:20:27 | 00:00:00 | |
| IW2NTF | 2026-08-31 23:54:41 | 44.67735 | 12.49779 | 67° | 38km/h | 16776m | 5.5m/s | -59.1°C | 6% | 0hPa | 2.7V | 08:30:00 | 01:20:20 | 00:00:00 | |
| DO3MHA-11 | 2026-08-31 23:54:33 | 44.67724 | 12.49741 | 70° | 40km/h | 16762m | 5.1m/s | -59.1°C | 5.9% | 0hPa | 2.6V | 00:00:00 | 01:20:17 | 00:00:00 | |
| IW2NTF | 2026-08-31 23:54:31 | 44.67705 | 12.49650 | 78° | 44km/h | 16726m | 5m/s | -59.4°C | 6% | 0hPa | 2.6V | 08:30:00 | 01:20:10 | 00:00:00 | |
| IW2NTF | 2026-08-31 23:54:21 | 44.67698 | 12.49499 | 92° | 47km/h | 16677m | 5m/s | -59.1°C | 6.1% | 0hPa | 2.6V | 08:30:00 | 01:20:00 | 00:00:00 | |
| DO3MHA-11 | 2026-08-31 23:54:13 | 44.67699 | 12.49446 | 92° | 49km/h | 16663m | 5.8m/s | -59.0°C | 6.0% | 0hPa | 2.6V | 00:00:00 | 01:19:57 | 00:00:00 | |
| IW2NTF | 2026-08-31 23:54:08 | 44.67712 | 12.49293 | 104° | 44km/h | 16618m | 5.5m/s | -59°C | 6.1% | 0hPa | 2.6V | 08:30:00 | 01:19:48 | 00:00:00 | |
| DO3MHA-11 | 2026-08-31 23:54:03 | 44.67715 | 12.49278 | 107° | 46km/h | 16613m | 4.1m/s | -58.9°C | 6.1% | 0hPa | 2.7V | 00:00:00 | 01:19:47 | 00:00:00 | |
| IW2NTF | 2026-08-31 23:53:59 | 44.67732 | 12.49137 | 99° | 44km/h | 16571m | 5.8m/s | -59.2°C | 6% | 0hPa | 2.7V | 08:30:00 | 01:19:38 | 00:00:00 | |
| DO3MHA-11 | 2026-08-31 23:53:53 | 44.67734 | 12.49122 | 106° | 47km/h | 16566m | 4.6m/s | -59.2°C | 6.0% | 0hPa | 2.6V | 00:00:00 | 01:19:37 | 00:00:00 | |
| IW2NTF | 2026-08-31 23:53:48 | 44.67760 | 12.48975 | 99° | 51km/h | 16520m | 5.2m/s | -59.6°C | 6.2% | 0hPa | 2.6V | 08:30:00 | 01:19:28 | 00:00:00 | |
| DO3MHA-11 | 2026-08-31 23:53:43 | 44.67762 | 12.48957 | 101° | 62km/h | 16516m | 3.7m/s | -59.6°C | 6.3% | 0hPa | 2.6V | 00:00:00 | 01:19:27 | 00:00:00 | |
| IW2NTF | 2026-08-31 23:53:38 | 44.67794 | 12.48765 | 102° | 64km/h | 16471m | 6m/s | -60.7°C | 6.7% | 0hPa | 2.6V | 08:30:00 | 01:19:18 | 00:00:00 | |
| DO3MHA-11 | 2026-08-31 23:53:33 | 44.67797 | 12.48742 | 103° | 69km/h | 16467m | 3.7m/s | -60.7°C | 6.8% | 0hPa | 2.7V | 00:00:00 | 01:19:17 | 00:00:00 | |
| IW2NTF | 2026-08-31 23:53:28 | 44.67829 | 12.48525 | 97° | 71km/h | 16425m | 3.8m/s | -61°C | 6.9% | 0hPa | 2.7V | 08:30:00 | 01:19:08 | 00:00:00 | |
| DO3MHA-11 | 2026-08-31 23:53:23 | 44.67830 | 12.48500 | 97° | 69km/h | 16421m | 4.7m/s | -60.9°C | 7.0% | 0hPa | 2.7V | 00:00:00 | 01:19:07 | 08:30:00 | |
| IW2NTF | 2026-08-31 23:53:19 | 44.67839 | 12.48277 | 91° | 75km/h | 16379m | 4.6m/s | -60.6°C | 7% | 0hPa | 2.6V | 08:30:00 | 01:18:58 | 00:00:00 | |
| DO3MHA-11 | 2026-08-31 23:53:13 | 44.67840 | 12.48250 | 93° | 73km/h | 16375m | 4.2m/s | -60.5°C | 7.0% | 0hPa | 2.6V | 00:00:00 | 01:18:57 | 00:00:00 | |
| IW2NTF | 2026-08-31 23:53:08 | 44.67834 | 12.48019 | 82° | 73km/h | 16330m | 4.6m/s | -60.2°C | 6.8% | 0hPa | 2.6V | 08:30:00 | 01:18:48 | 00:00:00 | |
| DO3MHA-11 | 2026-08-31 23:53:03 | 44.67832 | 12.47993 | 84° | 77km/h | 16326m | 3.6m/s | -60.1°C | 6.8% | 0hPa | 2.7V | 00:00:00 | 01:18:47 | 00:00:00 | |
| IW2NTF | 2026-08-31 23:52:58 | 44.67829 | 12.47755 | 91° | 78km/h | 16283m | 4.3m/s | -60.2°C | 6.8% | 0hPa | 2.7V | 08:30:00 | 01:18:38 | 00:00:00 | |
| DO3MHA-11 | 2026-08-31 23:52:52 | 44.67829 | 12.47699 | 88° | 77km/h | 16273m | 5.9m/s | -60.1°C | 6.8% | 0hPa | 2.6V | 00:00:00 | 01:18:36 | 00:00:00 | |
| IW2NTF | 2026-08-31 23:52:48 | 44.67816 | 12.47483 | 85° | 73km/h | 16232m | 4.2m/s | -59.8°C | 6.6% | 0hPa | 2.6V | 08:30:00 | 01:18:28 | 00:00:00 | |
| DO3MHA-11 | 2026-08-31 23:52:42 | 44.67812 | 12.47432 | 83° | 77km/h | 16222m | 5.1m/s | -59.7°C | 6.6% | 0hPa | 2.6V | 00:00:00 | 01:18:26 | 00:00:00 | |
| IW2NTF | 2026-08-31 23:52:38 | 44.67797 | 12.47215 | 85° | 77km/h | 16183m | 2.9m/s | -59.5°C | 6.8% | 0hPa | 2.6V | 08:30:00 | 01:18:18 | 00:00:00 | |
| DO3MHA-11 | 2026-08-31 23:52:32 | 44.67794 | 12.47161 | 83° | 73km/h | 16174m | 5.6m/s | -59.4°C | 6.8% | 0hPa | 2.6V | 00:00:00 | 01:18:16 | 00:00:00 | |
| IW2NTF | 2026-08-31 23:52:29 | 44.67773 | 12.46956 | 84° | 78km/h | 16133m | 5.6m/s | -59.2°C | 6.5% | 0hPa | 2.6V | 08:30:00 | 01:18:08 | 00:00:00 | |
| DO3MHA-11 | 2026-08-31 23:52:22 | 44.67769 | 12.46900 | 85° | 75km/h | 16125m | 3.8m/s | -59.2°C | 6.6% | 0hPa | 2.7V | 00:00:00 | 01:18:06 | 00:00:00 | |
| IW2NTF | 2026-08-31 23:52:18 | 44.67748 | 12.46692 | 76° | 75km/h | 16086m | 5.2m/s | -59°C | 6.6% | 0hPa | 2.6V | 08:30:00 | 01:17:58 | 00:00:00 | |
| DO3MHA-11 | 2026-08-31 23:52:12 | 44.67738 | 12.46640 | 75° | 77km/h | 16076m | 4.0m/s | -58.9°C | 6.5% | 0hPa | 2.7V | 00:00:00 | 01:17:56 | 00:00:00 | |
| IW2NTF | 2026-08-31 23:52:08 | 44.67712 | 12.46426 | 78° | 75km/h | 16036m | 4m/s | -59.1°C | 6.8% | 0hPa | 2.7V | 08:30:00 | 01:17:48 | 00:00:00 | |
| DO3MHA-11 | 2026-08-31 23:52:02 | 44.67703 | 12.46374 | 75° | 77km/h | 16027m | 4.3m/s | 0°C | 0% | 0hPa | 2.6V | 00:00:00 | 01:17:46 | 00:00:00 | |
| IW2NTF | 2026-08-31 23:51:59 | 44.67669 | 12.46160 | 79° | 78km/h | 15988m | 6m/s | -59.1°C | 6.6% | 0hPa | 2.6V | 08:30:00 | 01:17:38 | 00:00:00 | |
| DO3MHA-11 | 2026-08-31 23:51:52 | 44.67662 | 12.46106 | 81° | 73km/h | 15977m | 6.0m/s | 0°C | 0% | 0hPa | 2.7V | 00:00:00 | 01:17:36 | 08:30:00 | |
| IW2NTF | 2026-08-31 23:51:48 | 44.67632 | 12.45907 | 75° | 71km/h | 15935m | 4m/s | -59.2°C | 6.7% | 0hPa | 2.7V | 08:30:00 | 01:17:28 | 00:00:00 | |
| IW2NTF | 2026-08-31 23:51:39 | 44.67606 | 12.45661 | 80° | 64km/h | 15882m | 4.5m/s | -59.4°C | 7.1% | 0hPa | 2.6V | 08:30:00 | 01:17:18 | 00:00:00 | |
| DO3MHA-11 | 2026-08-31 23:51:32 | 44.67600 | 12.45617 | 77° | 66km/h | 15872m | 4.9m/s | 0°C | 0% | 0hPa | 2.7V | 00:00:00 | 01:17:16 | 00:00:00 | |
| IW2NTF | 2026-08-31 23:51:26 | 44.67570 | 12.45431 | 85° | 68km/h | 15833m | 4.9m/s | -58.9°C | 6.8% | 0hPa | 2.7V | 08:30:00 | 01:17:08 | 00:00:00 | |
| IW2NTF | 2026-08-31 23:51:20 | 44.67552 | 12.45212 | 86° | 62km/h | 15782m | 5.5m/s | -58.5°C | 6.6% | 0hPa | 2.6V | 08:30:00 | 01:16:58 | 00:00:00 | |
| IW2NTF | 2026-08-31 23:51:10 | 44.67545 | 12.44978 | 87° | 64km/h | 15728m | 5m/s | -58.3°C | 6.5% | 0hPa | 2.6V | 08:30:00 | 01:16:48 | 00:00:00 | |
| DO3MHA-11 | 2026-08-31 23:51:02 | 44.67544 | 12.44933 | 92° | 60km/h | 15718m | 5.0m/s | 0°C | 0% | 0hPa | 2.7V | 00:00:00 | 01:16:46 | 00:00:00 | |
| IW2NTF | 2026-08-31 23:51:00 | 44.67550 | 12.44761 | 90° | 60km/h | 15676m | 4.5m/s | -58.6°C | 6.7% | 0hPa | 2.7V | 08:30:00 | 01:16:38 | 00:00:00 | |
| DO3MHA-11 | 2026-08-31 23:50:52 | 44.67550 | 12.44717 | 91° | 64km/h | 15667m | 5.1m/s | 0°C | 0% | 0hPa | 2.6V | 00:00:00 | 01:16:36 | 00:00:00 | |
| IW2NTF | 2026-08-31 23:50:50 | 44.67542 | 12.44538 | 84° | 64km/h | 15626m | 3.7m/s | -58.4°C | 6.6% | 0hPa | 2.6V | 08:30:00 | 01:16:28 | 00:00:00 | |
| DO3MHA-11 | 2026-08-31 23:50:42 | 44.67539 | 12.44492 | 86° | 69km/h | 15616m | 4.7m/s | 0°C | 0% | 0hPa | 2.6V | 00:00:00 | 01:16:26 | 00:00:00 | |
| IW2NTF | 2026-08-31 23:50:39 | 44.67514 | 12.44252 | 81° | 68km/h | 15567m | 4.7m/s | -58.9°C | 6.9% | 0hPa | 2.6V | 08:30:00 | 01:16:16 | 00:00:00 | |
| DO3MHA-11 | 2026-08-31 23:50:37 | 44.67514 | 12.44251 | 82° | 80km/h | 15567m | 4.7m/s | 0°C | 0% | 0hPa | 2.6V | 00:00:00 | 01:16:16 | 00:00:00 | |
| IW2NTF | 2026-08-31 23:50:33 | 44.67486 | 12.44029 | 80° | 77km/h | 15522m | 4.3m/s | -59.1°C | 6.8% | 0hPa | 2.6V | 08:30:00 | 01:16:07 | 00:00:00 | |
| IW2NTF | 2026-08-31 23:50:18 | 44.67459 | 12.43752 | 81° | 86km/h | 15470m | 3.5m/s | -60°C | 7.6% | 0hPa | 2.7V | 08:30:00 | 01:15:57 | 00:00:00 | |
| IW2NTF | 2026-08-31 23:50:08 | 44.67426 | 12.43434 | 80° | 89km/h | 15420m | 5.5m/s | -60°C | 7.7% | 0hPa | 2.6V | 08:30:00 | 01:15:47 | 00:00:00 | |
| IW2NTF | 2026-08-31 23:49:58 | 44.67385 | 12.43127 | 78° | 86km/h | 15371m | 4.3m/s | -60°C | 7.5% | 0hPa | 2.8V | 08:30:00 | 01:15:37 | 00:00:00 | |
| DO3MHA-11 | 2026-08-31 23:49:51 | 44.67376 | 12.43068 | 78° | 80km/h | 15362m | 4.4m/s | 0°C | 0% | 0hPa | 2.6V | 00:00:00 | 01:15:35 | 00:00:00 | |
| IW2NTF | 2026-08-31 23:49:49 | 44.67346 | 12.42843 | 81° | 80km/h | 15320m | 5.8m/s | -59.7°C | 7.7% | 0hPa | 2.6V | 08:30:00 | 01:15:27 | 00:00:00 | |
| DO3MHA-11 | 2026-08-31 23:49:41 | 44.67340 | 12.42786 | 82° | 80km/h | 15312m | 4.5m/s | 0°C | 0% | 0hPa | 2.6V | 00:00:00 | 01:15:25 | 00:00:00 | |
| IW2NTF | 2026-08-31 23:49:38 | 44.67316 | 12.42563 | 81° | 77km/h | 15272m | 4.9m/s | -60.2°C | 8.1% | 0hPa | 2.6V | 08:30:00 | 01:15:17 | 00:00:00 | |
| IW2NTF | 2026-08-31 23:49:28 | 44.67292 | 12.42301 | 83° | 78km/h | 15224m | 3.6m/s | -60.4°C | 8.4% | 0hPa | 2.7V | 08:30:00 | 01:15:07 | 00:00:00 | |
| IW2NTF | 2026-08-31 23:49:17 | 44.67276 | 12.42010 | 85° | 86km/h | 15178m | 5.4m/s | -60.6°C | 8.7% | 0hPa | 2.6V | 08:30:00 | 01:14:57 | 00:00:00 | |
| IW2NTF | 2026-08-31 23:49:06 | 44.67250 | 12.41698 | 80° | 89km/h | 15129m | 4.5m/s | -60.5°C | 8.8% | 0hPa | 2.8V | 08:30:00 | 01:14:47 | 00:00:00 | |
| IW2NTF | 2026-08-31 23:48:55 | 44.67216 | 12.41391 | 78° | 84km/h | 15082m | 3.7m/s | -61.1°C | 9.3% | 0hPa | 2.8V | 08:30:00 | 01:14:37 | 00:00:00 | |
| IW2NTF | 2026-08-31 23:48:44 | 44.67169 | 12.41102 | 76° | 84km/h | 15032m | 4.4m/s | -61°C | 9.3% | 0hPa | 2.6V | 08:30:00 | 01:14:27 | 00:00:00 | |
| IW2NTF | 2026-08-31 23:48:34 | 44.67115 | 12.40813 | 77° | 86km/h | 14984m | 4.4m/s | -61.3°C | 9.7% | 0hPa | 2.8V | 08:30:00 | 01:14:17 | 00:00:00 | |
| IW2NTF | 2026-08-31 23:48:24 | 44.67070 | 12.40524 | 77° | 78km/h | 14939m | 4.8m/s | -61.9°C | 10.1% | 0hPa | 2.6V | 08:30:00 | 01:14:07 | 00:00:00 | |
| IW2NTF | 2026-08-31 23:48:15 | 44.67030 | 12.40230 | 82° | 86km/h | 14892m | 5.6m/s | -62°C | 10.6% | 0hPa | 2.8V | 08:30:00 | 01:13:57 | 00:00:00 | |
| IW2NTF | 2026-08-31 23:48:03 | 44.67003 | 12.39919 | 82° | 93km/h | 14843m | 4.2m/s | -61.9°C | 10.5% | 0hPa | 2.8V | 08:30:00 | 01:13:47 | 00:00:00 | |
| IW2NTF | 2026-08-31 23:47:54 | 44.66977 | 12.39600 | 84° | 89km/h | 14798m | 4.7m/s | -61.7°C | 10.5% | 0hPa | 2.6V | 08:30:00 | 01:13:37 | 00:00:00 | |
| IW2NTF | 2026-08-31 23:47:44 | 44.66961 | 12.39287 | 88° | 89km/h | 14753m | 4.9m/s | -61.6°C | 11% | 0hPa | 2.8V | 08:30:00 | 01:13:27 | 00:00:00 | |
| IW2NTF | 2026-08-31 23:47:33 | 44.66955 | 12.38959 | 87° | 93km/h | 14709m | 5.1m/s | -61.3°C | 10.7% | 0hPa | 2.7V | 08:30:00 | 01:13:17 | 00:00:00 | |
| IW2NTF | 2026-08-31 23:47:23 | 44.66952 | 12.38628 | 89° | 91km/h | 14663m | 4.6m/s | -61°C | 10.7% | 0hPa | 2.7V | 08:30:00 | 01:13:07 | 00:00:00 | |
| IW2NTF | 2026-08-31 23:47:14 | 44.66945 | 12.38297 | 88° | 99km/h | 14617m | 5.2m/s | -60.6°C | 10.6% | 0hPa | 2.7V | 08:30:00 | 01:12:57 | 00:00:00 | |
| IW2NTF | 2026-08-31 23:47:08 | 44.66938 | 12.37949 | 87° | 99km/h | 14572m | 5.5m/s | -60.7°C | 10.8% | 0hPa | 2.8V | 08:30:00 | 01:12:47 | 00:00:00 | |
| IW2NTF | 2026-08-31 23:46:54 | 44.66935 | 12.37591 | 88° | 104km/h | 14528m | 5.1m/s | -60.8°C | 11.1% | 0hPa | 2.7V | 08:30:00 | 01:12:37 | 00:00:00 | |
| IW2NTF | 2026-08-31 23:46:47 | 44.66914 | 12.37142 | 83° | 108km/h | 14474m | 5.4m/s | -60.9°C | 11.8% | 0hPa | 2.8V | 08:30:00 | 01:12:25 | 00:00:00 | |
| IW2NTF | 2026-08-31 23:46:31 | 44.66874 | 12.36771 | 81° | 104km/h | 14426m | 3.9m/s | -60.8°C | 12% | 0hPa | 2.7V | 08:30:00 | 01:12:15 | 00:00:00 | |
| IW2NTF | 2026-08-31 23:46:26 | 44.66829 | 12.36393 | 81° | 108km/h | 14379m | 4.9m/s | -60.8°C | 12.5% | 0hPa | 2.7V | 08:30:00 | 01:12:05 | 00:00:00 | |
| IW2NTF | 2026-08-31 23:46:11 | 44.66793 | 12.35947 | 81° | 108km/h | 14325m | 4.6m/s | -60.6°C | 13.3% | 0hPa | 2.7V | 08:30:00 | 01:11:53 | 00:00:00 | |
| IW2NTF | 2026-08-31 23:46:01 | 44.66760 | 12.35580 | 81° | 104km/h | 14281m | 4m/s | -60.5°C | 13.2% | 0hPa | 2.7V | 08:30:00 | 01:11:43 | 00:00:00 | |
| IW2NTF | 2026-08-31 23:45:51 | 44.66718 | 12.35190 | 81° | 113km/h | 14236m | 4.3m/s | -60.8°C | 14.6% | 0hPa | 2.7V | 08:30:00 | 01:11:33 | 00:00:00 | |
| IW2NTF | 2026-08-31 23:45:41 | 44.66679 | 12.34795 | 81° | 111km/h | 14189m | 4.6m/s | -60.7°C | 14.7% | 0hPa | 2.7V | 08:30:00 | 01:11:23 | 00:00:00 | |
| IW2NTF | 2026-08-31 23:45:31 | 44.66642 | 12.34405 | 85° | 113km/h | 14142m | 4.2m/s | -60.6°C | 15% | 0hPa | 2.8V | 08:30:00 | 01:11:13 | 00:00:00 | |
| IW2NTF | 2026-08-31 23:45:21 | 44.66610 | 12.34015 | 83° | 108km/h | 14095m | 4.1m/s | -60.7°C | 16% | 0hPa | 2.7V | 08:30:00 | 01:11:03 | 00:00:00 | |
| IW2NTF | 2026-08-31 23:45:11 | 44.66580 | 12.33631 | 82° | 102km/h | 14048m | 5m/s | -60.8°C | 15.9% | 0hPa | 2.7V | 08:30:00 | 01:10:53 | 00:00:00 | |
| IW2NTF | 2026-08-31 23:45:00 | 44.66558 | 12.33254 | 84° | 111km/h | 14003m | 5.4m/s | -60.5°C | 16.3% | 0hPa | 2.8V | 08:30:00 | 01:10:43 | 00:00:00 | |
| IW2NTF | 2026-08-31 23:44:51 | 44.66529 | 12.32866 | 83° | 113km/h | 13953m | 4.2m/s | -60.8°C | 17.8% | 0hPa | 2.8V | 08:30:00 | 01:10:33 | 00:00:00 | |
| IW2NTF | 2026-08-31 23:44:40 | 44.66487 | 12.32471 | 81° | 113km/h | 13907m | 4.4m/s | -60.6°C | 18% | 0hPa | 2.7V | 08:30:00 | 01:10:23 | 00:00:00 | |
| IW2NTF | 2026-08-31 23:44:30 | 44.66460 | 12.32071 | 84° | 113km/h | 13857m | 5.4m/s | -60.6°C | 19.3% | 0hPa | 2.8V | 08:30:00 | 01:10:13 | 00:00:00 | |
| IW2NTF | 2026-08-31 23:44:20 | 44.66432 | 12.31668 | 85° | 117km/h | 13808m | 4.2m/s | -60.6°C | 20% | 0hPa | 2.7V | 08:30:00 | 01:10:03 | 00:00:00 | |
| IW2NTF | 2026-08-31 23:44:09 | 44.66417 | 12.31248 | 88° | 115km/h | 13757m | 3.9m/s | -60.4°C | 19.9% | 0hPa | 2.8V | 08:30:00 | 01:09:53 | 00:00:00 | |
| IW2NTF | 2026-08-31 23:43:59 | 44.66414 | 12.30824 | 90° | 126km/h | 13707m | 4.9m/s | -60.5°C | 21.1% | 0hPa | 2.7V | 08:30:00 | 01:09:43 | 00:00:00 | |
| IW2NTF | 2026-08-31 23:43:50 | 44.66399 | 12.30387 | 88° | 120km/h | 13659m | 5.1m/s | -60.6°C | 21.7% | 0hPa | 2.7V | 08:30:00 | 01:09:33 | 00:00:00 | |
| IW2NTF | 2026-08-31 23:43:45 | 44.66391 | 12.29944 | 86° | 126km/h | 13610m | 4.6m/s | -60.6°C | 21.9% | 0hPa | 2.7V | 08:30:00 | 01:09:23 | 00:00:00 | |
| IW2NTF | 2026-08-31 23:43:35 | 44.66372 | 12.29508 | 87° | 130km/h | 13561m | 4.7m/s | -60.7°C | 23.2% | 0hPa | 2.7V | 08:30:00 | 01:09:13 | 00:00:00 | |
| IW2NTF | 2026-08-31 23:43:24 | 44.66340 | 12.29059 | 89° | 128km/h | 13510m | 7.5m/s | -60.2°C | 22.2% | 0hPa | 2.8V | 08:30:00 | 01:09:03 | 00:00:00 | |
| IW2NTF | 2026-08-31 23:43:14 | 44.66320 | 12.28607 | 86° | 124km/h | 13451m | 4m/s | -59.7°C | 22% | 0hPa | 2.8V | 08:30:00 | 01:08:53 | 00:00:00 | |
| IW2NTF | 2026-08-31 23:43:04 | 44.66294 | 12.28132 | 82° | 128km/h | 13395m | 6.1m/s | -59.3°C | 21.3% | 0hPa | 2.7V | 08:30:00 | 01:08:43 | 00:00:00 | |
| IW2NTF | 2026-08-31 23:42:51 | 44.66238 | 12.27498 | 80° | 131km/h | 13311m | 5.3m/s | -59.8°C | 23% | 0hPa | 2.8V | 08:30:00 | 01:08:29 | 00:00:00 | |
| IW2NTF | 2026-08-31 23:42:36 | 44.66188 | 12.27022 | 82° | 133km/h | 13259m | 5.4m/s | -59.4°C | 22.2% | 0hPa | 2.7V | 08:30:00 | 01:08:19 | 00:00:00 | |
| IW2NTF | 2026-08-31 23:42:26 | 44.66139 | 12.26542 | 79° | 139km/h | 13208m | 4m/s | -59.3°C | 22.2% | 0hPa | 2.8V | 08:30:00 | 01:08:09 | 00:00:00 | |
| IW2NTF | 2026-08-31 23:42:15 | 44.66087 | 12.26056 | 81° | 144km/h | 13159m | 4.9m/s | -59.1°C | 21.7% | 0hPa | 2.8V | 08:30:00 | 01:07:59 | 00:00:00 | |
| IW2NTF | 2026-08-31 23:42:06 | 44.66037 | 12.25567 | 81° | 137km/h | 13112m | 5.3m/s | -59.1°C | 21.1% | 0hPa | 2.7V | 08:30:00 | 01:07:49 | 00:00:00 | |
| IW2NTF | 2026-08-31 23:41:56 | 44.65974 | 12.24929 | 81° | 146km/h | 13050m | 5.4m/s | -59.3°C | 20.8% | 0hPa | 2.7V | 08:30:00 | 01:07:36 | 00:00:00 | |
| IW2NTF | 2026-08-31 23:41:45 | 44.65907 | 12.24331 | 80° | 141km/h | 12994m | 3.7m/s | -59.1°C | 20.3% | 0hPa | 2.8V | 08:30:00 | 01:07:24 | 00:00:00 | |
| IW2NTF | 2026-08-31 23:41:35 | 44.65841 | 12.23839 | 80° | 142km/h | 12948m | 4.5m/s | -59°C | 20.9% | 0hPa | 2.8V | 08:30:00 | 01:07:14 | 00:00:00 | |
| IW2NTF | 2026-08-31 23:41:26 | 44.65783 | 12.23337 | 80° | 142km/h | 12904m | 5.1m/s | -58.7°C | 21% | 0hPa | 2.8V | 08:30:00 | 01:07:04 | 00:00:00 | |
| IW2NTF | 2026-08-31 23:41:13 | 44.65732 | 12.22840 | 81° | 142km/h | 12856m | 5.4m/s | -58.5°C | 21.1% | 0hPa | 2.7V | 08:30:00 | 01:06:54 | 00:00:00 | |
| IW2NTF | 2026-08-31 23:41:02 | 44.65681 | 12.22348 | 79° | 142km/h | 12809m | 4.6m/s | -58.3°C | 22.5% | 0hPa | 2.8V | 08:30:00 | 01:06:44 | 00:00:00 | |
| IW2NTF | 2026-08-31 23:40:52 | 44.65618 | 12.21847 | 81° | 142km/h | 12761m | 3.6m/s | -58.2°C | 23.9% | 0hPa | 2.7V | 08:30:00 | 01:06:34 | 00:00:00 | |
| IW2NTF | 2026-08-31 23:40:45 | 44.65552 | 12.21346 | 77° | 146km/h | 12714m | 4m/s | -58.4°C | 26.3% | 0hPa | 2.7V | 08:30:00 | 01:06:24 | 00:00:00 | |
| IW2NTF | 2026-08-31 23:40:36 | 44.65475 | 12.20853 | 77° | 144km/h | 12667m | 4.4m/s | -58.1°C | 28.4% | 0hPa | 2.8V | 08:30:00 | 01:06:14 | 00:00:00 | |
| IW2NTF | 2026-08-31 23:40:25 | 44.65395 | 12.20351 | 76° | 146km/h | 12624m | 5m/s | -58°C | 28.8% | 0hPa | 2.8V | 08:30:00 | 01:06:04 | 00:00:00 | |
| IW2NTF | 2026-08-31 23:40:15 | 44.65315 | 12.19835 | 76° | 151km/h | 12579m | 3.8m/s | -58.1°C | 28.9% | 0hPa | 2.7V | 08:30:00 | 01:05:54 | 00:00:00 | |
| IW2NTF | 2026-08-31 23:40:04 | 44.65225 | 12.19323 | 75° | 146km/h | 12535m | 3.7m/s | -57.9°C | 28.8% | 0hPa | 2.8V | 08:30:00 | 01:05:44 | 00:00:00 | |
| IW2NTF | 2026-08-31 23:39:54 | 44.65129 | 12.18810 | 76° | 146km/h | 12491m | 4.4m/s | -57.6°C | 28.8% | 0hPa | 2.7V | 08:30:00 | 01:05:34 | 00:00:00 | |
| IW2NTF | 2026-08-31 23:39:45 | 44.65027 | 12.18202 | 76° | 146km/h | 12440m | 4.1m/s | -57.2°C | 28.2% | 0hPa | 2.7V | 08:30:00 | 01:05:22 | 00:00:00 | |
| IW2NTF | 2026-08-31 23:39:33 | 44.64937 | 12.17681 | 76° | 148km/h | 12396m | 4m/s | -57°C | 28.2% | 0hPa | 2.8V | 08:30:00 | 01:05:12 | 00:00:00 | |
| IW2NTF | 2026-08-31 23:39:24 | 44.64853 | 12.17166 | 77° | 151km/h | 12351m | 4.7m/s | -56.6°C | 28.4% | 0hPa | 2.8V | 08:30:00 | 01:05:02 | 00:00:00 | |
| IW2NTF | 2026-08-31 23:39:13 | 44.64774 | 12.16639 | 77° | 151km/h | 12308m | 5.3m/s | -56.3°C | 28.1% | 0hPa | 2.7V | 08:30:00 | 01:04:52 | 00:00:00 | |
| IW2NTF | 2026-08-31 23:39:04 | 44.64684 | 12.16107 | 78° | 155km/h | 12262m | 5.9m/s | -55.9°C | 28.3% | 0hPa | 2.8V | 08:30:00 | 01:04:42 | 00:00:00 | |
| IW2NTF | 2026-08-31 23:38:53 | 44.64603 | 12.15575 | 77° | 157km/h | 12215m | 3.7m/s | -55.6°C | 27.9% | 0hPa | 2.8V | 08:30:00 | 01:04:32 | 00:00:00 | |
| IW2NTF | 2026-08-31 23:38:39 | 44.64505 | 12.14932 | 76° | 157km/h | 12161m | 4.8m/s | -55.2°C | 26.4% | 0hPa | 2.7V | 08:30:00 | 01:04:20 | 00:00:00 | |
| IW2NTF | 2026-08-31 23:38:31 | 44.64425 | 12.14389 | 78° | 157km/h | 12113m | 6.4m/s | -54.7°C | 25.3% | 0hPa | 2.7V | 08:30:00 | 01:04:10 | 00:00:00 | |
| IW2NTF | 2026-08-31 23:38:18 | 44.64341 | 12.13850 | 79° | 155km/h | 12065m | 4.8m/s | -54.5°C | 24.8% | 0hPa | 2.8V | 08:30:00 | 01:04:00 | 00:00:00 | |
| IW2NTF | 2026-08-31 23:38:11 | 44.64263 | 12.13316 | 79° | 155km/h | 12020m | 5.2m/s | -54.2°C | 24.2% | 0hPa | 2.7V | 08:30:00 | 01:03:50 | 00:00:00 | |
| IW2NTF | 2026-08-31 23:37:58 | 44.64198 | 12.12786 | 81° | 150km/h | 11972m | 4.8m/s | -53.9°C | 23.9% | 0hPa | 2.8V | 08:30:00 | 01:03:40 | 00:00:00 | |
| IW2NTF | 2026-08-31 23:37:48 | 44.64140 | 12.12263 | 81° | 146km/h | 11923m | 4.8m/s | -53.5°C | 23.7% | 0hPa | 2.8V | 08:30:00 | 01:03:30 | 00:00:00 | |
| IW2NTF | 2026-08-31 23:37:39 | 44.64087 | 12.11741 | 81° | 148km/h | 11877m | 4.3m/s | -53.3°C | 23.9% | 0hPa | 2.7V | 08:30:00 | 01:03:20 | 00:00:00 | |
| IW2NTF | 2026-08-31 23:37:32 | 44.64028 | 12.11224 | 82° | 150km/h | 11830m | 4.5m/s | -53.1°C | 24.1% | 0hPa | 2.8V | 08:30:00 | 01:03:10 | 00:00:00 | |
| IW2NTF | 2026-08-31 23:37:21 | 44.63971 | 12.10696 | 81° | 148km/h | 11782m | 3.4m/s | -52.8°C | 24.2% | 0hPa | 2.7V | 08:30:00 | 01:03:00 | 00:00:00 | |
| IW2NTF | 2026-08-31 23:37:11 | 44.63916 | 12.10189 | 80° | 148km/h | 11734m | 5.3m/s | -52.4°C | 23.7% | 0hPa | 2.8V | 08:30:00 | 01:02:50 | 00:00:00 | |
| IW2NTF | 2026-08-31 23:37:01 | 44.63862 | 12.09676 | 80° | 141km/h | 11686m | 4.5m/s | -52°C | 23.6% | 0hPa | 2.8V | 08:30:00 | 01:02:40 | 00:00:00 | |
| IW2NTF | 2026-08-31 23:36:51 | 44.63803 | 12.09174 | 83° | 146km/h | 11639m | 5.3m/s | -51.6°C | 23.6% | 0hPa | 2.7V | 08:30:00 | 01:02:30 | 00:00:00 | |
| IW2NTF | 2026-08-31 23:36:41 | 44.63741 | 12.08673 | 77° | 144km/h | 11588m | 5.7m/s | -51.2°C | 24% | 0hPa | 2.7V | 08:30:00 | 01:02:20 | 00:00:00 | |
| IW2NTF | 2026-08-31 23:36:19 | 44.63623 | 12.07520 | 82° | 146km/h | 11474m | 5.3m/s | -51.3°C | 29.2% | 0hPa | 2.8V | 08:30:00 | 01:01:57 | 00:00:00 | |
| IW2NTF | 2026-08-31 23:36:03 | 44.63565 | 12.06957 | 81° | 141km/h | 11421m | 4.4m/s | -51.1°C | 27.2% | 0hPa | 2.7V | 08:30:00 | 01:01:46 | 00:00:00 | |
| IW2NTF | 2026-08-31 23:35:53 | 44.63518 | 12.06466 | 83° | 142km/h | 11373m | 5.1m/s | -50.7°C | 26.9% | 0hPa | 2.8V | 08:30:00 | 01:01:36 | 00:00:00 | |
| IW2NTF | 2026-08-31 23:35:43 | 44.63476 | 12.05967 | 81° | 137km/h | 11325m | 5.1m/s | -50.4°C | 27.1% | 0hPa | 2.9V | 08:30:00 | 01:01:26 | 00:00:00 | |
| IW2NTF | 2026-08-31 23:35:36 | 44.63420 | 12.05418 | 81° | 142km/h | 11275m | 5.9m/s | -49.9°C | 27% | 0hPa | 2.9V | 08:30:00 | 01:01:15 | 00:00:00 | |
| IW2NTF | 2026-08-31 23:35:11 | 44.63305 | 12.04233 | 83° | 139km/h | 11158m | 3.3m/s | -48.8°C | 26.3% | 0hPa | 2.8V | 08:30:00 | 01:00:51 | 00:00:00 | |
| IW2NTF | 2026-08-31 23:34:58 | 44.63260 | 12.03743 | 82° | 141km/h | 11109m | 4.4m/s | -48.4°C | 25.5% | 0hPa | 2.8V | 08:30:00 | 01:00:41 | 00:00:00 | |
| IW2NTF | 2026-08-31 23:34:52 | 44.63221 | 12.03253 | 84° | 137km/h | 11063m | 4.4m/s | -48°C | 23.8% | 0hPa | 2.8V | 08:30:00 | 01:00:31 | 00:00:00 | |
| IW2NTF | 2026-08-31 23:34:42 | 44.63183 | 12.02766 | 83° | 137km/h | 11016m | 3.9m/s | -47.7°C | 21.8% | 0hPa | 2.9V | 08:30:00 | 01:00:21 | 00:00:00 | |
| IW2NTF | 2026-08-31 23:34:23 | 44.63096 | 12.01846 | 83° | 139km/h | 10929m | 3.8m/s | -47.2°C | 22.6% | 0hPa | 2.9V | 08:30:00 | 01:00:02 | 00:00:00 | |
| IW2NTF | 2026-08-31 23:34:13 | 44.63052 | 12.01366 | 84° | 135km/h | 10883m | 5.1m/s | -47°C | 23.8% | 0hPa | 2.9V | 08:30:00 | 00:59:52 | 00:00:00 | |
| IW2NTF | 2026-08-31 23:34:03 | 44.63019 | 12.00901 | 83° | 131km/h | 10839m | 4.8m/s | -46.8°C | 25.5% | 0hPa | 2.8V | 08:30:00 | 00:59:42 | 00:00:00 | |
| IW2NTF | 2026-08-31 23:33:53 | 44.62989 | 12.00436 | 84° | 133km/h | 10794m | 5.5m/s | -46.5°C | 27.9% | 0hPa | 2.9V | 08:30:00 | 00:59:32 | 00:00:00 | |
| IW2NTF | 2026-08-31 23:33:43 | 44.62954 | 11.99975 | 86° | 130km/h | 10746m | 4.4m/s | -46.3°C | 31.1% | 0hPa | 2.8V | 08:30:00 | 00:59:22 | 00:00:00 | |
| IW2NTF | 2026-08-31 23:33:34 | 44.62935 | 11.99516 | 84° | 130km/h | 10698m | 4.8m/s | -46.1°C | 31.4% | 0hPa | 2.8V | 08:30:00 | 00:59:12 | 00:00:00 | |
| IW2NTF | 2026-08-31 23:33:23 | 44.62904 | 11.99062 | 84° | 130km/h | 10652m | 3.9m/s | -45.8°C | 31.4% | 0hPa | 2.9V | 08:30:00 | 00:59:02 | 00:00:00 | |
| IW2NTF | 2026-08-31 23:33:13 | 44.62865 | 11.98598 | 83° | 133km/h | 10605m | 4.7m/s | -45.5°C | 32.3% | 0hPa | 2.9V | 08:30:00 | 00:58:52 | 00:00:00 | |
| IW2NTF | 2026-08-31 23:33:04 | 44.62831 | 11.98146 | 81° | 130km/h | 10553m | 4.1m/s | -45.1°C | 31.2% | 0hPa | 2.8V | 08:30:00 | 00:58:42 | 00:00:00 | |
| IW2NTF | 2026-08-31 23:32:52 | 44.62818 | 11.97690 | 92° | 128km/h | 10496m | 6.4m/s | -44.7°C | 31.1% | 0hPa | 2.9V | 08:30:00 | 00:58:32 | 00:00:00 | |
| IW2NTF | 2026-08-31 23:32:42 | 44.62807 | 11.97246 | 90° | 130km/h | 10435m | 6.2m/s | -44.4°C | 32.7% | 0hPa | 2.9V | 08:30:00 | 00:58:22 | 00:00:00 | |
| IW2NTF | 2026-08-31 23:32:33 | 44.62790 | 11.96814 | 88° | 113km/h | 10378m | 8.1m/s | -44°C | 32.3% | 0hPa | 2.8V | 08:30:00 | 00:58:12 | 00:00:00 | |
| IW2NTF | 2026-08-31 23:32:22 | 44.62784 | 11.96407 | 90° | 119km/h | 10325m | 5.5m/s | -43.7°C | 35.7% | 0hPa | 2.9V | 08:30:00 | 00:58:02 | 00:00:00 | |
| IW2NTF | 2026-08-31 23:32:12 | 44.62775 | 11.96002 | 90° | 110km/h | 10278m | 6.1m/s | -43.5°C | 42.4% | 0hPa | 2.9V | 08:30:00 | 00:57:52 | 00:00:00 | |
| IW2NTF | 2026-08-31 23:32:02 | 44.62772 | 11.95603 | 89° | 111km/h | 10228m | 4.1m/s | -43.2°C | 44.2% | 0hPa | 2.8V | 08:30:00 | 00:57:42 | 00:00:00 | |
| IW2NTF | 2026-08-31 23:31:52 | 44.62765 | 11.95216 | 88° | 106km/h | 10181m | 3.5m/s | -42.8°C | 44.4% | 0hPa | 2.9V | 08:30:00 | 00:57:32 | 00:00:00 | |
| IW2NTF | 2026-08-31 23:31:42 | 44.62767 | 11.94830 | 91° | 108km/h | 10137m | 4.9m/s | -42.5°C | 46.4% | 0hPa | 2.9V | 08:30:00 | 00:57:22 | 00:00:00 | |
| IW2NTF | 2026-08-31 23:31:32 | 44.62760 | 11.94444 | 87° | 115km/h | 10089m | 4.5m/s | -42.1°C | 45.4% | 0hPa | 2.8V | 08:30:00 | 00:57:12 | 00:00:00 | |
| IW2NTF | 2026-08-31 23:31:20 | 44.62751 | 11.94065 | 89° | 108km/h | 10045m | 4.1m/s | -41.6°C | 44.6% | 0hPa | 2.9V | 08:30:00 | 00:57:02 | 00:00:00 | |
| IW2NTF | 2026-08-31 23:31:10 | 44.62744 | 11.93683 | 87° | 102km/h | 10000m | 3.7m/s | -41.2°C | 43.9% | 0hPa | 2.8V | 08:30:00 | 00:56:52 | 00:00:00 | |
| IW2NTF | 2026-08-31 23:31:00 | 44.62736 | 11.93295 | 89° | 104km/h | 9949m | 4.3m/s | -40.7°C | 42.5% | 0hPa | 2.9V | 08:30:00 | 00:56:42 | 00:00:00 | |
| IW2NTF | 2026-08-31 23:30:49 | 44.62732 | 11.92917 | 86° | 111km/h | 9899m | 3.9m/s | -40.3°C | 42.4% | 0hPa | 2.8V | 08:30:00 | 00:56:32 | 00:00:00 | |
| IW2NTF | 2026-08-31 23:30:43 | 44.62722 | 11.92525 | 88° | 111km/h | 9844m | 4.9m/s | -39.9°C | 42% | 0hPa | 2.9V | 08:30:00 | 00:56:22 | 00:00:00 | |
| IW2NTF | 2026-08-31 23:30:33 | 44.62719 | 11.92149 | 90° | 108km/h | 9790m | 3.4m/s | -39.4°C | 41.9% | 0hPa | 2.8V | 08:30:00 | 00:56:12 | 00:00:00 | |
| IW2NTF | 2026-08-31 23:30:23 | 44.62706 | 11.91769 | 88° | 102km/h | 9735m | 4.7m/s | -39°C | 40.7% | 0hPa | 2.9V | 08:30:00 | 00:56:02 | 00:00:00 | |
| IW2NTF | 2026-08-31 23:30:14 | 44.62693 | 11.91395 | 85° | 106km/h | 9683m | 3.9m/s | -38.5°C | 41.4% | 0hPa | 2.8V | 08:30:00 | 00:55:52 | 00:00:00 | |
| IW2NTF | 2026-08-31 23:30:03 | 44.62685 | 11.91024 | 88° | 108km/h | 9637m | 4.4m/s | -38.2°C | 45.5% | 0hPa | 2.9V | 08:30:00 | 00:55:42 | 00:00:00 | |
| IW2NTF | 2026-08-31 23:29:53 | 44.62679 | 11.90642 | 92° | 111km/h | 9589m | 5.9m/s | -37.9°C | 45.4% | 0hPa | 2.8V | 08:30:00 | 00:55:32 | 00:00:00 | |
| IW2NTF | 2026-08-31 23:29:43 | 44.62685 | 11.90246 | 90° | 113km/h | 9538m | 3.9m/s | -37.5°C | 48.9% | 0hPa | 2.9V | 08:30:00 | 00:55:22 | 00:00:00 | |
| IW2NTF | 2026-08-31 23:29:33 | 44.62693 | 11.89846 | 90° | 111km/h | 9483m | 7m/s | -37.2°C | 48% | 0hPa | 2.9V | 08:30:00 | 00:55:12 | 00:00:00 | |
| IW2NTF | 2026-08-31 23:29:24 | 44.62697 | 11.89457 | 91° | 104km/h | 9429m | 7.1m/s | -36.7°C | 46.8% | 0hPa | 2.9V | 08:30:00 | 00:55:02 | 00:00:00 | |
| IW2NTF | 2026-08-31 23:29:13 | 44.62709 | 11.89073 | 89° | 113km/h | 9379m | 5.2m/s | -36.3°C | 42.8% | 0hPa | 2.9V | 08:30:00 | 00:54:52 | 00:00:00 | |
| IW2NTF | 2026-08-31 23:29:03 | 44.62719 | 11.88685 | 92° | 104km/h | 9325m | 9.3m/s | -35.9°C | 35.2% | 0hPa | 2.8V | 08:30:00 | 00:54:42 | 00:00:00 | |
| IW2NTF | 2026-08-31 23:28:53 | 44.62727 | 11.88317 | 91° | 102km/h | 9267m | 4.3m/s | -35.6°C | 38.8% | 0hPa | 2.9V | 08:30:00 | 00:54:32 | 00:00:00 | |
| IW2NTF | 2026-08-31 23:28:43 | 44.62735 | 11.87948 | 92° | 102km/h | 9211m | 8m/s | -35.1°C | 39.5% | 0hPa | 2.9V | 08:30:00 | 00:54:22 | 00:00:00 | |
| IW2NTF | 2026-08-31 23:28:29 | 44.62748 | 11.87600 | 92° | 102km/h | 9157m | 5.2m/s | -34.7°C | 37.4% | 0hPa | 2.9V | 08:30:00 | 00:54:12 | 00:00:00 | |
| IW2NTF | 2026-08-31 23:28:23 | 44.62752 | 11.87256 | 94° | 97km/h | 9107m | 3.4m/s | -34.4°C | 36.7% | 0hPa | 2.9V | 08:30:00 | 00:54:02 | 00:00:00 | |
| IW2NTF | 2026-08-31 23:28:13 | 44.62773 | 11.86909 | 93° | 99km/h | 9057m | 3.8m/s | -34°C | 36.3% | 0hPa | 2.9V | 08:30:00 | 00:53:52 | 00:00:00 | |
| IW2NTF | 2026-08-31 23:28:01 | 44.62789 | 11.86503 | 92° | 93km/h | 8998m | 7.6m/s | -33.5°C | 34.6% | 0hPa | 2.8V | 08:30:00 | 00:53:40 | 00:00:00 | |
| IW2NTF | 2026-08-31 23:27:51 | 44.62804 | 11.86161 | 92° | 91km/h | 8949m | 5m/s | -33.1°C | 33.2% | 0hPa | 2.9V | 08:30:00 | 00:53:30 | 00:00:00 | |
| IW2NTF | 2026-08-31 23:27:41 | 44.62811 | 11.85833 | 91° | 95km/h | 8894m | 6.2m/s | -32.6°C | 33% | 0hPa | 2.9V | 08:30:00 | 00:53:20 | 00:00:00 | |
| IW2NTF | 2026-08-31 23:27:31 | 44.62830 | 11.85498 | 94° | 88km/h | 8843m | 3.7m/s | -32.2°C | 33% | 0hPa | 2.9V | 08:30:00 | 00:53:10 | 00:00:00 | |
| IW2NTF | 2026-08-31 23:27:21 | 44.62842 | 11.85187 | 95° | 95km/h | 8784m | 5.4m/s | -31.6°C | 30.1% | 0hPa | 2.8V | 08:30:00 | 00:53:00 | 00:00:00 | |
| IW2NTF | 2026-08-31 23:27:05 | 44.62864 | 11.84808 | 90° | 89km/h | 8720m | 6.4m/s | -31.1°C | 28.6% | 0hPa | 2.9V | 08:30:00 | 00:52:48 | 00:00:00 | |
| IW2NTF | 2026-08-31 23:26:56 | 44.62871 | 11.84490 | 92° | 86km/h | 8664m | 3.6m/s | -30.6°C | 28.1% | 0hPa | 2.9V | 08:30:00 | 00:52:38 | 00:00:00 | |
| IW2NTF | 2026-08-31 23:26:49 | 44.62874 | 11.84174 | 92° | 88km/h | 8614m | 7.5m/s | -30.1°C | 28.7% | 0hPa | 2.9V | 08:30:00 | 00:52:28 | 00:00:00 | |
| IW2NTF | 2026-08-31 23:26:39 | 44.62881 | 11.83859 | 92° | 89km/h | 8561m | 4.7m/s | -29.8°C | 28.3% | 0hPa | 2.8V | 08:30:00 | 00:52:18 | 00:00:00 | |
| IW2NTF | 2026-08-31 23:26:29 | 44.62897 | 11.83541 | 90° | 93km/h | 8505m | 3.6m/s | -29.4°C | 27.8% | 0hPa | 2.8V | 08:30:00 | 00:52:08 | 00:00:00 | |
| IW2NTF | 2026-08-31 23:26:14 | 44.62904 | 11.83173 | 91° | 88km/h | 8442m | 4.5m/s | -28.9°C | 27.6% | 0hPa | 2.9V | 08:30:00 | 00:51:56 | 00:00:00 | |
| IW2NTF | 2026-08-31 23:26:07 | 44.62904 | 11.82860 | 90° | 88km/h | 8394m | 5.6m/s | -28.5°C | 27.2% | 0hPa | 2.9V | 08:30:00 | 00:51:46 | 00:00:00 | |
| IW2NTF | 2026-08-31 23:25:57 | 44.62917 | 11.82556 | 91° | 86km/h | 8350m | 4.2m/s | -28.1°C | 18.8% | 0hPa | 2.9V | 08:30:00 | 00:51:36 | 00:00:00 | |
| IW2NTF | 2026-08-31 23:24:56 | 44.62968 | 11.80661 | 91° | 86km/h | 8094m | 4.3m/s | -26.1°C | 5.6% | 0hPa | 2.8V | 08:30:00 | 00:50:35 | 00:00:00 | |
| IW2NTF | 2026-08-31 23:24:46 | 44.62978 | 11.80374 | 93° | 78km/h | 8052m | 3.1m/s | -25.7°C | 5.5% | 0hPa | 2.8V | 08:30:00 | 00:50:25 | 00:00:00 | |
| IW2NTF | 2026-08-31 23:24:36 | 44.62985 | 11.80080 | 90° | 88km/h | 8000m | 5.3m/s | -25.4°C | 5.3% | 0hPa | 2.8V | 08:30:00 | 00:50:15 | 00:00:00 | |
| IW2NTF | 2026-08-31 23:24:26 | 44.62998 | 11.79804 | 94° | 75km/h | 7959m | 2.1m/s | -25.2°C | 5.2% | 0hPa | 2.9V | 08:30:00 | 00:50:05 | 00:00:00 | |
| IW2NTF | 2026-08-31 23:24:16 | 44.63013 | 11.79524 | 92° | 73km/h | 7900m | 4m/s | -24.7°C | 4.8% | 0hPa | 2.9V | 08:30:00 | 00:49:55 | 00:00:00 | |
| IW2NTF | 2026-08-31 23:24:04 | 44.63021 | 11.79221 | 96° | 77km/h | 7836m | 5.7m/s | -24.3°C | 4.7% | 0hPa | 2.9V | 08:30:00 | 00:49:43 | 00:00:00 | |
| IW2NTF | 2026-08-31 23:23:54 | 44.63033 | 11.78987 | 98° | 57km/h | 7791m | 3.9m/s | -23.9°C | 4.8% | 0hPa | 2.9V | 08:30:00 | 00:49:33 | 00:00:00 | |
| IW2NTF | 2026-08-31 23:23:43 | 44.63056 | 11.78733 | 91° | 69km/h | 7732m | 6.6m/s | -23.4°C | 4.9% | 0hPa | 2.9V | 08:30:00 | 00:49:22 | 00:00:00 | |
| IW2NTF | 2026-08-31 23:23:32 | 44.63069 | 11.78463 | 99° | 64km/h | 7667m | 4.2m/s | -22.9°C | 5% | 0hPa | 2.9V | 08:30:00 | 00:49:10 | 00:00:00 | |
| IW2NTF | 2026-08-31 23:23:16 | 44.63101 | 11.78211 | 93° | 55km/h | 7614m | 5.2m/s | -22.6°C | 4.8% | 0hPa | 2.9V | 08:30:00 | 00:48:58 | 00:00:00 | |
| IW2NTF | 2026-08-31 23:23:06 | 44.63123 | 11.78004 | 97° | 58km/h | 7579m | 4.1m/s | -22.2°C | 4.9% | 0hPa | 2.9V | 08:30:00 | 00:48:48 | 00:00:00 | |
| IW2NTF | 2026-08-31 23:22:56 | 44.63139 | 11.77795 | 101° | 58km/h | 7536m | 5.8m/s | -21.9°C | 4.8% | 0hPa | 2.9V | 08:30:00 | 00:48:38 | 00:00:00 | |
| IW2NTF | 2026-08-31 23:22:45 | 44.63160 | 11.77571 | 97° | 53km/h | 7490m | 2.9m/s | -21.5°C | 5% | 0hPa | 2.8V | 08:30:00 | 00:48:27 | 00:00:00 | |
| IW2NTF | 2026-08-31 23:22:34 | 44.63190 | 11.77264 | 102° | 60km/h | 7434m | 3.9m/s | -21.1°C | 5% | 0hPa | 2.9V | 08:30:00 | 00:48:13 | 00:00:00 | |
| IW2NTF | 2026-08-31 23:22:21 | 44.63210 | 11.76995 | 95° | 58km/h | 7376m | 5.9m/s | -20.7°C | 5.1% | 0hPa | 2.9V | 08:30:00 | 00:48:00 | 00:00:00 | |
| IW2NTF | 2026-08-31 23:21:49 | 44.63246 | 11.76293 | 90° | 57km/h | 7220m | 4.8m/s | -19.5°C | 6% | 0hPa | 2.9V | 08:30:00 | 00:47:28 | 00:00:00 | |
| IW2NTF | 2026-08-31 23:21:33 | 44.63246 | 11.76010 | 90° | 53km/h | 7158m | 6.5m/s | -19.1°C | 6.1% | 0hPa | 2.9V | 08:30:00 | 00:47:14 | 00:00:00 | |
| IW2NTF | 2026-08-31 23:21:23 | 44.63254 | 11.75770 | 94° | 58km/h | 7096m | 5.7m/s | -18.6°C | 5.6% | 0hPa | 2.9V | 08:30:00 | 00:47:02 | 00:00:00 | |
| IW2NTF | 2026-08-31 23:21:13 | 44.63264 | 11.75579 | 93° | 58km/h | 7046m | 5.4m/s | -18.1°C | 5.4% | 0hPa | 2.9V | 08:30:00 | 00:46:52 | 00:00:00 | |
| IW2NTF | 2026-08-31 23:21:01 | 44.63278 | 11.75378 | 90° | 58km/h | 7000m | 5.6m/s | -17.7°C | 4.9% | 0hPa | 2.9V | 08:30:00 | 00:46:42 | 00:00:00 | |
| IW2NTF | 2026-08-31 23:20:51 | 44.63290 | 11.75185 | 99° | 55km/h | 6954m | 5.4m/s | -17.4°C | 4.7% | 0hPa | 2.9V | 08:30:00 | 00:46:32 | 00:00:00 | |
| IW2NTF | 2026-08-31 23:20:36 | 44.63316 | 11.74845 | 97° | 66km/h | 6881m | 4.4m/s | -17°C | 5.4% | 0hPa | 2.9V | 08:30:00 | 00:46:15 | 00:00:00 | |
| IW2NTF | 2026-08-31 23:20:26 | 44.63318 | 11.74640 | 90° | 58km/h | 6830m | 5m/s | -16.6°C | 0% | 0hPa | 2.9V | 08:30:00 | 00:46:05 | 00:00:00 | |
| IW2NTF | 2026-08-31 23:20:17 | 44.63337 | 11.74430 | 97° | 58km/h | 6776m | 5.8m/s | -16.2°C | 0% | 0hPa | 3V | 08:30:00 | 00:45:55 | 00:00:00 | |
| IW2NTF | 2026-08-31 23:19:59 | 44.63346 | 11.74074 | 90° | 53km/h | 6697m | 6m/s | -15.5°C | 0% | 0hPa | 3V | 08:30:00 | 00:45:38 | 00:00:00 | |
| IW2NTF | 2026-08-31 23:19:49 | 44.63356 | 11.73862 | 92° | 60km/h | 6647m | 8.3m/s | -15.1°C | 0% | 0hPa | 3V | 08:30:00 | 00:45:28 | 00:00:00 | |
| IW2NTF | 2026-08-31 23:19:39 | 44.63358 | 11.73660 | 95° | 57km/h | 6595m | 6.5m/s | -14.6°C | 0% | 0hPa | 3V | 08:30:00 | 00:45:18 | 00:00:00 | |
| IW2NTF | 2026-08-31 23:19:29 | 44.63362 | 11.73451 | 85° | 55km/h | 6548m | 5.4m/s | 0°C | 0% | 0hPa | 2.9V | 08:30:00 | 00:45:08 | 00:00:00 | |
| IW2NTF | 2026-08-31 23:19:20 | 44.63365 | 11.73261 | 90° | 60km/h | 6503m | 5.6m/s | 0°C | 0% | 0hPa | 3V | 08:30:00 | 00:44:58 | 00:00:00 | |
| IW2NTF | 2026-08-31 23:19:09 | 44.63372 | 11.73061 | 91° | 53km/h | 6449m | 6.7m/s | 0°C | 0% | 0hPa | 3V | 08:30:00 | 00:44:48 | 00:00:00 | |
| IW2NTF | 2026-08-31 23:18:59 | 44.63374 | 11.72862 | 90° | 60km/h | 6395m | 4.5m/s | 0°C | 0% | 0hPa | 2.9V | 08:30:00 | 00:44:38 | 00:00:00 | |
| IW2NTF | 2026-08-31 23:18:49 | 44.63396 | 11.72669 | 100° | 55km/h | 6345m | 4.2m/s | 0°C | 0% | 0hPa | 3V | 08:30:00 | 00:44:28 | 00:00:00 | |
| IW2NTF | 2026-08-31 23:18:39 | 44.63415 | 11.72482 | 96° | 57km/h | 6294m | 3.2m/s | 0°C | 0% | 0hPa | 3V | 08:30:00 | 00:44:18 | 00:00:00 | |
| IW2NTF | 2026-08-31 23:18:28 | 44.63435 | 11.72289 | 103° | 57km/h | 6233m | 6.1m/s | 0°C | 0% | 0hPa | 3V | 00:00:00 | 00:44:08 | 00:00:00 | |
| IW2NTF | 2026-08-31 23:18:18 | 44.63446 | 11.72090 | 95° | 57km/h | 6191m | 4.3m/s | 0°C | 0% | 0hPa | 3V | 00:00:00 | 00:43:58 | 00:00:00 | |
| IW2NTF | 2026-08-31 23:18:08 | 44.63472 | 11.71900 | 103° | 55km/h | 6136m | 3.8m/s | 0°C | 0% | 0hPa | 2.9V | 00:00:00 | 00:43:48 | 00:00:00 | |
| IW2NTF | 2026-08-31 23:11:36 | 44.64163 | 11.66351 | 106° | 24km/h | 4022m | 5.1m/s | 0°C | 0% | 0hPa | 3V | 00:00:00 | 00:37:18 | 00:00:00 | |
| IW2NTF | 2026-08-31 23:11:30 | 44.64165 | 11.66293 | 101° | 26km/h | 3985m | 5.4m/s | 0°C | 0% | 0hPa | 3V | 00:00:00 | 00:37:12 | 00:00:00 | |
| IW2NTF | 2026-08-31 23:11:24 | 44.64169 | 11.66248 | 102° | 22km/h | 3949m | 4.7m/s | 0°C | 0% | 0hPa | 3V | 00:00:00 | 00:37:06 | 00:00:00 | |
| IW2NTF | 2026-08-31 23:11:06 | 44.64182 | 11.66113 | 98° | 24km/h | 3842m | 5.4m/s | 0°C | 0% | 0hPa | 3V | 00:00:00 | 00:36:48 | 00:00:00 | |
| IW2NTF | 2026-08-31 23:10:53 | 44.64212 | 11.65998 | 99° | 22km/h | 3741m | 7.6m/s | 0°C | 0% | 0hPa | 3V | 00:00:00 | 00:36:32 | 00:00:00 | |
| IW2NTF | 2026-08-31 23:10:42 | 44.64233 | 11.65915 | 107° | 24km/h | 3669m | 6.3m/s | 0°C | 0% | 0hPa | 3V | 00:00:00 | 00:36:21 | 00:00:00 | |
| IW2NTF | 2026-08-31 23:10:30 | 44.64238 | 11.65868 | 111° | 16km/h | 3622m | 6.5m/s | 0°C | 0% | 0hPa | 3V | 00:00:00 | 00:36:13 | 00:00:00 |